<?xml version="1.0" encoding="UTF-8" standalone="no" ?>
<gpx xmlns="http://www.topografix.com/GPX/1/1" xmlns:xsi="http://www.w3.org/2001/XMLSchema-instance" xsi:schemaLocation="http://www.topografix.com/GPX/1/1 http://www.topografix.com/GPX/1/1/gpx.xsd" version="1.1" creator="VisuGPX - https://www.visugpx.com">
  <metadata>
    <name>Le Roc des Hourtoux</name>
    <desc><![CDATA[Démarrage depuis le parking de la Malène. Traverser le pont puis suivre l'itinéraire balisé jaune.]]></desc>
  </metadata>
  <trk>
    <name><![CDATA[Le Roc des Hourtoux_1]]></name>
    <trkseg>
      <trkpt lat="44.30118" lon="3.32087">
        <ele>444</ele>
        <time>2016-05-14T08:51:19Z</time>
      </trkpt>
      <trkpt lat="44.30116" lon="3.32052">
        <ele>447</ele>
        <time>2016-05-14T08:52:35Z</time>
      </trkpt>
      <trkpt lat="44.30106" lon="3.32054">
        <ele>446</ele>
        <time>2016-05-14T08:52:44Z</time>
      </trkpt>
      <trkpt lat="44.30112" lon="3.32046">
        <ele>449</ele>
        <time>2016-05-14T08:52:55Z</time>
      </trkpt>
      <trkpt lat="44.30109" lon="3.32038">
        <ele>449</ele>
        <time>2016-05-14T08:53:04Z</time>
      </trkpt>
      <trkpt lat="44.301" lon="3.32037">
        <ele>449</ele>
        <time>2016-05-14T08:53:13Z</time>
      </trkpt>
      <trkpt lat="44.30085" lon="3.32044">
        <ele>450</ele>
        <time>2016-05-14T08:53:23Z</time>
      </trkpt>
      <trkpt lat="44.30086" lon="3.32045">
        <ele>450</ele>
        <time>2016-05-14T08:53:32Z</time>
      </trkpt>
      <trkpt lat="44.3009" lon="3.32045">
        <ele>449</ele>
        <time>2016-05-14T08:53:41Z</time>
      </trkpt>
      <trkpt lat="44.30083" lon="3.32049">
        <ele>448</ele>
        <time>2016-05-14T08:53:52Z</time>
      </trkpt>
      <trkpt lat="44.30075" lon="3.32052">
        <ele>451</ele>
        <time>2016-05-14T08:54:01Z</time>
      </trkpt>
      <trkpt lat="44.30087" lon="3.32049">
        <ele>452</ele>
        <time>2016-05-14T08:54:10Z</time>
      </trkpt>
      <trkpt lat="44.30089" lon="3.32049">
        <ele>447</ele>
        <time>2016-05-14T08:54:22Z</time>
      </trkpt>
      <trkpt lat="44.3009" lon="3.32049">
        <ele>447</ele>
        <time>2016-05-14T08:54:31Z</time>
      </trkpt>
      <trkpt lat="44.30087" lon="3.32049">
        <ele>449</ele>
        <time>2016-05-14T08:54:40Z</time>
      </trkpt>
      <trkpt lat="44.30078" lon="3.32048">
        <ele>446</ele>
        <time>2016-05-14T08:54:49Z</time>
      </trkpt>
      <trkpt lat="44.30059" lon="3.32059">
        <ele>446</ele>
        <time>2016-05-14T08:54:58Z</time>
      </trkpt>
      <trkpt lat="44.30045" lon="3.32069">
        <ele>446</ele>
        <time>2016-05-14T08:55:07Z</time>
      </trkpt>
      <trkpt lat="44.30035" lon="3.32078">
        <ele>447</ele>
        <time>2016-05-14T08:55:17Z</time>
      </trkpt>
      <trkpt lat="44.30022" lon="3.32088">
        <ele>451</ele>
        <time>2016-05-14T08:55:28Z</time>
      </trkpt>
      <trkpt lat="44.30009" lon="3.32095">
        <ele>453</ele>
        <time>2016-05-14T08:55:38Z</time>
      </trkpt>
      <trkpt lat="44.30004" lon="3.32089">
        <ele>453</ele>
        <time>2016-05-14T08:55:48Z</time>
      </trkpt>
      <trkpt lat="44.30001" lon="3.32082">
        <ele>453</ele>
        <time>2016-05-14T08:55:58Z</time>
      </trkpt>
      <trkpt lat="44.30001" lon="3.32067">
        <ele>453</ele>
        <time>2016-05-14T08:56:07Z</time>
      </trkpt>
      <trkpt lat="44.29996" lon="3.32052">
        <ele>453</ele>
        <time>2016-05-14T08:56:16Z</time>
      </trkpt>
      <trkpt lat="44.29993" lon="3.32038">
        <ele>454</ele>
        <time>2016-05-14T08:56:25Z</time>
      </trkpt>
      <trkpt lat="44.29993" lon="3.32021">
        <ele>456</ele>
        <time>2016-05-14T08:56:34Z</time>
      </trkpt>
      <trkpt lat="44.2999" lon="3.32009">
        <ele>456</ele>
        <time>2016-05-14T08:56:43Z</time>
      </trkpt>
      <trkpt lat="44.2999" lon="3.31993">
        <ele>456</ele>
        <time>2016-05-14T08:56:52Z</time>
      </trkpt>
      <trkpt lat="44.2999" lon="3.31978">
        <ele>456</ele>
        <time>2016-05-14T08:57:01Z</time>
      </trkpt>
      <trkpt lat="44.2999" lon="3.31962">
        <ele>456</ele>
        <time>2016-05-14T08:57:11Z</time>
      </trkpt>
      <trkpt lat="44.29996" lon="3.31945">
        <ele>456</ele>
        <time>2016-05-14T08:57:20Z</time>
      </trkpt>
      <trkpt lat="44.29996" lon="3.31929">
        <ele>450</ele>
        <time>2016-05-14T08:57:30Z</time>
      </trkpt>
      <trkpt lat="44.29995" lon="3.31913">
        <ele>450</ele>
        <time>2016-05-14T08:57:39Z</time>
      </trkpt>
      <trkpt lat="44.29998" lon="3.31899">
        <ele>450</ele>
        <time>2016-05-14T08:57:48Z</time>
      </trkpt>
      <trkpt lat="44.29998" lon="3.31886">
        <ele>450</ele>
        <time>2016-05-14T08:57:57Z</time>
      </trkpt>
      <trkpt lat="44.29996" lon="3.31872">
        <ele>450</ele>
        <time>2016-05-14T08:58:06Z</time>
      </trkpt>
      <trkpt lat="44.29997" lon="3.31867">
        <ele>442</ele>
        <time>2016-05-14T08:58:21Z</time>
      </trkpt>
      <trkpt lat="44.29995" lon="3.3187">
        <ele>435</ele>
        <time>2016-05-14T08:58:31Z</time>
      </trkpt>
      <trkpt lat="44.29989" lon="3.31877">
        <ele>437</ele>
        <time>2016-05-14T08:58:42Z</time>
      </trkpt>
      <trkpt lat="44.29988" lon="3.31871">
        <ele>445</ele>
        <time>2016-05-14T08:58:51Z</time>
      </trkpt>
      <trkpt lat="44.29985" lon="3.31867">
        <ele>460</ele>
        <time>2016-05-14T08:59:06Z</time>
      </trkpt>
      <trkpt lat="44.29989" lon="3.31866">
        <ele>463</ele>
        <time>2016-05-14T08:59:16Z</time>
      </trkpt>
      <trkpt lat="44.29987" lon="3.31862">
        <ele>455</ele>
        <time>2016-05-14T08:59:29Z</time>
      </trkpt>
      <trkpt lat="44.29983" lon="3.31865">
        <ele>448</ele>
        <time>2016-05-14T08:59:39Z</time>
      </trkpt>
      <trkpt lat="44.29982" lon="3.31873">
        <ele>446</ele>
        <time>2016-05-14T08:59:48Z</time>
      </trkpt>
      <trkpt lat="44.29985" lon="3.31881">
        <ele>447</ele>
        <time>2016-05-14T08:59:57Z</time>
      </trkpt>
      <trkpt lat="44.29983" lon="3.31894">
        <ele>451</ele>
        <time>2016-05-14T09:00:07Z</time>
      </trkpt>
      <trkpt lat="44.29984" lon="3.31905">
        <ele>456</ele>
        <time>2016-05-14T09:00:16Z</time>
      </trkpt>
      <trkpt lat="44.29983" lon="3.31896">
        <ele>460</ele>
        <time>2016-05-14T09:00:26Z</time>
      </trkpt>
      <trkpt lat="44.29979" lon="3.31888">
        <ele>460</ele>
        <time>2016-05-14T09:00:36Z</time>
      </trkpt>
      <trkpt lat="44.29978" lon="3.31879">
        <ele>462</ele>
        <time>2016-05-14T09:00:45Z</time>
      </trkpt>
      <trkpt lat="44.29975" lon="3.31866">
        <ele>468</ele>
        <time>2016-05-14T09:00:55Z</time>
      </trkpt>
      <trkpt lat="44.29973" lon="3.31853">
        <ele>474</ele>
        <time>2016-05-14T09:01:05Z</time>
      </trkpt>
      <trkpt lat="44.29973" lon="3.31844">
        <ele>474</ele>
        <time>2016-05-14T09:01:14Z</time>
      </trkpt>
      <trkpt lat="44.29973" lon="3.31832">
        <ele>477</ele>
        <time>2016-05-14T09:01:23Z</time>
      </trkpt>
      <trkpt lat="44.2997" lon="3.31823">
        <ele>479</ele>
        <time>2016-05-14T09:01:32Z</time>
      </trkpt>
      <trkpt lat="44.29967" lon="3.31814">
        <ele>479</ele>
        <time>2016-05-14T09:01:44Z</time>
      </trkpt>
      <trkpt lat="44.29965" lon="3.31806">
        <ele>479</ele>
        <time>2016-05-14T09:01:54Z</time>
      </trkpt>
      <trkpt lat="44.29965" lon="3.318">
        <ele>480</ele>
        <time>2016-05-14T09:02:04Z</time>
      </trkpt>
      <trkpt lat="44.29963" lon="3.31793">
        <ele>482</ele>
        <time>2016-05-14T09:02:13Z</time>
      </trkpt>
      <trkpt lat="44.29965" lon="3.31786">
        <ele>482</ele>
        <time>2016-05-14T09:02:22Z</time>
      </trkpt>
      <trkpt lat="44.29964" lon="3.31776">
        <ele>483</ele>
        <time>2016-05-14T09:02:31Z</time>
      </trkpt>
      <trkpt lat="44.29961" lon="3.31764">
        <ele>485</ele>
        <time>2016-05-14T09:02:40Z</time>
      </trkpt>
      <trkpt lat="44.29956" lon="3.31751">
        <ele>486</ele>
        <time>2016-05-14T09:02:50Z</time>
      </trkpt>
      <trkpt lat="44.29953" lon="3.31737">
        <ele>486</ele>
        <time>2016-05-14T09:02:59Z</time>
      </trkpt>
      <trkpt lat="44.29947" lon="3.31726">
        <ele>486</ele>
        <time>2016-05-14T09:03:09Z</time>
      </trkpt>
      <trkpt lat="44.29942" lon="3.31711">
        <ele>486</ele>
        <time>2016-05-14T09:03:18Z</time>
      </trkpt>
      <trkpt lat="44.29937" lon="3.31699">
        <ele>486</ele>
        <time>2016-05-14T09:03:28Z</time>
      </trkpt>
      <trkpt lat="44.29936" lon="3.31687">
        <ele>486</ele>
        <time>2016-05-14T09:03:37Z</time>
      </trkpt>
      <trkpt lat="44.2994" lon="3.31673">
        <ele>487</ele>
        <time>2016-05-14T09:03:46Z</time>
      </trkpt>
      <trkpt lat="44.29944" lon="3.31664">
        <ele>488</ele>
        <time>2016-05-14T09:03:55Z</time>
      </trkpt>
      <trkpt lat="44.29941" lon="3.31653">
        <ele>488</ele>
        <time>2016-05-14T09:04:04Z</time>
      </trkpt>
      <trkpt lat="44.29938" lon="3.31641">
        <ele>490</ele>
        <time>2016-05-14T09:04:14Z</time>
      </trkpt>
      <trkpt lat="44.29934" lon="3.31634">
        <ele>493</ele>
        <time>2016-05-14T09:04:24Z</time>
      </trkpt>
      <trkpt lat="44.2993" lon="3.31627">
        <ele>494</ele>
        <time>2016-05-14T09:04:33Z</time>
      </trkpt>
      <trkpt lat="44.29924" lon="3.3162">
        <ele>495</ele>
        <time>2016-05-14T09:04:42Z</time>
      </trkpt>
      <trkpt lat="44.29917" lon="3.31614">
        <ele>495</ele>
        <time>2016-05-14T09:04:51Z</time>
      </trkpt>
      <trkpt lat="44.2991" lon="3.31614">
        <ele>499</ele>
        <time>2016-05-14T09:05:01Z</time>
      </trkpt>
      <trkpt lat="44.29908" lon="3.31619">
        <ele>502</ele>
        <time>2016-05-14T09:05:10Z</time>
      </trkpt>
      <trkpt lat="44.29911" lon="3.31628">
        <ele>508</ele>
        <time>2016-05-14T09:05:19Z</time>
      </trkpt>
      <trkpt lat="44.29913" lon="3.31639">
        <ele>510</ele>
        <time>2016-05-14T09:05:28Z</time>
      </trkpt>
      <trkpt lat="44.29908" lon="3.31643">
        <ele>510</ele>
        <time>2016-05-14T09:05:37Z</time>
      </trkpt>
      <trkpt lat="44.29902" lon="3.31639">
        <ele>510</ele>
        <time>2016-05-14T09:05:47Z</time>
      </trkpt>
      <trkpt lat="44.29898" lon="3.31631">
        <ele>514</ele>
        <time>2016-05-14T09:05:56Z</time>
      </trkpt>
      <trkpt lat="44.29892" lon="3.31627">
        <ele>516</ele>
        <time>2016-05-14T09:06:06Z</time>
      </trkpt>
      <trkpt lat="44.29891" lon="3.31633">
        <ele>519</ele>
        <time>2016-05-14T09:06:16Z</time>
      </trkpt>
      <trkpt lat="44.29893" lon="3.31642">
        <ele>519</ele>
        <time>2016-05-14T09:06:25Z</time>
      </trkpt>
      <trkpt lat="44.29891" lon="3.31645">
        <ele>519</ele>
        <time>2016-05-14T09:06:34Z</time>
      </trkpt>
      <trkpt lat="44.29886" lon="3.31639">
        <ele>522</ele>
        <time>2016-05-14T09:06:43Z</time>
      </trkpt>
      <trkpt lat="44.2988" lon="3.31634">
        <ele>522</ele>
        <time>2016-05-14T09:06:53Z</time>
      </trkpt>
      <trkpt lat="44.29873" lon="3.31631">
        <ele>523</ele>
        <time>2016-05-14T09:07:03Z</time>
      </trkpt>
      <trkpt lat="44.29871" lon="3.31626">
        <ele>523</ele>
        <time>2016-05-14T09:07:13Z</time>
      </trkpt>
      <trkpt lat="44.29867" lon="3.3162">
        <ele>527</ele>
        <time>2016-05-14T09:07:23Z</time>
      </trkpt>
      <trkpt lat="44.29858" lon="3.31613">
        <ele>527</ele>
        <time>2016-05-14T09:07:33Z</time>
      </trkpt>
      <trkpt lat="44.2985" lon="3.31609">
        <ele>527</ele>
        <time>2016-05-14T09:07:42Z</time>
      </trkpt>
      <trkpt lat="44.29843" lon="3.31602">
        <ele>530</ele>
        <time>2016-05-14T09:07:52Z</time>
      </trkpt>
      <trkpt lat="44.29838" lon="3.31598">
        <ele>534</ele>
        <time>2016-05-14T09:08:01Z</time>
      </trkpt>
      <trkpt lat="44.29831" lon="3.31595">
        <ele>537</ele>
        <time>2016-05-14T09:08:10Z</time>
      </trkpt>
      <trkpt lat="44.29824" lon="3.31589">
        <ele>538</ele>
        <time>2016-05-14T09:08:19Z</time>
      </trkpt>
      <trkpt lat="44.29816" lon="3.31583">
        <ele>538</ele>
        <time>2016-05-14T09:08:29Z</time>
      </trkpt>
      <trkpt lat="44.2981" lon="3.31577">
        <ele>538</ele>
        <time>2016-05-14T09:08:39Z</time>
      </trkpt>
      <trkpt lat="44.29804" lon="3.3157">
        <ele>541</ele>
        <time>2016-05-14T09:08:49Z</time>
      </trkpt>
      <trkpt lat="44.29798" lon="3.31564">
        <ele>543</ele>
        <time>2016-05-14T09:08:58Z</time>
      </trkpt>
      <trkpt lat="44.29791" lon="3.31558">
        <ele>544</ele>
        <time>2016-05-14T09:09:07Z</time>
      </trkpt>
      <trkpt lat="44.29784" lon="3.31554">
        <ele>546</ele>
        <time>2016-05-14T09:09:17Z</time>
      </trkpt>
      <trkpt lat="44.29777" lon="3.31549">
        <ele>547</ele>
        <time>2016-05-14T09:09:27Z</time>
      </trkpt>
      <trkpt lat="44.2977" lon="3.31543">
        <ele>548</ele>
        <time>2016-05-14T09:09:37Z</time>
      </trkpt>
      <trkpt lat="44.29763" lon="3.31539">
        <ele>551</ele>
        <time>2016-05-14T09:09:46Z</time>
      </trkpt>
      <trkpt lat="44.29758" lon="3.3154">
        <ele>552</ele>
        <time>2016-05-14T09:09:56Z</time>
      </trkpt>
      <trkpt lat="44.29763" lon="3.31552">
        <ele>552</ele>
        <time>2016-05-14T09:10:05Z</time>
      </trkpt>
      <trkpt lat="44.29763" lon="3.31559">
        <ele>552</ele>
        <time>2016-05-14T09:10:16Z</time>
      </trkpt>
      <trkpt lat="44.29765" lon="3.31566">
        <ele>551</ele>
        <time>2016-05-14T09:10:25Z</time>
      </trkpt>
      <trkpt lat="44.29768" lon="3.31572">
        <ele>552</ele>
        <time>2016-05-14T09:10:34Z</time>
      </trkpt>
      <trkpt lat="44.29773" lon="3.31581">
        <ele>552</ele>
        <time>2016-05-14T09:10:43Z</time>
      </trkpt>
      <trkpt lat="44.29776" lon="3.31591">
        <ele>552</ele>
        <time>2016-05-14T09:10:52Z</time>
      </trkpt>
      <trkpt lat="44.29781" lon="3.31599">
        <ele>554</ele>
        <time>2016-05-14T09:11:01Z</time>
      </trkpt>
      <trkpt lat="44.29785" lon="3.31609">
        <ele>556</ele>
        <time>2016-05-14T09:11:10Z</time>
      </trkpt>
      <trkpt lat="44.29789" lon="3.31617">
        <ele>560</ele>
        <time>2016-05-14T09:11:19Z</time>
      </trkpt>
      <trkpt lat="44.29793" lon="3.31632">
        <ele>560</ele>
        <time>2016-05-14T09:11:29Z</time>
      </trkpt>
      <trkpt lat="44.29797" lon="3.31644">
        <ele>560</ele>
        <time>2016-05-14T09:11:38Z</time>
      </trkpt>
      <trkpt lat="44.29802" lon="3.31655">
        <ele>560</ele>
        <time>2016-05-14T09:11:48Z</time>
      </trkpt>
      <trkpt lat="44.29808" lon="3.31664">
        <ele>560</ele>
        <time>2016-05-14T09:11:58Z</time>
      </trkpt>
      <trkpt lat="44.29813" lon="3.31673">
        <ele>560</ele>
        <time>2016-05-14T09:12:07Z</time>
      </trkpt>
      <trkpt lat="44.2982" lon="3.31678">
        <ele>561</ele>
        <time>2016-05-14T09:12:17Z</time>
      </trkpt>
      <trkpt lat="44.29825" lon="3.31684">
        <ele>564</ele>
        <time>2016-05-14T09:12:26Z</time>
      </trkpt>
      <trkpt lat="44.29822" lon="3.31685">
        <ele>565</ele>
        <time>2016-05-14T09:12:35Z</time>
      </trkpt>
      <trkpt lat="44.29817" lon="3.3168">
        <ele>570</ele>
        <time>2016-05-14T09:12:45Z</time>
      </trkpt>
      <trkpt lat="44.2982" lon="3.31688">
        <ele>571</ele>
        <time>2016-05-14T09:12:54Z</time>
      </trkpt>
      <trkpt lat="44.29822" lon="3.31696">
        <ele>571</ele>
        <time>2016-05-14T09:13:04Z</time>
      </trkpt>
      <trkpt lat="44.29818" lon="3.31699">
        <ele>571</ele>
        <time>2016-05-14T09:13:13Z</time>
      </trkpt>
      <trkpt lat="44.29816" lon="3.31703">
        <ele>571</ele>
        <time>2016-05-14T09:13:22Z</time>
      </trkpt>
      <trkpt lat="44.29814" lon="3.31696">
        <ele>574</ele>
        <time>2016-05-14T09:13:33Z</time>
      </trkpt>
      <trkpt lat="44.29809" lon="3.31694">
        <ele>576</ele>
        <time>2016-05-14T09:13:42Z</time>
      </trkpt>
      <trkpt lat="44.29806" lon="3.31686">
        <ele>579</ele>
        <time>2016-05-14T09:13:52Z</time>
      </trkpt>
      <trkpt lat="44.298" lon="3.3168">
        <ele>580</ele>
        <time>2016-05-14T09:14:04Z</time>
      </trkpt>
      <trkpt lat="44.298" lon="3.31684">
        <ele>572</ele>
        <time>2016-05-14T09:14:19Z</time>
      </trkpt>
      <trkpt lat="44.298" lon="3.31686">
        <ele>572</ele>
        <time>2016-05-14T09:14:34Z</time>
      </trkpt>
      <trkpt lat="44.29798" lon="3.3168">
        <ele>577</ele>
        <time>2016-05-14T09:14:43Z</time>
      </trkpt>
      <trkpt lat="44.29795" lon="3.31682">
        <ele>580</ele>
        <time>2016-05-14T09:14:57Z</time>
      </trkpt>
      <trkpt lat="44.29799" lon="3.31683">
        <ele>581</ele>
        <time>2016-05-14T09:15:10Z</time>
      </trkpt>
      <trkpt lat="44.29798" lon="3.31685">
        <ele>582</ele>
        <time>2016-05-14T09:15:22Z</time>
      </trkpt>
      <trkpt lat="44.29793" lon="3.31678">
        <ele>582</ele>
        <time>2016-05-14T09:15:31Z</time>
      </trkpt>
      <trkpt lat="44.2979" lon="3.31675">
        <ele>579</ele>
        <time>2016-05-14T09:15:47Z</time>
      </trkpt>
      <trkpt lat="44.29789" lon="3.3167">
        <ele>582</ele>
        <time>2016-05-14T09:15:57Z</time>
      </trkpt>
      <trkpt lat="44.29785" lon="3.31665">
        <ele>591</ele>
        <time>2016-05-14T09:16:06Z</time>
      </trkpt>
      <trkpt lat="44.29779" lon="3.31663">
        <ele>592</ele>
        <time>2016-05-14T09:16:15Z</time>
      </trkpt>
      <trkpt lat="44.29776" lon="3.31654">
        <ele>592</ele>
        <time>2016-05-14T09:16:24Z</time>
      </trkpt>
      <trkpt lat="44.2977" lon="3.31646">
        <ele>592</ele>
        <time>2016-05-14T09:16:34Z</time>
      </trkpt>
      <trkpt lat="44.29765" lon="3.31638">
        <ele>592</ele>
        <time>2016-05-14T09:16:43Z</time>
      </trkpt>
      <trkpt lat="44.29759" lon="3.31628">
        <ele>592</ele>
        <time>2016-05-14T09:16:53Z</time>
      </trkpt>
      <trkpt lat="44.29755" lon="3.31613">
        <ele>592</ele>
        <time>2016-05-14T09:17:02Z</time>
      </trkpt>
      <trkpt lat="44.29749" lon="3.31601">
        <ele>594</ele>
        <time>2016-05-14T09:17:12Z</time>
      </trkpt>
      <trkpt lat="44.29741" lon="3.31595">
        <ele>594</ele>
        <time>2016-05-14T09:17:21Z</time>
      </trkpt>
      <trkpt lat="44.29734" lon="3.3159">
        <ele>594</ele>
        <time>2016-05-14T09:17:31Z</time>
      </trkpt>
      <trkpt lat="44.29727" lon="3.31586">
        <ele>595</ele>
        <time>2016-05-14T09:17:40Z</time>
      </trkpt>
      <trkpt lat="44.29719" lon="3.3158">
        <ele>595</ele>
        <time>2016-05-14T09:17:50Z</time>
      </trkpt>
      <trkpt lat="44.29709" lon="3.31574">
        <ele>596</ele>
        <time>2016-05-14T09:18:00Z</time>
      </trkpt>
      <trkpt lat="44.29699" lon="3.31571">
        <ele>597</ele>
        <time>2016-05-14T09:18:09Z</time>
      </trkpt>
      <trkpt lat="44.29693" lon="3.31564">
        <ele>597</ele>
        <time>2016-05-14T09:18:18Z</time>
      </trkpt>
      <trkpt lat="44.29684" lon="3.3156">
        <ele>597</ele>
        <time>2016-05-14T09:18:27Z</time>
      </trkpt>
      <trkpt lat="44.29676" lon="3.31554">
        <ele>597</ele>
        <time>2016-05-14T09:18:36Z</time>
      </trkpt>
      <trkpt lat="44.29667" lon="3.31552">
        <ele>597</ele>
        <time>2016-05-14T09:18:46Z</time>
      </trkpt>
      <trkpt lat="44.29656" lon="3.31556">
        <ele>597</ele>
        <time>2016-05-14T09:18:56Z</time>
      </trkpt>
      <trkpt lat="44.29646" lon="3.3156">
        <ele>597</ele>
        <time>2016-05-14T09:19:05Z</time>
      </trkpt>
      <trkpt lat="44.29636" lon="3.31559">
        <ele>597</ele>
        <time>2016-05-14T09:19:15Z</time>
      </trkpt>
      <trkpt lat="44.29631" lon="3.31548">
        <ele>597</ele>
        <time>2016-05-14T09:19:25Z</time>
      </trkpt>
      <trkpt lat="44.29626" lon="3.31535">
        <ele>601</ele>
        <time>2016-05-14T09:19:35Z</time>
      </trkpt>
      <trkpt lat="44.29622" lon="3.31524">
        <ele>603</ele>
        <time>2016-05-14T09:19:44Z</time>
      </trkpt>
      <trkpt lat="44.29615" lon="3.31514">
        <ele>607</ele>
        <time>2016-05-14T09:19:54Z</time>
      </trkpt>
      <trkpt lat="44.29606" lon="3.31508">
        <ele>607</ele>
        <time>2016-05-14T09:20:04Z</time>
      </trkpt>
      <trkpt lat="44.296" lon="3.31505">
        <ele>607</ele>
        <time>2016-05-14T09:20:13Z</time>
      </trkpt>
      <trkpt lat="44.29592" lon="3.31502">
        <ele>607</ele>
        <time>2016-05-14T09:20:22Z</time>
      </trkpt>
      <trkpt lat="44.29587" lon="3.31496">
        <ele>610</ele>
        <time>2016-05-14T09:20:31Z</time>
      </trkpt>
      <trkpt lat="44.29581" lon="3.31489">
        <ele>611</ele>
        <time>2016-05-14T09:20:40Z</time>
      </trkpt>
      <trkpt lat="44.29576" lon="3.31479">
        <ele>613</ele>
        <time>2016-05-14T09:20:50Z</time>
      </trkpt>
      <trkpt lat="44.29572" lon="3.31468">
        <ele>615</ele>
        <time>2016-05-14T09:21:00Z</time>
      </trkpt>
      <trkpt lat="44.29568" lon="3.31459">
        <ele>616</ele>
        <time>2016-05-14T09:21:10Z</time>
      </trkpt>
      <trkpt lat="44.29562" lon="3.31449">
        <ele>619</ele>
        <time>2016-05-14T09:21:21Z</time>
      </trkpt>
      <trkpt lat="44.29556" lon="3.31441">
        <ele>621</ele>
        <time>2016-05-14T09:21:31Z</time>
      </trkpt>
      <trkpt lat="44.29548" lon="3.31434">
        <ele>621</ele>
        <time>2016-05-14T09:21:40Z</time>
      </trkpt>
      <trkpt lat="44.29541" lon="3.3143">
        <ele>621</ele>
        <time>2016-05-14T09:21:50Z</time>
      </trkpt>
      <trkpt lat="44.29533" lon="3.31425">
        <ele>621</ele>
        <time>2016-05-14T09:22:00Z</time>
      </trkpt>
      <trkpt lat="44.29526" lon="3.31418">
        <ele>621</ele>
        <time>2016-05-14T09:22:10Z</time>
      </trkpt>
      <trkpt lat="44.29519" lon="3.31415">
        <ele>624</ele>
        <time>2016-05-14T09:22:20Z</time>
      </trkpt>
      <trkpt lat="44.2951" lon="3.31411">
        <ele>625</ele>
        <time>2016-05-14T09:22:30Z</time>
      </trkpt>
      <trkpt lat="44.29502" lon="3.31409">
        <ele>625</ele>
        <time>2016-05-14T09:22:39Z</time>
      </trkpt>
      <trkpt lat="44.29493" lon="3.31408">
        <ele>625</ele>
        <time>2016-05-14T09:22:49Z</time>
      </trkpt>
      <trkpt lat="44.29485" lon="3.3141">
        <ele>625</ele>
        <time>2016-05-14T09:22:59Z</time>
      </trkpt>
      <trkpt lat="44.29478" lon="3.31412">
        <ele>625</ele>
        <time>2016-05-14T09:23:09Z</time>
      </trkpt>
      <trkpt lat="44.29471" lon="3.31414">
        <ele>625</ele>
        <time>2016-05-14T09:23:18Z</time>
      </trkpt>
      <trkpt lat="44.29464" lon="3.31415">
        <ele>627</ele>
        <time>2016-05-14T09:23:29Z</time>
      </trkpt>
      <trkpt lat="44.29458" lon="3.31411">
        <ele>634</ele>
        <time>2016-05-14T09:23:41Z</time>
      </trkpt>
      <trkpt lat="44.29451" lon="3.31406">
        <ele>636</ele>
        <time>2016-05-14T09:23:50Z</time>
      </trkpt>
      <trkpt lat="44.29448" lon="3.31406">
        <ele>639</ele>
        <time>2016-05-14T09:23:59Z</time>
      </trkpt>
      <trkpt lat="44.29445" lon="3.31405">
        <ele>635</ele>
        <time>2016-05-14T09:24:25Z</time>
      </trkpt>
      <trkpt lat="44.2944" lon="3.31399">
        <ele>635</ele>
        <time>2016-05-14T09:24:34Z</time>
      </trkpt>
      <trkpt lat="44.29435" lon="3.31394">
        <ele>635</ele>
        <time>2016-05-14T09:24:43Z</time>
      </trkpt>
      <trkpt lat="44.29428" lon="3.31392">
        <ele>636</ele>
        <time>2016-05-14T09:24:53Z</time>
      </trkpt>
      <trkpt lat="44.2942" lon="3.31392">
        <ele>637</ele>
        <time>2016-05-14T09:25:02Z</time>
      </trkpt>
      <trkpt lat="44.29414" lon="3.31386">
        <ele>642</ele>
        <time>2016-05-14T09:25:12Z</time>
      </trkpt>
      <trkpt lat="44.29407" lon="3.31381">
        <ele>646</ele>
        <time>2016-05-14T09:25:21Z</time>
      </trkpt>
      <trkpt lat="44.29399" lon="3.31376">
        <ele>646</ele>
        <time>2016-05-14T09:25:31Z</time>
      </trkpt>
      <trkpt lat="44.29395" lon="3.31368">
        <ele>648</ele>
        <time>2016-05-14T09:25:41Z</time>
      </trkpt>
      <trkpt lat="44.29388" lon="3.31358">
        <ele>653</ele>
        <time>2016-05-14T09:25:51Z</time>
      </trkpt>
      <trkpt lat="44.2938" lon="3.31352">
        <ele>653</ele>
        <time>2016-05-14T09:26:01Z</time>
      </trkpt>
      <trkpt lat="44.29373" lon="3.31349">
        <ele>655</ele>
        <time>2016-05-14T09:26:11Z</time>
      </trkpt>
      <trkpt lat="44.29366" lon="3.31347">
        <ele>655</ele>
        <time>2016-05-14T09:26:21Z</time>
      </trkpt>
      <trkpt lat="44.29361" lon="3.31338">
        <ele>660</ele>
        <time>2016-05-14T09:26:30Z</time>
      </trkpt>
      <trkpt lat="44.29367" lon="3.31332">
        <ele>669</ele>
        <time>2016-05-14T09:26:41Z</time>
      </trkpt>
      <trkpt lat="44.29367" lon="3.31325">
        <ele>678</ele>
        <time>2016-05-14T09:26:50Z</time>
      </trkpt>
      <trkpt lat="44.2937" lon="3.31313">
        <ele>688</ele>
        <time>2016-05-14T09:27:00Z</time>
      </trkpt>
      <trkpt lat="44.29363" lon="3.31306">
        <ele>688</ele>
        <time>2016-05-14T09:27:09Z</time>
      </trkpt>
      <trkpt lat="44.29354" lon="3.31299">
        <ele>679</ele>
        <time>2016-05-14T09:27:19Z</time>
      </trkpt>
      <trkpt lat="44.2935" lon="3.31293">
        <ele>676</ele>
        <time>2016-05-14T09:27:30Z</time>
      </trkpt>
      <trkpt lat="44.29341" lon="3.31298">
        <ele>675</ele>
        <time>2016-05-14T09:27:40Z</time>
      </trkpt>
      <trkpt lat="44.2934" lon="3.31308">
        <ele>671</ele>
        <time>2016-05-14T09:27:49Z</time>
      </trkpt>
      <trkpt lat="44.29335" lon="3.31319">
        <ele>671</ele>
        <time>2016-05-14T09:27:58Z</time>
      </trkpt>
      <trkpt lat="44.29333" lon="3.31324">
        <ele>669</ele>
        <time>2016-05-14T09:28:08Z</time>
      </trkpt>
      <trkpt lat="44.29333" lon="3.31314">
        <ele>669</ele>
        <time>2016-05-14T09:28:17Z</time>
      </trkpt>
      <trkpt lat="44.2934" lon="3.31302">
        <ele>677</ele>
        <time>2016-05-14T09:28:27Z</time>
      </trkpt>
      <trkpt lat="44.29344" lon="3.31293">
        <ele>685</ele>
        <time>2016-05-14T09:28:37Z</time>
      </trkpt>
      <trkpt lat="44.29346" lon="3.31284">
        <ele>690</ele>
        <time>2016-05-14T09:28:46Z</time>
      </trkpt>
      <trkpt lat="44.29352" lon="3.31275">
        <ele>690</ele>
        <time>2016-05-14T09:28:55Z</time>
      </trkpt>
      <trkpt lat="44.29351" lon="3.3127">
        <ele>691</ele>
        <time>2016-05-14T09:29:06Z</time>
      </trkpt>
      <trkpt lat="44.29353" lon="3.31261">
        <ele>691</ele>
        <time>2016-05-14T09:29:15Z</time>
      </trkpt>
      <trkpt lat="44.29356" lon="3.31255">
        <ele>691</ele>
        <time>2016-05-14T09:29:25Z</time>
      </trkpt>
      <trkpt lat="44.29354" lon="3.31246">
        <ele>691</ele>
        <time>2016-05-14T09:29:35Z</time>
      </trkpt>
      <trkpt lat="44.29348" lon="3.31241">
        <ele>689</ele>
        <time>2016-05-14T09:29:44Z</time>
      </trkpt>
      <trkpt lat="44.2934" lon="3.31241">
        <ele>687</ele>
        <time>2016-05-14T09:29:53Z</time>
      </trkpt>
      <trkpt lat="44.29332" lon="3.3124">
        <ele>687</ele>
        <time>2016-05-14T09:30:03Z</time>
      </trkpt>
      <trkpt lat="44.29324" lon="3.31237">
        <ele>687</ele>
        <time>2016-05-14T09:30:13Z</time>
      </trkpt>
      <trkpt lat="44.29316" lon="3.31239">
        <ele>687</ele>
        <time>2016-05-14T09:30:22Z</time>
      </trkpt>
      <trkpt lat="44.29308" lon="3.3124">
        <ele>688</ele>
        <time>2016-05-14T09:30:32Z</time>
      </trkpt>
      <trkpt lat="44.29301" lon="3.31238">
        <ele>688</ele>
        <time>2016-05-14T09:30:42Z</time>
      </trkpt>
      <trkpt lat="44.29295" lon="3.31238">
        <ele>690</ele>
        <time>2016-05-14T09:30:52Z</time>
      </trkpt>
      <trkpt lat="44.29286" lon="3.31238">
        <ele>692</ele>
        <time>2016-05-14T09:31:02Z</time>
      </trkpt>
      <trkpt lat="44.29279" lon="3.31238">
        <ele>694</ele>
        <time>2016-05-14T09:31:12Z</time>
      </trkpt>
      <trkpt lat="44.29274" lon="3.31233">
        <ele>696</ele>
        <time>2016-05-14T09:31:22Z</time>
      </trkpt>
      <trkpt lat="44.29269" lon="3.31226">
        <ele>698</ele>
        <time>2016-05-14T09:31:32Z</time>
      </trkpt>
      <trkpt lat="44.29264" lon="3.31221">
        <ele>700</ele>
        <time>2016-05-14T09:31:41Z</time>
      </trkpt>
      <trkpt lat="44.29257" lon="3.31211">
        <ele>703</ele>
        <time>2016-05-14T09:31:51Z</time>
      </trkpt>
      <trkpt lat="44.29252" lon="3.31203">
        <ele>704</ele>
        <time>2016-05-14T09:32:01Z</time>
      </trkpt>
      <trkpt lat="44.29248" lon="3.31194">
        <ele>705</ele>
        <time>2016-05-14T09:32:11Z</time>
      </trkpt>
      <trkpt lat="44.29246" lon="3.31183">
        <ele>706</ele>
        <time>2016-05-14T09:32:21Z</time>
      </trkpt>
      <trkpt lat="44.29244" lon="3.31172">
        <ele>709</ele>
        <time>2016-05-14T09:32:31Z</time>
      </trkpt>
      <trkpt lat="44.29246" lon="3.31159">
        <ele>713</ele>
        <time>2016-05-14T09:32:40Z</time>
      </trkpt>
      <trkpt lat="44.29252" lon="3.31148">
        <ele>719</ele>
        <time>2016-05-14T09:32:49Z</time>
      </trkpt>
      <trkpt lat="44.29252" lon="3.31135">
        <ele>724</ele>
        <time>2016-05-14T09:32:58Z</time>
      </trkpt>
      <trkpt lat="44.29253" lon="3.31121">
        <ele>724</ele>
        <time>2016-05-14T09:33:07Z</time>
      </trkpt>
      <trkpt lat="44.2925" lon="3.31108">
        <ele>723</ele>
        <time>2016-05-14T09:33:19Z</time>
      </trkpt>
      <trkpt lat="44.29244" lon="3.31099">
        <ele>713</ele>
        <time>2016-05-14T09:33:30Z</time>
      </trkpt>
      <trkpt lat="44.29243" lon="3.31088">
        <ele>710</ele>
        <time>2016-05-14T09:33:40Z</time>
      </trkpt>
      <trkpt lat="44.2924" lon="3.31082">
        <ele>710</ele>
        <time>2016-05-14T09:33:53Z</time>
      </trkpt>
      <trkpt lat="44.29237" lon="3.31087">
        <ele>710</ele>
        <time>2016-05-14T09:34:03Z</time>
      </trkpt>
      <trkpt lat="44.29235" lon="3.31089">
        <ele>698</ele>
        <time>2016-05-14T09:34:19Z</time>
      </trkpt>
      <trkpt lat="44.29239" lon="3.31088">
        <ele>698</ele>
        <time>2016-05-14T09:34:33Z</time>
      </trkpt>
      <trkpt lat="44.29239" lon="3.3109">
        <ele>693</ele>
        <time>2016-05-14T09:34:48Z</time>
      </trkpt>
      <trkpt lat="44.29241" lon="3.31088">
        <ele>693</ele>
        <time>2016-05-14T09:35:03Z</time>
      </trkpt>
      <trkpt lat="44.29241" lon="3.31085">
        <ele>694</ele>
        <time>2016-05-14T09:35:14Z</time>
      </trkpt>
      <trkpt lat="44.29243" lon="3.31085">
        <ele>694</ele>
        <time>2016-05-14T09:35:29Z</time>
      </trkpt>
      <trkpt lat="44.29242" lon="3.31089">
        <ele>702</ele>
        <time>2016-05-14T09:35:39Z</time>
      </trkpt>
      <trkpt lat="44.2924" lon="3.31087">
        <ele>712</ele>
        <time>2016-05-14T09:35:54Z</time>
      </trkpt>
      <trkpt lat="44.2924" lon="3.31087">
        <ele>722</ele>
        <time>2016-05-14T09:36:05Z</time>
      </trkpt>
      <trkpt lat="44.29239" lon="3.31086">
        <ele>721</ele>
        <time>2016-05-14T09:36:17Z</time>
      </trkpt>
      <trkpt lat="44.29234" lon="3.31087">
        <ele>716</ele>
        <time>2016-05-14T09:36:38Z</time>
      </trkpt>
      <trkpt lat="44.29235" lon="3.31087">
        <ele>715</ele>
        <time>2016-05-14T09:36:59Z</time>
      </trkpt>
      <trkpt lat="44.29236" lon="3.31086">
        <ele>714</ele>
        <time>2016-05-14T09:37:10Z</time>
      </trkpt>
      <trkpt lat="44.29234" lon="3.31085">
        <ele>713</ele>
        <time>2016-05-14T09:37:20Z</time>
      </trkpt>
      <trkpt lat="44.29231" lon="3.31085">
        <ele>711</ele>
        <time>2016-05-14T09:37:29Z</time>
      </trkpt>
      <trkpt lat="44.29223" lon="3.31087">
        <ele>711</ele>
        <time>2016-05-14T09:37:40Z</time>
      </trkpt>
      <trkpt lat="44.29214" lon="3.31085">
        <ele>713</ele>
        <time>2016-05-14T09:37:53Z</time>
      </trkpt>
      <trkpt lat="44.29208" lon="3.31079">
        <ele>715</ele>
        <time>2016-05-14T09:38:06Z</time>
      </trkpt>
      <trkpt lat="44.29203" lon="3.31073">
        <ele>724</ele>
        <time>2016-05-14T09:38:17Z</time>
      </trkpt>
      <trkpt lat="44.29196" lon="3.31068">
        <ele>729</ele>
        <time>2016-05-14T09:38:26Z</time>
      </trkpt>
      <trkpt lat="44.29188" lon="3.31065">
        <ele>731</ele>
        <time>2016-05-14T09:38:36Z</time>
      </trkpt>
      <trkpt lat="44.29175" lon="3.31067">
        <ele>733</ele>
        <time>2016-05-14T09:38:46Z</time>
      </trkpt>
      <trkpt lat="44.2917" lon="3.31068">
        <ele>737</ele>
        <time>2016-05-14T09:38:56Z</time>
      </trkpt>
      <trkpt lat="44.29164" lon="3.31063">
        <ele>738</ele>
        <time>2016-05-14T09:39:08Z</time>
      </trkpt>
      <trkpt lat="44.29167" lon="3.31055">
        <ele>738</ele>
        <time>2016-05-14T09:39:17Z</time>
      </trkpt>
      <trkpt lat="44.29171" lon="3.31048">
        <ele>738</ele>
        <time>2016-05-14T09:39:27Z</time>
      </trkpt>
      <trkpt lat="44.29176" lon="3.31044">
        <ele>738</ele>
        <time>2016-05-14T09:39:37Z</time>
      </trkpt>
      <trkpt lat="44.2918" lon="3.31037">
        <ele>740</ele>
        <time>2016-05-14T09:39:46Z</time>
      </trkpt>
      <trkpt lat="44.29183" lon="3.3103">
        <ele>740</ele>
        <time>2016-05-14T09:39:56Z</time>
      </trkpt>
      <trkpt lat="44.29188" lon="3.31023">
        <ele>740</ele>
        <time>2016-05-14T09:40:07Z</time>
      </trkpt>
      <trkpt lat="44.29184" lon="3.31017">
        <ele>740</ele>
        <time>2016-05-14T09:40:17Z</time>
      </trkpt>
      <trkpt lat="44.29177" lon="3.31017">
        <ele>740</ele>
        <time>2016-05-14T09:40:27Z</time>
      </trkpt>
      <trkpt lat="44.29178" lon="3.31016">
        <ele>748</ele>
        <time>2016-05-14T09:40:37Z</time>
      </trkpt>
      <trkpt lat="44.2918" lon="3.31018">
        <ele>753</ele>
        <time>2016-05-14T09:40:49Z</time>
      </trkpt>
      <trkpt lat="44.29184" lon="3.31012">
        <ele>753</ele>
        <time>2016-05-14T09:41:02Z</time>
      </trkpt>
      <trkpt lat="44.29189" lon="3.31008">
        <ele>755</ele>
        <time>2016-05-14T09:41:11Z</time>
      </trkpt>
      <trkpt lat="44.29193" lon="3.31">
        <ele>757</ele>
        <time>2016-05-14T09:41:20Z</time>
      </trkpt>
      <trkpt lat="44.29196" lon="3.30993">
        <ele>757</ele>
        <time>2016-05-14T09:41:29Z</time>
      </trkpt>
      <trkpt lat="44.29199" lon="3.30986">
        <ele>756</ele>
        <time>2016-05-14T09:41:38Z</time>
      </trkpt>
      <trkpt lat="44.29206" lon="3.3098">
        <ele>755</ele>
        <time>2016-05-14T09:41:48Z</time>
      </trkpt>
      <trkpt lat="44.29214" lon="3.30974">
        <ele>755</ele>
        <time>2016-05-14T09:41:58Z</time>
      </trkpt>
      <trkpt lat="44.29223" lon="3.3097">
        <ele>757</ele>
        <time>2016-05-14T09:42:08Z</time>
      </trkpt>
      <trkpt lat="44.2923" lon="3.30961">
        <ele>758</ele>
        <time>2016-05-14T09:42:18Z</time>
      </trkpt>
      <trkpt lat="44.29239" lon="3.30957">
        <ele>759</ele>
        <time>2016-05-14T09:42:28Z</time>
      </trkpt>
      <trkpt lat="44.29245" lon="3.30957">
        <ele>763</ele>
        <time>2016-05-14T09:42:37Z</time>
      </trkpt>
      <trkpt lat="44.29253" lon="3.30954">
        <ele>765</ele>
        <time>2016-05-14T09:42:47Z</time>
      </trkpt>
      <trkpt lat="44.29257" lon="3.30948">
        <ele>765</ele>
        <time>2016-05-14T09:42:56Z</time>
      </trkpt>
      <trkpt lat="44.29252" lon="3.30942">
        <ele>765</ele>
        <time>2016-05-14T09:43:07Z</time>
      </trkpt>
      <trkpt lat="44.2924" lon="3.30936">
        <ele>765</ele>
        <time>2016-05-14T09:43:20Z</time>
      </trkpt>
      <trkpt lat="44.29235" lon="3.30934">
        <ele>766</ele>
        <time>2016-05-14T09:43:29Z</time>
      </trkpt>
      <trkpt lat="44.29227" lon="3.30937">
        <ele>773</ele>
        <time>2016-05-14T09:43:39Z</time>
      </trkpt>
      <trkpt lat="44.29221" lon="3.30937">
        <ele>774</ele>
        <time>2016-05-14T09:43:48Z</time>
      </trkpt>
      <trkpt lat="44.2921" lon="3.30935">
        <ele>776</ele>
        <time>2016-05-14T09:43:57Z</time>
      </trkpt>
      <trkpt lat="44.29203" lon="3.30936">
        <ele>776</ele>
        <time>2016-05-14T09:44:09Z</time>
      </trkpt>
      <trkpt lat="44.29196" lon="3.30939">
        <ele>779</ele>
        <time>2016-05-14T09:44:18Z</time>
      </trkpt>
      <trkpt lat="44.29189" lon="3.30939">
        <ele>783</ele>
        <time>2016-05-14T09:44:28Z</time>
      </trkpt>
      <trkpt lat="44.29181" lon="3.30938">
        <ele>783</ele>
        <time>2016-05-14T09:44:38Z</time>
      </trkpt>
      <trkpt lat="44.29173" lon="3.30937">
        <ele>786</ele>
        <time>2016-05-14T09:44:47Z</time>
      </trkpt>
      <trkpt lat="44.29167" lon="3.30938">
        <ele>786</ele>
        <time>2016-05-14T09:44:58Z</time>
      </trkpt>
      <trkpt lat="44.29155" lon="3.30937">
        <ele>781</ele>
        <time>2016-05-14T09:45:10Z</time>
      </trkpt>
      <trkpt lat="44.29145" lon="3.30939">
        <ele>781</ele>
        <time>2016-05-14T09:45:20Z</time>
      </trkpt>
      <trkpt lat="44.29143" lon="3.30939">
        <ele>785</ele>
        <time>2016-05-14T09:45:30Z</time>
      </trkpt>
      <trkpt lat="44.29138" lon="3.30939">
        <ele>785</ele>
        <time>2016-05-14T09:45:41Z</time>
      </trkpt>
      <trkpt lat="44.29132" lon="3.30939">
        <ele>789</ele>
        <time>2016-05-14T09:45:51Z</time>
      </trkpt>
      <trkpt lat="44.29128" lon="3.30938">
        <ele>792</ele>
        <time>2016-05-14T09:46:00Z</time>
      </trkpt>
      <trkpt lat="44.29119" lon="3.30935">
        <ele>793</ele>
        <time>2016-05-14T09:46:11Z</time>
      </trkpt>
      <trkpt lat="44.29111" lon="3.3094">
        <ele>794</ele>
        <time>2016-05-14T09:46:20Z</time>
      </trkpt>
      <trkpt lat="44.29103" lon="3.30944">
        <ele>797</ele>
        <time>2016-05-14T09:46:29Z</time>
      </trkpt>
      <trkpt lat="44.29097" lon="3.30951">
        <ele>800</ele>
        <time>2016-05-14T09:46:38Z</time>
      </trkpt>
      <trkpt lat="44.29092" lon="3.30952">
        <ele>801</ele>
        <time>2016-05-14T09:46:48Z</time>
      </trkpt>
      <trkpt lat="44.29082" lon="3.30956">
        <ele>803</ele>
        <time>2016-05-14T09:46:58Z</time>
      </trkpt>
      <trkpt lat="44.29071" lon="3.30956">
        <ele>803</ele>
        <time>2016-05-14T09:47:09Z</time>
      </trkpt>
      <trkpt lat="44.29067" lon="3.30956">
        <ele>803</ele>
        <time>2016-05-14T09:47:19Z</time>
      </trkpt>
      <trkpt lat="44.29059" lon="3.30958">
        <ele>805</ele>
        <time>2016-05-14T09:47:29Z</time>
      </trkpt>
      <trkpt lat="44.29052" lon="3.30956">
        <ele>808</ele>
        <time>2016-05-14T09:47:38Z</time>
      </trkpt>
      <trkpt lat="44.29047" lon="3.30958">
        <ele>808</ele>
        <time>2016-05-14T09:47:48Z</time>
      </trkpt>
      <trkpt lat="44.29039" lon="3.30961">
        <ele>808</ele>
        <time>2016-05-14T09:47:58Z</time>
      </trkpt>
      <trkpt lat="44.29035" lon="3.30963">
        <ele>808</ele>
        <time>2016-05-14T09:48:07Z</time>
      </trkpt>
      <trkpt lat="44.29026" lon="3.30961">
        <ele>808</ele>
        <time>2016-05-14T09:48:17Z</time>
      </trkpt>
      <trkpt lat="44.29024" lon="3.3096">
        <ele>808</ele>
        <time>2016-05-14T09:48:31Z</time>
      </trkpt>
      <trkpt lat="44.29028" lon="3.30956">
        <ele>809</ele>
        <time>2016-05-14T09:48:40Z</time>
      </trkpt>
      <trkpt lat="44.29036" lon="3.30953">
        <ele>814</ele>
        <time>2016-05-14T09:48:50Z</time>
      </trkpt>
      <trkpt lat="44.29043" lon="3.30948">
        <ele>817</ele>
        <time>2016-05-14T09:49:00Z</time>
      </trkpt>
      <trkpt lat="44.29041" lon="3.30943">
        <ele>822</ele>
        <time>2016-05-14T09:49:09Z</time>
      </trkpt>
      <trkpt lat="44.29031" lon="3.30942">
        <ele>823</ele>
        <time>2016-05-14T09:49:20Z</time>
      </trkpt>
      <trkpt lat="44.29023" lon="3.30941">
        <ele>824</ele>
        <time>2016-05-14T09:49:32Z</time>
      </trkpt>
      <trkpt lat="44.29016" lon="3.30937">
        <ele>824</ele>
        <time>2016-05-14T09:49:41Z</time>
      </trkpt>
      <trkpt lat="44.29009" lon="3.30933">
        <ele>824</ele>
        <time>2016-05-14T09:49:50Z</time>
      </trkpt>
      <trkpt lat="44.29003" lon="3.3093">
        <ele>824</ele>
        <time>2016-05-14T09:50:02Z</time>
      </trkpt>
      <trkpt lat="44.28994" lon="3.30923">
        <ele>823</ele>
        <time>2016-05-14T09:50:11Z</time>
      </trkpt>
      <trkpt lat="44.28988" lon="3.30915">
        <ele>822</ele>
        <time>2016-05-14T09:50:20Z</time>
      </trkpt>
      <trkpt lat="44.28986" lon="3.30912">
        <ele>821</ele>
        <time>2016-05-14T09:50:31Z</time>
      </trkpt>
      <trkpt lat="44.28991" lon="3.30907">
        <ele>827</ele>
        <time>2016-05-14T09:50:43Z</time>
      </trkpt>
      <trkpt lat="44.28988" lon="3.30899">
        <ele>830</ele>
        <time>2016-05-14T09:50:52Z</time>
      </trkpt>
      <trkpt lat="44.28984" lon="3.30889">
        <ele>832</ele>
        <time>2016-05-14T09:51:01Z</time>
      </trkpt>
      <trkpt lat="44.28982" lon="3.3088">
        <ele>832</ele>
        <time>2016-05-14T09:51:11Z</time>
      </trkpt>
      <trkpt lat="44.28985" lon="3.30879">
        <ele>832</ele>
        <time>2016-05-14T09:51:23Z</time>
      </trkpt>
      <trkpt lat="44.2899" lon="3.30884">
        <ele>832</ele>
        <time>2016-05-14T09:51:33Z</time>
      </trkpt>
      <trkpt lat="44.29" lon="3.30884">
        <ele>832</ele>
        <time>2016-05-14T09:51:42Z</time>
      </trkpt>
      <trkpt lat="44.29002" lon="3.30874">
        <ele>832</ele>
        <time>2016-05-14T09:51:53Z</time>
      </trkpt>
      <trkpt lat="44.29" lon="3.30866">
        <ele>836</ele>
        <time>2016-05-14T09:52:04Z</time>
      </trkpt>
      <trkpt lat="44.29005" lon="3.30865">
        <ele>840</ele>
        <time>2016-05-14T09:52:15Z</time>
      </trkpt>
      <trkpt lat="44.29011" lon="3.30861">
        <ele>840</ele>
        <time>2016-05-14T09:52:24Z</time>
      </trkpt>
      <trkpt lat="44.29019" lon="3.30856">
        <ele>842</ele>
        <time>2016-05-14T09:52:34Z</time>
      </trkpt>
      <trkpt lat="44.29022" lon="3.30843">
        <ele>845</ele>
        <time>2016-05-14T09:52:44Z</time>
      </trkpt>
      <trkpt lat="44.2902" lon="3.30831">
        <ele>853</ele>
        <time>2016-05-14T09:52:54Z</time>
      </trkpt>
      <trkpt lat="44.29016" lon="3.30819">
        <ele>853</ele>
        <time>2016-05-14T09:53:03Z</time>
      </trkpt>
      <trkpt lat="44.29007" lon="3.30808">
        <ele>851</ele>
        <time>2016-05-14T09:53:13Z</time>
      </trkpt>
      <trkpt lat="44.29004" lon="3.30799">
        <ele>851</ele>
        <time>2016-05-14T09:53:22Z</time>
      </trkpt>
      <trkpt lat="44.28998" lon="3.30791">
        <ele>851</ele>
        <time>2016-05-14T09:53:31Z</time>
      </trkpt>
      <trkpt lat="44.28992" lon="3.30781">
        <ele>851</ele>
        <time>2016-05-14T09:53:40Z</time>
      </trkpt>
      <trkpt lat="44.28987" lon="3.30768">
        <ele>851</ele>
        <time>2016-05-14T09:53:50Z</time>
      </trkpt>
      <trkpt lat="44.28984" lon="3.30758">
        <ele>859</ele>
        <time>2016-05-14T09:54:01Z</time>
      </trkpt>
      <trkpt lat="44.28978" lon="3.30749">
        <ele>859</ele>
        <time>2016-05-14T09:54:12Z</time>
      </trkpt>
      <trkpt lat="44.2897" lon="3.30738">
        <ele>859</ele>
        <time>2016-05-14T09:54:21Z</time>
      </trkpt>
      <trkpt lat="44.28965" lon="3.30729">
        <ele>859</ele>
        <time>2016-05-14T09:54:31Z</time>
      </trkpt>
      <trkpt lat="44.28963" lon="3.30719">
        <ele>861</ele>
        <time>2016-05-14T09:54:40Z</time>
      </trkpt>
      <trkpt lat="44.28958" lon="3.30704">
        <ele>861</ele>
        <time>2016-05-14T09:54:49Z</time>
      </trkpt>
      <trkpt lat="44.28954" lon="3.30691">
        <ele>860</ele>
        <time>2016-05-14T09:54:59Z</time>
      </trkpt>
      <trkpt lat="44.28949" lon="3.30679">
        <ele>858</ele>
        <time>2016-05-14T09:55:09Z</time>
      </trkpt>
      <trkpt lat="44.28944" lon="3.30666">
        <ele>858</ele>
        <time>2016-05-14T09:55:20Z</time>
      </trkpt>
      <trkpt lat="44.28943" lon="3.30653">
        <ele>860</ele>
        <time>2016-05-14T09:55:29Z</time>
      </trkpt>
      <trkpt lat="44.28941" lon="3.3064">
        <ele>865</ele>
        <time>2016-05-14T09:55:40Z</time>
      </trkpt>
      <trkpt lat="44.28937" lon="3.30631">
        <ele>866</ele>
        <time>2016-05-14T09:55:50Z</time>
      </trkpt>
      <trkpt lat="44.28934" lon="3.30621">
        <ele>870</ele>
        <time>2016-05-14T09:56:00Z</time>
      </trkpt>
      <trkpt lat="44.28929" lon="3.30609">
        <ele>871</ele>
        <time>2016-05-14T09:56:09Z</time>
      </trkpt>
      <trkpt lat="44.28923" lon="3.30599">
        <ele>877</ele>
        <time>2016-05-14T09:56:20Z</time>
      </trkpt>
      <trkpt lat="44.28911" lon="3.30591">
        <ele>877</ele>
        <time>2016-05-14T09:56:29Z</time>
      </trkpt>
      <trkpt lat="44.28902" lon="3.3058">
        <ele>873</ele>
        <time>2016-05-14T09:56:39Z</time>
      </trkpt>
      <trkpt lat="44.28895" lon="3.30572">
        <ele>872</ele>
        <time>2016-05-14T09:56:49Z</time>
      </trkpt>
      <trkpt lat="44.28888" lon="3.30562">
        <ele>872</ele>
        <time>2016-05-14T09:56:59Z</time>
      </trkpt>
      <trkpt lat="44.28881" lon="3.30552">
        <ele>872</ele>
        <time>2016-05-14T09:57:09Z</time>
      </trkpt>
      <trkpt lat="44.28877" lon="3.30542">
        <ele>873</ele>
        <time>2016-05-14T09:57:20Z</time>
      </trkpt>
      <trkpt lat="44.28869" lon="3.30533">
        <ele>873</ele>
        <time>2016-05-14T09:57:30Z</time>
      </trkpt>
      <trkpt lat="44.28865" lon="3.30524">
        <ele>876</ele>
        <time>2016-05-14T09:57:40Z</time>
      </trkpt>
      <trkpt lat="44.28861" lon="3.30512">
        <ele>880</ele>
        <time>2016-05-14T09:57:50Z</time>
      </trkpt>
      <trkpt lat="44.28858" lon="3.30503">
        <ele>888</ele>
        <time>2016-05-14T09:58:00Z</time>
      </trkpt>
      <trkpt lat="44.2885" lon="3.30489">
        <ele>891</ele>
        <time>2016-05-14T09:58:10Z</time>
      </trkpt>
      <trkpt lat="44.28846" lon="3.30477">
        <ele>891</ele>
        <time>2016-05-14T09:58:20Z</time>
      </trkpt>
      <trkpt lat="44.2884" lon="3.30468">
        <ele>891</ele>
        <time>2016-05-14T09:58:29Z</time>
      </trkpt>
      <trkpt lat="44.28834" lon="3.30458">
        <ele>887</ele>
        <time>2016-05-14T09:58:46Z</time>
      </trkpt>
      <trkpt lat="44.28831" lon="3.30452">
        <ele>887</ele>
        <time>2016-05-14T09:58:55Z</time>
      </trkpt>
      <trkpt lat="44.28828" lon="3.30444">
        <ele>889</ele>
        <time>2016-05-14T09:59:05Z</time>
      </trkpt>
      <trkpt lat="44.28824" lon="3.30432">
        <ele>891</ele>
        <time>2016-05-14T09:59:14Z</time>
      </trkpt>
      <trkpt lat="44.28817" lon="3.30421">
        <ele>891</ele>
        <time>2016-05-14T09:59:23Z</time>
      </trkpt>
      <trkpt lat="44.28811" lon="3.30413">
        <ele>888</ele>
        <time>2016-05-14T09:59:32Z</time>
      </trkpt>
      <trkpt lat="44.28806" lon="3.30403">
        <ele>886</ele>
        <time>2016-05-14T09:59:41Z</time>
      </trkpt>
      <trkpt lat="44.28802" lon="3.30395">
        <ele>886</ele>
        <time>2016-05-14T09:59:50Z</time>
      </trkpt>
      <trkpt lat="44.28795" lon="3.30384">
        <ele>886</ele>
        <time>2016-05-14T10:00:00Z</time>
      </trkpt>
      <trkpt lat="44.2879" lon="3.30375">
        <ele>886</ele>
        <time>2016-05-14T10:00:09Z</time>
      </trkpt>
      <trkpt lat="44.28785" lon="3.30364">
        <ele>890</ele>
        <time>2016-05-14T10:00:20Z</time>
      </trkpt>
      <trkpt lat="44.2878" lon="3.30349">
        <ele>894</ele>
        <time>2016-05-14T10:00:30Z</time>
      </trkpt>
      <trkpt lat="44.28776" lon="3.30337">
        <ele>894</ele>
        <time>2016-05-14T10:00:41Z</time>
      </trkpt>
      <trkpt lat="44.2877" lon="3.30329">
        <ele>893</ele>
        <time>2016-05-14T10:00:52Z</time>
      </trkpt>
      <trkpt lat="44.28768" lon="3.3032">
        <ele>893</ele>
        <time>2016-05-14T10:01:04Z</time>
      </trkpt>
      <trkpt lat="44.28764" lon="3.30317">
        <ele>891</ele>
        <time>2016-05-14T10:01:16Z</time>
      </trkpt>
      <trkpt lat="44.28762" lon="3.30314">
        <ele>891</ele>
        <time>2016-05-14T10:01:32Z</time>
      </trkpt>
      <trkpt lat="44.28761" lon="3.30316">
        <ele>892</ele>
        <time>2016-05-14T10:01:45Z</time>
      </trkpt>
      <trkpt lat="44.28762" lon="3.30317">
        <ele>891</ele>
        <time>2016-05-14T10:02:04Z</time>
      </trkpt>
      <trkpt lat="44.28761" lon="3.30314">
        <ele>890</ele>
        <time>2016-05-14T10:02:20Z</time>
      </trkpt>
      <trkpt lat="44.28762" lon="3.30315">
        <ele>890</ele>
        <time>2016-05-14T10:02:39Z</time>
      </trkpt>
      <trkpt lat="44.28762" lon="3.30316">
        <ele>890</ele>
        <time>2016-05-14T10:02:58Z</time>
      </trkpt>
      <trkpt lat="44.28762" lon="3.30318">
        <ele>887</ele>
        <time>2016-05-14T10:03:17Z</time>
      </trkpt>
      <trkpt lat="44.28762" lon="3.30319">
        <ele>886</ele>
        <time>2016-05-14T10:03:37Z</time>
      </trkpt>
      <trkpt lat="44.28762" lon="3.30318">
        <ele>886</ele>
        <time>2016-05-14T10:03:46Z</time>
      </trkpt>
      <trkpt lat="44.28759" lon="3.30315">
        <ele>886</ele>
        <time>2016-05-14T10:03:57Z</time>
      </trkpt>
      <trkpt lat="44.28758" lon="3.30317">
        <ele>885</ele>
        <time>2016-05-14T10:04:08Z</time>
      </trkpt>
      <trkpt lat="44.28757" lon="3.30315">
        <ele>885</ele>
        <time>2016-05-14T10:04:23Z</time>
      </trkpt>
      <trkpt lat="44.28759" lon="3.30318">
        <ele>885</ele>
        <time>2016-05-14T10:04:35Z</time>
      </trkpt>
      <trkpt lat="44.28759" lon="3.3032">
        <ele>885</ele>
        <time>2016-05-14T10:04:44Z</time>
      </trkpt>
      <trkpt lat="44.28762" lon="3.30321">
        <ele>885</ele>
        <time>2016-05-14T10:04:55Z</time>
      </trkpt>
      <trkpt lat="44.28762" lon="3.30318">
        <ele>884</ele>
        <time>2016-05-14T10:05:28Z</time>
      </trkpt>
      <trkpt lat="44.28761" lon="3.3032">
        <ele>884</ele>
        <time>2016-05-14T10:05:37Z</time>
      </trkpt>
      <trkpt lat="44.28758" lon="3.30321">
        <ele>884</ele>
        <time>2016-05-14T10:05:50Z</time>
      </trkpt>
      <trkpt lat="44.28757" lon="3.30322">
        <ele>885</ele>
        <time>2016-05-14T10:06:05Z</time>
      </trkpt>
      <trkpt lat="44.28754" lon="3.30324">
        <ele>884</ele>
        <time>2016-05-14T10:06:17Z</time>
      </trkpt>
      <trkpt lat="44.28756" lon="3.30324">
        <ele>884</ele>
        <time>2016-05-14T10:06:31Z</time>
      </trkpt>
      <trkpt lat="44.28759" lon="3.30324">
        <ele>885</ele>
        <time>2016-05-14T10:06:47Z</time>
      </trkpt>
      <trkpt lat="44.2876" lon="3.30324">
        <ele>886</ele>
        <time>2016-05-14T10:06:56Z</time>
      </trkpt>
      <trkpt lat="44.28761" lon="3.30323">
        <ele>894</ele>
        <time>2016-05-14T10:07:49Z</time>
      </trkpt>
      <trkpt lat="44.28763" lon="3.30322">
        <ele>894</ele>
        <time>2016-05-14T10:08:22Z</time>
      </trkpt>
      <trkpt lat="44.28765" lon="3.30321">
        <ele>892</ele>
        <time>2016-05-14T10:08:39Z</time>
      </trkpt>
      <trkpt lat="44.28764" lon="3.30321">
        <ele>889</ele>
        <time>2016-05-14T10:09:08Z</time>
      </trkpt>
      <trkpt lat="44.28759" lon="3.30322">
        <ele>889</ele>
        <time>2016-05-14T10:09:18Z</time>
      </trkpt>
      <trkpt lat="44.28759" lon="3.30324">
        <ele>886</ele>
        <time>2016-05-14T10:09:40Z</time>
      </trkpt>
      <trkpt lat="44.28761" lon="3.30324">
        <ele>886</ele>
        <time>2016-05-14T10:09:50Z</time>
      </trkpt>
      <trkpt lat="44.28762" lon="3.30322">
        <ele>886</ele>
        <time>2016-05-14T10:10:18Z</time>
      </trkpt>
      <trkpt lat="44.28763" lon="3.30321">
        <ele>886</ele>
        <time>2016-05-14T10:10:29Z</time>
      </trkpt>
      <trkpt lat="44.28763" lon="3.30319">
        <ele>886</ele>
        <time>2016-05-14T10:10:57Z</time>
      </trkpt>
      <trkpt lat="44.28763" lon="3.30321">
        <ele>885</ele>
        <time>2016-05-14T10:11:24Z</time>
      </trkpt>
      <trkpt lat="44.28761" lon="3.30323">
        <ele>885</ele>
        <time>2016-05-14T10:11:44Z</time>
      </trkpt>
      <trkpt lat="44.28761" lon="3.30321">
        <ele>885</ele>
        <time>2016-05-14T10:12:17Z</time>
      </trkpt>
      <trkpt lat="44.28761" lon="3.30321">
        <ele>885</ele>
        <time>2016-05-14T10:12:31Z</time>
      </trkpt>
      <trkpt lat="44.28762" lon="3.30322">
        <ele>885</ele>
        <time>2016-05-14T10:12:43Z</time>
      </trkpt>
      <trkpt lat="44.28764" lon="3.29926">
        <ele>917</ele>
        <time>2016-05-14T10:12:59Z</time>
      </trkpt>
      <trkpt lat="44.28771" lon="3.29939">
        <ele>917</ele>
        <time>2016-05-14T10:13:10Z</time>
      </trkpt>
      <trkpt lat="44.28779" lon="3.29947">
        <ele>917</ele>
        <time>2016-05-14T10:13:19Z</time>
      </trkpt>
      <trkpt lat="44.28788" lon="3.29958">
        <ele>917</ele>
        <time>2016-05-14T10:13:29Z</time>
      </trkpt>
      <trkpt lat="44.28796" lon="3.29966">
        <ele>917</ele>
        <time>2016-05-14T10:13:38Z</time>
      </trkpt>
      <trkpt lat="44.28806" lon="3.29975">
        <ele>917</ele>
        <time>2016-05-14T10:13:47Z</time>
      </trkpt>
      <trkpt lat="44.28817" lon="3.29984">
        <ele>917</ele>
        <time>2016-05-14T10:13:58Z</time>
      </trkpt>
      <trkpt lat="44.28824" lon="3.29993">
        <ele>917</ele>
        <time>2016-05-14T10:14:07Z</time>
      </trkpt>
      <trkpt lat="44.28831" lon="3.30001">
        <ele>917</ele>
        <time>2016-05-14T10:14:17Z</time>
      </trkpt>
      <trkpt lat="44.28836" lon="3.30014">
        <ele>917</ele>
        <time>2016-05-14T10:14:27Z</time>
      </trkpt>
      <trkpt lat="44.28838" lon="3.30027">
        <ele>917</ele>
        <time>2016-05-14T10:14:36Z</time>
      </trkpt>
      <trkpt lat="44.28845" lon="3.30042">
        <ele>917</ele>
        <time>2016-05-14T10:14:46Z</time>
      </trkpt>
      <trkpt lat="44.28853" lon="3.30053">
        <ele>917</ele>
        <time>2016-05-14T10:14:56Z</time>
      </trkpt>
      <trkpt lat="44.28861" lon="3.30066">
        <ele>917</ele>
        <time>2016-05-14T10:15:06Z</time>
      </trkpt>
      <trkpt lat="44.28868" lon="3.30078">
        <ele>917</ele>
        <time>2016-05-14T10:15:16Z</time>
      </trkpt>
      <trkpt lat="44.28876" lon="3.3009">
        <ele>917</ele>
        <time>2016-05-14T10:15:26Z</time>
      </trkpt>
      <trkpt lat="44.28883" lon="3.30101">
        <ele>917</ele>
        <time>2016-05-14T10:15:35Z</time>
      </trkpt>
      <trkpt lat="44.2889" lon="3.30113">
        <ele>917</ele>
        <time>2016-05-14T10:15:44Z</time>
      </trkpt>
      <trkpt lat="44.289" lon="3.30118">
        <ele>917</ele>
        <time>2016-05-14T10:15:53Z</time>
      </trkpt>
      <trkpt lat="44.28911" lon="3.30117">
        <ele>917</ele>
        <time>2016-05-14T10:16:03Z</time>
      </trkpt>
      <trkpt lat="44.28921" lon="3.30116">
        <ele>917</ele>
        <time>2016-05-14T10:16:13Z</time>
      </trkpt>
      <trkpt lat="44.2893" lon="3.30116">
        <ele>917</ele>
        <time>2016-05-14T10:16:23Z</time>
      </trkpt>
      <trkpt lat="44.28933" lon="3.30123">
        <ele>917</ele>
        <time>2016-05-14T10:16:32Z</time>
      </trkpt>
      <trkpt lat="44.28938" lon="3.30136">
        <ele>917</ele>
        <time>2016-05-14T10:16:42Z</time>
      </trkpt>
      <trkpt lat="44.28944" lon="3.30147">
        <ele>917</ele>
        <time>2016-05-14T10:16:51Z</time>
      </trkpt>
      <trkpt lat="44.28951" lon="3.30154">
        <ele>916</ele>
        <time>2016-05-14T10:17:00Z</time>
      </trkpt>
      <trkpt lat="44.28958" lon="3.30165">
        <ele>914</ele>
        <time>2016-05-14T10:17:10Z</time>
      </trkpt>
      <trkpt lat="44.28957" lon="3.30178">
        <ele>914</ele>
        <time>2016-05-14T10:17:20Z</time>
      </trkpt>
      <trkpt lat="44.28962" lon="3.30194">
        <ele>914</ele>
        <time>2016-05-14T10:17:30Z</time>
      </trkpt>
      <trkpt lat="44.28973" lon="3.30206">
        <ele>912</ele>
        <time>2016-05-14T10:17:40Z</time>
      </trkpt>
      <trkpt lat="44.2898" lon="3.30217">
        <ele>911</ele>
        <time>2016-05-14T10:17:51Z</time>
      </trkpt>
      <trkpt lat="44.28986" lon="3.30226">
        <ele>910</ele>
        <time>2016-05-14T10:18:00Z</time>
      </trkpt>
      <trkpt lat="44.28993" lon="3.30236">
        <ele>910</ele>
        <time>2016-05-14T10:18:09Z</time>
      </trkpt>
      <trkpt lat="44.29002" lon="3.30247">
        <ele>910</ele>
        <time>2016-05-14T10:18:18Z</time>
      </trkpt>
      <trkpt lat="44.2901" lon="3.30255">
        <ele>910</ele>
        <time>2016-05-14T10:18:27Z</time>
      </trkpt>
      <trkpt lat="44.29019" lon="3.30266">
        <ele>910</ele>
        <time>2016-05-14T10:18:36Z</time>
      </trkpt>
      <trkpt lat="44.29029" lon="3.30274">
        <ele>913</ele>
        <time>2016-05-14T10:18:45Z</time>
      </trkpt>
      <trkpt lat="44.29037" lon="3.30285">
        <ele>913</ele>
        <time>2016-05-14T10:18:55Z</time>
      </trkpt>
      <trkpt lat="44.29039" lon="3.30296">
        <ele>914</ele>
        <time>2016-05-14T10:19:04Z</time>
      </trkpt>
      <trkpt lat="44.29044" lon="3.30309">
        <ele>915</ele>
        <time>2016-05-14T10:19:14Z</time>
      </trkpt>
      <trkpt lat="44.2905" lon="3.30323">
        <ele>915</ele>
        <time>2016-05-14T10:19:24Z</time>
      </trkpt>
      <trkpt lat="44.29055" lon="3.3033">
        <ele>915</ele>
        <time>2016-05-14T10:19:33Z</time>
      </trkpt>
      <trkpt lat="44.29065" lon="3.30341">
        <ele>915</ele>
        <time>2016-05-14T10:19:42Z</time>
      </trkpt>
      <trkpt lat="44.29073" lon="3.3035">
        <ele>916</ele>
        <time>2016-05-14T10:19:51Z</time>
      </trkpt>
      <trkpt lat="44.2908" lon="3.30359">
        <ele>918</ele>
        <time>2016-05-14T10:20:00Z</time>
      </trkpt>
      <trkpt lat="44.29087" lon="3.30367">
        <ele>918</ele>
        <time>2016-05-14T10:20:09Z</time>
      </trkpt>
      <trkpt lat="44.29092" lon="3.3038">
        <ele>918</ele>
        <time>2016-05-14T10:20:18Z</time>
      </trkpt>
      <trkpt lat="44.29098" lon="3.30391">
        <ele>918</ele>
        <time>2016-05-14T10:20:27Z</time>
      </trkpt>
      <trkpt lat="44.29108" lon="3.30399">
        <ele>918</ele>
        <time>2016-05-14T10:20:36Z</time>
      </trkpt>
      <trkpt lat="44.2912" lon="3.30403">
        <ele>917</ele>
        <time>2016-05-14T10:20:45Z</time>
      </trkpt>
      <trkpt lat="44.29131" lon="3.30408">
        <ele>917</ele>
        <time>2016-05-14T10:20:54Z</time>
      </trkpt>
      <trkpt lat="44.2914" lon="3.3041">
        <ele>917</ele>
        <time>2016-05-14T10:21:03Z</time>
      </trkpt>
      <trkpt lat="44.2915" lon="3.30415">
        <ele>916</ele>
        <time>2016-05-14T10:21:13Z</time>
      </trkpt>
      <trkpt lat="44.2916" lon="3.30421">
        <ele>916</ele>
        <time>2016-05-14T10:21:22Z</time>
      </trkpt>
      <trkpt lat="44.29168" lon="3.30429">
        <ele>916</ele>
        <time>2016-05-14T10:21:31Z</time>
      </trkpt>
      <trkpt lat="44.29178" lon="3.30436">
        <ele>916</ele>
        <time>2016-05-14T10:21:40Z</time>
      </trkpt>
      <trkpt lat="44.29188" lon="3.3044">
        <ele>916</ele>
        <time>2016-05-14T10:21:49Z</time>
      </trkpt>
      <trkpt lat="44.29197" lon="3.30448">
        <ele>916</ele>
        <time>2016-05-14T10:21:58Z</time>
      </trkpt>
      <trkpt lat="44.29208" lon="3.30452">
        <ele>916</ele>
        <time>2016-05-14T10:22:07Z</time>
      </trkpt>
      <trkpt lat="44.2922" lon="3.30454">
        <ele>916</ele>
        <time>2016-05-14T10:22:16Z</time>
      </trkpt>
      <trkpt lat="44.2923" lon="3.30457">
        <ele>916</ele>
        <time>2016-05-14T10:22:26Z</time>
      </trkpt>
      <trkpt lat="44.29242" lon="3.30456">
        <ele>916</ele>
        <time>2016-05-14T10:22:35Z</time>
      </trkpt>
      <trkpt lat="44.29251" lon="3.30457">
        <ele>916</ele>
        <time>2016-05-14T10:22:44Z</time>
      </trkpt>
      <trkpt lat="44.29262" lon="3.30462">
        <ele>916</ele>
        <time>2016-05-14T10:22:53Z</time>
      </trkpt>
      <trkpt lat="44.29272" lon="3.3047">
        <ele>916</ele>
        <time>2016-05-14T10:23:03Z</time>
      </trkpt>
      <trkpt lat="44.29282" lon="3.30469">
        <ele>916</ele>
        <time>2016-05-14T10:23:12Z</time>
      </trkpt>
      <trkpt lat="44.29293" lon="3.30469">
        <ele>915</ele>
        <time>2016-05-14T10:23:21Z</time>
      </trkpt>
      <trkpt lat="44.29303" lon="3.3047">
        <ele>915</ele>
        <time>2016-05-14T10:23:30Z</time>
      </trkpt>
      <trkpt lat="44.29313" lon="3.30469">
        <ele>915</ele>
        <time>2016-05-14T10:23:40Z</time>
      </trkpt>
      <trkpt lat="44.29323" lon="3.30469">
        <ele>915</ele>
        <time>2016-05-14T10:23:49Z</time>
      </trkpt>
      <trkpt lat="44.29336" lon="3.30467">
        <ele>915</ele>
        <time>2016-05-14T10:23:58Z</time>
      </trkpt>
      <trkpt lat="44.29346" lon="3.3047">
        <ele>915</ele>
        <time>2016-05-14T10:24:07Z</time>
      </trkpt>
      <trkpt lat="44.29354" lon="3.30474">
        <ele>915</ele>
        <time>2016-05-14T10:24:16Z</time>
      </trkpt>
      <trkpt lat="44.29365" lon="3.30475">
        <ele>915</ele>
        <time>2016-05-14T10:24:25Z</time>
      </trkpt>
      <trkpt lat="44.29376" lon="3.30477">
        <ele>914</ele>
        <time>2016-05-14T10:24:34Z</time>
      </trkpt>
      <trkpt lat="44.29387" lon="3.30477">
        <ele>911</ele>
        <time>2016-05-14T10:24:43Z</time>
      </trkpt>
      <trkpt lat="44.29398" lon="3.30476">
        <ele>911</ele>
        <time>2016-05-14T10:24:53Z</time>
      </trkpt>
      <trkpt lat="44.29408" lon="3.30475">
        <ele>911</ele>
        <time>2016-05-14T10:25:02Z</time>
      </trkpt>
      <trkpt lat="44.2942" lon="3.30479">
        <ele>911</ele>
        <time>2016-05-14T10:25:12Z</time>
      </trkpt>
      <trkpt lat="44.29429" lon="3.30477">
        <ele>911</ele>
        <time>2016-05-14T10:25:21Z</time>
      </trkpt>
      <trkpt lat="44.29438" lon="3.30474">
        <ele>913</ele>
        <time>2016-05-14T10:25:30Z</time>
      </trkpt>
      <trkpt lat="44.29449" lon="3.30469">
        <ele>914</ele>
        <time>2016-05-14T10:25:40Z</time>
      </trkpt>
      <trkpt lat="44.29457" lon="3.30469">
        <ele>916</ele>
        <time>2016-05-14T10:25:49Z</time>
      </trkpt>
      <trkpt lat="44.29467" lon="3.30473">
        <ele>916</ele>
        <time>2016-05-14T10:25:58Z</time>
      </trkpt>
      <trkpt lat="44.29479" lon="3.30474">
        <ele>916</ele>
        <time>2016-05-14T10:26:08Z</time>
      </trkpt>
      <trkpt lat="44.2949" lon="3.30474">
        <ele>914</ele>
        <time>2016-05-14T10:26:17Z</time>
      </trkpt>
      <trkpt lat="44.29499" lon="3.3047">
        <ele>913</ele>
        <time>2016-05-14T10:26:26Z</time>
      </trkpt>
      <trkpt lat="44.29509" lon="3.30469">
        <ele>913</ele>
        <time>2016-05-14T10:26:35Z</time>
      </trkpt>
      <trkpt lat="44.29519" lon="3.30467">
        <ele>913</ele>
        <time>2016-05-14T10:26:44Z</time>
      </trkpt>
      <trkpt lat="44.29528" lon="3.30466">
        <ele>915</ele>
        <time>2016-05-14T10:26:53Z</time>
      </trkpt>
      <trkpt lat="44.29534" lon="3.30474">
        <ele>915</ele>
        <time>2016-05-14T10:27:03Z</time>
      </trkpt>
      <trkpt lat="44.29541" lon="3.30481">
        <ele>915</ele>
        <time>2016-05-14T10:27:13Z</time>
      </trkpt>
      <trkpt lat="44.29551" lon="3.30489">
        <ele>915</ele>
        <time>2016-05-14T10:27:22Z</time>
      </trkpt>
      <trkpt lat="44.29561" lon="3.30492">
        <ele>911</ele>
        <time>2016-05-14T10:27:31Z</time>
      </trkpt>
      <trkpt lat="44.29568" lon="3.30503">
        <ele>907</ele>
        <time>2016-05-14T10:27:41Z</time>
      </trkpt>
      <trkpt lat="44.29574" lon="3.30511">
        <ele>905</ele>
        <time>2016-05-14T10:27:51Z</time>
      </trkpt>
      <trkpt lat="44.29576" lon="3.3052">
        <ele>904</ele>
        <time>2016-05-14T10:28:01Z</time>
      </trkpt>
      <trkpt lat="44.2958" lon="3.30528">
        <ele>902</ele>
        <time>2016-05-14T10:28:11Z</time>
      </trkpt>
      <trkpt lat="44.29587" lon="3.30534">
        <ele>900</ele>
        <time>2016-05-14T10:28:21Z</time>
      </trkpt>
      <trkpt lat="44.29586" lon="3.3054">
        <ele>900</ele>
        <time>2016-05-14T10:28:30Z</time>
      </trkpt>
      <trkpt lat="44.29583" lon="3.30545">
        <ele>900</ele>
        <time>2016-05-14T10:28:39Z</time>
      </trkpt>
      <trkpt lat="44.29584" lon="3.30543">
        <ele>900</ele>
        <time>2016-05-14T10:29:04Z</time>
      </trkpt>
      <trkpt lat="44.29582" lon="3.30543">
        <ele>900</ele>
        <time>2016-05-14T10:29:14Z</time>
      </trkpt>
      <trkpt lat="44.29582" lon="3.30545">
        <ele>900</ele>
        <time>2016-05-14T10:29:26Z</time>
      </trkpt>
      <trkpt lat="44.29583" lon="3.30548">
        <ele>900</ele>
        <time>2016-05-14T10:29:51Z</time>
      </trkpt>
      <trkpt lat="44.29583" lon="3.30549">
        <ele>901</ele>
        <time>2016-05-14T10:30:08Z</time>
      </trkpt>
      <trkpt lat="44.29584" lon="3.30549">
        <ele>905</ele>
        <time>2016-05-14T10:30:39Z</time>
      </trkpt>
      <trkpt lat="44.29584" lon="3.30548">
        <ele>906</ele>
        <time>2016-05-14T10:31:06Z</time>
      </trkpt>
      <trkpt lat="44.29586" lon="3.3055">
        <ele>906</ele>
        <time>2016-05-14T10:31:26Z</time>
      </trkpt>
      <trkpt lat="44.29588" lon="3.30547">
        <ele>906</ele>
        <time>2016-05-14T10:31:41Z</time>
      </trkpt>
      <trkpt lat="44.29588" lon="3.30543">
        <ele>910</ele>
        <time>2016-05-14T10:31:51Z</time>
      </trkpt>
      <trkpt lat="44.2958" lon="3.30539">
        <ele>908</ele>
        <time>2016-05-14T10:32:01Z</time>
      </trkpt>
      <trkpt lat="44.29573" lon="3.30539">
        <ele>906</ele>
        <time>2016-05-14T10:32:10Z</time>
      </trkpt>
      <trkpt lat="44.29573" lon="3.30543">
        <ele>904</ele>
        <time>2016-05-14T10:32:20Z</time>
      </trkpt>
      <trkpt lat="44.29572" lon="3.30548">
        <ele>900</ele>
        <time>2016-05-14T10:32:29Z</time>
      </trkpt>
      <trkpt lat="44.29571" lon="3.30548">
        <ele>898</ele>
        <time>2016-05-14T10:32:40Z</time>
      </trkpt>
      <trkpt lat="44.2957" lon="3.30552">
        <ele>898</ele>
        <time>2016-05-14T10:32:51Z</time>
      </trkpt>
      <trkpt lat="44.29573" lon="3.30556">
        <ele>898</ele>
        <time>2016-05-14T10:33:05Z</time>
      </trkpt>
      <trkpt lat="44.29573" lon="3.30556">
        <ele>898</ele>
        <time>2016-05-14T10:33:17Z</time>
      </trkpt>
      <trkpt lat="44.29575" lon="3.30555">
        <ele>898</ele>
        <time>2016-05-14T10:33:29Z</time>
      </trkpt>
      <trkpt lat="44.29575" lon="3.30554">
        <ele>898</ele>
        <time>2016-05-14T10:33:40Z</time>
      </trkpt>
      <trkpt lat="44.29575" lon="3.30554">
        <ele>898</ele>
        <time>2016-05-14T10:33:50Z</time>
      </trkpt>
      <trkpt lat="44.29579" lon="3.30553">
        <ele>903</ele>
        <time>2016-05-14T10:33:59Z</time>
      </trkpt>
      <trkpt lat="44.29577" lon="3.30551">
        <ele>904</ele>
        <time>2016-05-14T10:34:15Z</time>
      </trkpt>
      <trkpt lat="44.29568" lon="3.30555">
        <ele>918</ele>
        <time>2016-05-14T10:34:26Z</time>
      </trkpt>
      <trkpt lat="44.2957" lon="3.30548">
        <ele>907</ele>
        <time>2016-05-14T10:34:39Z</time>
      </trkpt>
      <trkpt lat="44.29573" lon="3.30543">
        <ele>904</ele>
        <time>2016-05-14T10:34:48Z</time>
      </trkpt>
      <trkpt lat="44.29575" lon="3.30544">
        <ele>903</ele>
        <time>2016-05-14T10:35:05Z</time>
      </trkpt>
      <trkpt lat="44.29573" lon="3.30547">
        <ele>903</ele>
        <time>2016-05-14T10:35:19Z</time>
      </trkpt>
      <trkpt lat="44.29573" lon="3.30548">
        <ele>903</ele>
        <time>2016-05-14T10:35:38Z</time>
      </trkpt>
      <trkpt lat="44.29573" lon="3.30551">
        <ele>903</ele>
        <time>2016-05-14T10:35:49Z</time>
      </trkpt>
      <trkpt lat="44.29573" lon="3.30548">
        <ele>903</ele>
        <time>2016-05-14T10:36:01Z</time>
      </trkpt>
      <trkpt lat="44.29573" lon="3.30545">
        <ele>902</ele>
        <time>2016-05-14T10:36:11Z</time>
      </trkpt>
      <trkpt lat="44.29574" lon="3.30547">
        <ele>901</ele>
        <time>2016-05-14T10:37:14Z</time>
      </trkpt>
      <trkpt lat="44.29574" lon="3.30548">
        <ele>902</ele>
        <time>2016-05-14T10:37:30Z</time>
      </trkpt>
      <trkpt lat="44.29574" lon="3.3055">
        <ele>902</ele>
        <time>2016-05-14T10:37:52Z</time>
      </trkpt>
      <trkpt lat="44.29575" lon="3.3055">
        <ele>902</ele>
        <time>2016-05-14T10:38:36Z</time>
      </trkpt>
      <trkpt lat="44.29577" lon="3.3055">
        <ele>902</ele>
        <time>2016-05-14T10:39:09Z</time>
      </trkpt>
      <trkpt lat="44.29577" lon="3.30551">
        <ele>901</ele>
        <time>2016-05-14T10:39:39Z</time>
      </trkpt>
      <trkpt lat="44.29576" lon="3.30553">
        <ele>901</ele>
        <time>2016-05-14T10:39:54Z</time>
      </trkpt>
      <trkpt lat="44.29577" lon="3.30551">
        <ele>899</ele>
        <time>2016-05-14T10:40:13Z</time>
      </trkpt>
      <trkpt lat="44.29577" lon="3.3055">
        <ele>899</ele>
        <time>2016-05-14T10:40:36Z</time>
      </trkpt>
      <trkpt lat="44.29576" lon="3.30549">
        <ele>899</ele>
        <time>2016-05-14T10:41:49Z</time>
      </trkpt>
      <trkpt lat="44.29575" lon="3.3055">
        <ele>899</ele>
        <time>2016-05-14T10:42:19Z</time>
      </trkpt>
      <trkpt lat="44.29574" lon="3.30552">
        <ele>899</ele>
        <time>2016-05-14T10:42:31Z</time>
      </trkpt>
      <trkpt lat="44.2957" lon="3.30547">
        <ele>903</ele>
        <time>2016-05-14T10:42:44Z</time>
      </trkpt>
      <trkpt lat="44.2957" lon="3.30544">
        <ele>902</ele>
        <time>2016-05-14T10:42:58Z</time>
      </trkpt>
      <trkpt lat="44.29569" lon="3.30545">
        <ele>902</ele>
        <time>2016-05-14T10:43:07Z</time>
      </trkpt>
      <trkpt lat="44.2957" lon="3.30545">
        <ele>901</ele>
        <time>2016-05-14T10:43:21Z</time>
      </trkpt>
      <trkpt lat="44.29571" lon="3.30542">
        <ele>901</ele>
        <time>2016-05-14T10:43:31Z</time>
      </trkpt>
      <trkpt lat="44.29567" lon="3.3054">
        <ele>901</ele>
        <time>2016-05-14T10:43:47Z</time>
      </trkpt>
      <trkpt lat="44.29569" lon="3.30541">
        <ele>901</ele>
        <time>2016-05-14T10:43:57Z</time>
      </trkpt>
      <trkpt lat="44.29571" lon="3.30536">
        <ele>904</ele>
        <time>2016-05-14T10:44:13Z</time>
      </trkpt>
      <trkpt lat="44.29571" lon="3.30531">
        <ele>906</ele>
        <time>2016-05-14T10:44:22Z</time>
      </trkpt>
      <trkpt lat="44.29575" lon="3.30527">
        <ele>909</ele>
        <time>2016-05-14T10:44:32Z</time>
      </trkpt>
      <trkpt lat="44.29574" lon="3.30521">
        <ele>911</ele>
        <time>2016-05-14T10:44:43Z</time>
      </trkpt>
      <trkpt lat="44.29572" lon="3.30513">
        <ele>913</ele>
        <time>2016-05-14T10:44:53Z</time>
      </trkpt>
      <trkpt lat="44.29573" lon="3.30504">
        <ele>914</ele>
        <time>2016-05-14T10:45:02Z</time>
      </trkpt>
      <trkpt lat="44.29573" lon="3.30498">
        <ele>914</ele>
        <time>2016-05-14T10:45:14Z</time>
      </trkpt>
      <trkpt lat="44.29571" lon="3.30494">
        <ele>914</ele>
        <time>2016-05-14T10:45:27Z</time>
      </trkpt>
      <trkpt lat="44.29571" lon="3.30489">
        <ele>914</ele>
        <time>2016-05-14T10:45:38Z</time>
      </trkpt>
      <trkpt lat="44.29564" lon="3.30486">
        <ele>914</ele>
        <time>2016-05-14T10:45:47Z</time>
      </trkpt>
      <trkpt lat="44.29559" lon="3.30478">
        <ele>914</ele>
        <time>2016-05-14T10:45:57Z</time>
      </trkpt>
      <trkpt lat="44.29551" lon="3.30472">
        <ele>915</ele>
        <time>2016-05-14T10:46:07Z</time>
      </trkpt>
      <trkpt lat="44.29546" lon="3.30465">
        <ele>915</ele>
        <time>2016-05-14T10:46:17Z</time>
      </trkpt>
      <trkpt lat="44.29539" lon="3.3046">
        <ele>916</ele>
        <time>2016-05-14T10:46:27Z</time>
      </trkpt>
      <trkpt lat="44.29529" lon="3.30458">
        <ele>918</ele>
        <time>2016-05-14T10:46:38Z</time>
      </trkpt>
      <trkpt lat="44.2952" lon="3.30458">
        <ele>920</ele>
        <time>2016-05-14T10:46:47Z</time>
      </trkpt>
      <trkpt lat="44.29511" lon="3.30459">
        <ele>921</ele>
        <time>2016-05-14T10:46:57Z</time>
      </trkpt>
      <trkpt lat="44.29502" lon="3.3046">
        <ele>921</ele>
        <time>2016-05-14T10:47:07Z</time>
      </trkpt>
      <trkpt lat="44.29491" lon="3.30461">
        <ele>921</ele>
        <time>2016-05-14T10:47:18Z</time>
      </trkpt>
      <trkpt lat="44.29482" lon="3.30461">
        <ele>921</ele>
        <time>2016-05-14T10:47:27Z</time>
      </trkpt>
      <trkpt lat="44.29473" lon="3.30459">
        <ele>920</ele>
        <time>2016-05-14T10:47:37Z</time>
      </trkpt>
      <trkpt lat="44.29465" lon="3.30458">
        <ele>920</ele>
        <time>2016-05-14T10:47:47Z</time>
      </trkpt>
      <trkpt lat="44.29454" lon="3.3046">
        <ele>920</ele>
        <time>2016-05-14T10:47:57Z</time>
      </trkpt>
      <trkpt lat="44.29445" lon="3.30462">
        <ele>921</ele>
        <time>2016-05-14T10:48:07Z</time>
      </trkpt>
      <trkpt lat="44.29436" lon="3.30466">
        <ele>925</ele>
        <time>2016-05-14T10:48:18Z</time>
      </trkpt>
      <trkpt lat="44.29427" lon="3.30465">
        <ele>926</ele>
        <time>2016-05-14T10:48:28Z</time>
      </trkpt>
      <trkpt lat="44.29417" lon="3.30465">
        <ele>926</ele>
        <time>2016-05-14T10:48:37Z</time>
      </trkpt>
      <trkpt lat="44.29403" lon="3.30465">
        <ele>926</ele>
        <time>2016-05-14T10:48:47Z</time>
      </trkpt>
      <trkpt lat="44.2939" lon="3.30467">
        <ele>926</ele>
        <time>2016-05-14T10:48:57Z</time>
      </trkpt>
      <trkpt lat="44.29378" lon="3.30466">
        <ele>926</ele>
        <time>2016-05-14T10:49:07Z</time>
      </trkpt>
      <trkpt lat="44.29367" lon="3.30464">
        <ele>926</ele>
        <time>2016-05-14T10:49:17Z</time>
      </trkpt>
      <trkpt lat="44.29355" lon="3.30458">
        <ele>926</ele>
        <time>2016-05-14T10:49:27Z</time>
      </trkpt>
      <trkpt lat="44.29344" lon="3.30457">
        <ele>926</ele>
        <time>2016-05-14T10:49:37Z</time>
      </trkpt>
      <trkpt lat="44.29332" lon="3.30457">
        <ele>926</ele>
        <time>2016-05-14T10:49:47Z</time>
      </trkpt>
      <trkpt lat="44.2932" lon="3.30458">
        <ele>926</ele>
        <time>2016-05-14T10:49:57Z</time>
      </trkpt>
      <trkpt lat="44.29309" lon="3.30459">
        <ele>926</ele>
        <time>2016-05-14T10:50:08Z</time>
      </trkpt>
      <trkpt lat="44.29298" lon="3.30459">
        <ele>926</ele>
        <time>2016-05-14T10:50:17Z</time>
      </trkpt>
      <trkpt lat="44.29285" lon="3.30462">
        <ele>926</ele>
        <time>2016-05-14T10:50:27Z</time>
      </trkpt>
      <trkpt lat="44.29274" lon="3.30457">
        <ele>926</ele>
        <time>2016-05-14T10:50:37Z</time>
      </trkpt>
      <trkpt lat="44.29264" lon="3.30454">
        <ele>926</ele>
        <time>2016-05-14T10:50:47Z</time>
      </trkpt>
      <trkpt lat="44.29261" lon="3.30454">
        <ele>923</ele>
        <time>2016-05-14T10:50:57Z</time>
      </trkpt>
      <trkpt lat="44.29256" lon="3.30453">
        <ele>923</ele>
        <time>2016-05-14T10:51:10Z</time>
      </trkpt>
      <trkpt lat="44.29254" lon="3.30452">
        <ele>922</ele>
        <time>2016-05-14T10:51:23Z</time>
      </trkpt>
      <trkpt lat="44.29256" lon="3.30454">
        <ele>922</ele>
        <time>2016-05-14T10:51:37Z</time>
      </trkpt>
      <trkpt lat="44.29257" lon="3.30455">
        <ele>921</ele>
        <time>2016-05-14T10:51:57Z</time>
      </trkpt>
      <trkpt lat="44.29257" lon="3.30457">
        <ele>921</ele>
        <time>2016-05-14T10:52:11Z</time>
      </trkpt>
      <trkpt lat="44.29256" lon="3.30456">
        <ele>921</ele>
        <time>2016-05-14T10:52:22Z</time>
      </trkpt>
      <trkpt lat="44.29254" lon="3.30455">
        <ele>920</ele>
        <time>2016-05-14T10:52:39Z</time>
      </trkpt>
      <trkpt lat="44.29244" lon="3.30453">
        <ele>917</ele>
        <time>2016-05-14T10:52:48Z</time>
      </trkpt>
      <trkpt lat="44.29234" lon="3.30452">
        <ele>917</ele>
        <time>2016-05-14T10:52:58Z</time>
      </trkpt>
      <trkpt lat="44.29225" lon="3.3045">
        <ele>917</ele>
        <time>2016-05-14T10:53:07Z</time>
      </trkpt>
      <trkpt lat="44.29214" lon="3.3045">
        <ele>917</ele>
        <time>2016-05-14T10:53:17Z</time>
      </trkpt>
      <trkpt lat="44.29202" lon="3.30446">
        <ele>917</ele>
        <time>2016-05-14T10:53:27Z</time>
      </trkpt>
      <trkpt lat="44.29191" lon="3.30442">
        <ele>916</ele>
        <time>2016-05-14T10:53:37Z</time>
      </trkpt>
      <trkpt lat="44.29182" lon="3.30436">
        <ele>916</ele>
        <time>2016-05-14T10:53:47Z</time>
      </trkpt>
      <trkpt lat="44.29173" lon="3.3043">
        <ele>916</ele>
        <time>2016-05-14T10:53:57Z</time>
      </trkpt>
      <trkpt lat="44.29164" lon="3.30422">
        <ele>916</ele>
        <time>2016-05-14T10:54:07Z</time>
      </trkpt>
      <trkpt lat="44.29155" lon="3.30416">
        <ele>916</ele>
        <time>2016-05-14T10:54:17Z</time>
      </trkpt>
      <trkpt lat="44.29146" lon="3.30411">
        <ele>916</ele>
        <time>2016-05-14T10:54:27Z</time>
      </trkpt>
      <trkpt lat="44.29137" lon="3.30409">
        <ele>916</ele>
        <time>2016-05-14T10:54:37Z</time>
      </trkpt>
      <trkpt lat="44.29124" lon="3.30404">
        <ele>916</ele>
        <time>2016-05-14T10:54:47Z</time>
      </trkpt>
      <trkpt lat="44.2911" lon="3.30404">
        <ele>915</ele>
        <time>2016-05-14T10:54:57Z</time>
      </trkpt>
      <trkpt lat="44.29102" lon="3.30395">
        <ele>915</ele>
        <time>2016-05-14T10:55:07Z</time>
      </trkpt>
      <trkpt lat="44.29095" lon="3.30382">
        <ele>915</ele>
        <time>2016-05-14T10:55:17Z</time>
      </trkpt>
      <trkpt lat="44.29087" lon="3.30369">
        <ele>915</ele>
        <time>2016-05-14T10:55:27Z</time>
      </trkpt>
      <trkpt lat="44.29079" lon="3.30357">
        <ele>916</ele>
        <time>2016-05-14T10:55:37Z</time>
      </trkpt>
      <trkpt lat="44.29069" lon="3.30342">
        <ele>916</ele>
        <time>2016-05-14T10:55:47Z</time>
      </trkpt>
      <trkpt lat="44.2906" lon="3.30332">
        <ele>916</ele>
        <time>2016-05-14T10:55:57Z</time>
      </trkpt>
      <trkpt lat="44.29052" lon="3.30317">
        <ele>916</ele>
        <time>2016-05-14T10:56:07Z</time>
      </trkpt>
      <trkpt lat="44.29045" lon="3.30303">
        <ele>916</ele>
        <time>2016-05-14T10:56:18Z</time>
      </trkpt>
      <trkpt lat="44.29041" lon="3.30289">
        <ele>916</ele>
        <time>2016-05-14T10:56:27Z</time>
      </trkpt>
      <trkpt lat="44.29031" lon="3.30275">
        <ele>916</ele>
        <time>2016-05-14T10:56:38Z</time>
      </trkpt>
      <trkpt lat="44.29023" lon="3.30269">
        <ele>916</ele>
        <time>2016-05-14T10:56:47Z</time>
      </trkpt>
      <trkpt lat="44.29015" lon="3.30258">
        <ele>918</ele>
        <time>2016-05-14T10:56:57Z</time>
      </trkpt>
      <trkpt lat="44.29008" lon="3.3025">
        <ele>920</ele>
        <time>2016-05-14T10:57:07Z</time>
      </trkpt>
      <trkpt lat="44.28999" lon="3.30239">
        <ele>921</ele>
        <time>2016-05-14T10:57:18Z</time>
      </trkpt>
      <trkpt lat="44.28989" lon="3.30231">
        <ele>921</ele>
        <time>2016-05-14T10:57:28Z</time>
      </trkpt>
      <trkpt lat="44.28986" lon="3.30219">
        <ele>921</ele>
        <time>2016-05-14T10:57:37Z</time>
      </trkpt>
      <trkpt lat="44.28978" lon="3.30208">
        <ele>919</ele>
        <time>2016-05-14T10:57:49Z</time>
      </trkpt>
      <trkpt lat="44.28968" lon="3.30199">
        <ele>919</ele>
        <time>2016-05-14T10:57:59Z</time>
      </trkpt>
      <trkpt lat="44.28962" lon="3.30187">
        <ele>919</ele>
        <time>2016-05-14T10:58:09Z</time>
      </trkpt>
      <trkpt lat="44.28958" lon="3.30176">
        <ele>919</ele>
        <time>2016-05-14T10:58:18Z</time>
      </trkpt>
      <trkpt lat="44.28952" lon="3.30163">
        <ele>919</ele>
        <time>2016-05-14T10:58:27Z</time>
      </trkpt>
      <trkpt lat="44.28945" lon="3.30151">
        <ele>919</ele>
        <time>2016-05-14T10:58:37Z</time>
      </trkpt>
      <trkpt lat="44.28939" lon="3.30135">
        <ele>919</ele>
        <time>2016-05-14T10:58:48Z</time>
      </trkpt>
      <trkpt lat="44.28938" lon="3.30121">
        <ele>919</ele>
        <time>2016-05-14T10:58:57Z</time>
      </trkpt>
      <trkpt lat="44.28925" lon="3.30114">
        <ele>919</ele>
        <time>2016-05-14T10:59:09Z</time>
      </trkpt>
      <trkpt lat="44.28915" lon="3.30112">
        <ele>919</ele>
        <time>2016-05-14T10:59:18Z</time>
      </trkpt>
      <trkpt lat="44.28905" lon="3.30112">
        <ele>919</ele>
        <time>2016-05-14T10:59:27Z</time>
      </trkpt>
      <trkpt lat="44.28896" lon="3.30101">
        <ele>919</ele>
        <time>2016-05-14T10:59:37Z</time>
      </trkpt>
      <trkpt lat="44.28886" lon="3.30088">
        <ele>918</ele>
        <time>2016-05-14T10:59:48Z</time>
      </trkpt>
      <trkpt lat="44.28877" lon="3.30077">
        <ele>917</ele>
        <time>2016-05-14T10:59:58Z</time>
      </trkpt>
      <trkpt lat="44.28868" lon="3.30064">
        <ele>917</ele>
        <time>2016-05-14T11:00:08Z</time>
      </trkpt>
      <trkpt lat="44.2886" lon="3.30052">
        <ele>917</ele>
        <time>2016-05-14T11:00:18Z</time>
      </trkpt>
      <trkpt lat="44.28854" lon="3.3004">
        <ele>917</ele>
        <time>2016-05-14T11:00:27Z</time>
      </trkpt>
      <trkpt lat="44.28846" lon="3.30027">
        <ele>917</ele>
        <time>2016-05-14T11:00:37Z</time>
      </trkpt>
      <trkpt lat="44.28842" lon="3.30013">
        <ele>917</ele>
        <time>2016-05-14T11:00:48Z</time>
      </trkpt>
      <trkpt lat="44.28836" lon="3.30002">
        <ele>917</ele>
        <time>2016-05-14T11:00:57Z</time>
      </trkpt>
      <trkpt lat="44.28828" lon="3.29991">
        <ele>917</ele>
        <time>2016-05-14T11:01:07Z</time>
      </trkpt>
      <trkpt lat="44.2882" lon="3.29981">
        <ele>917</ele>
        <time>2016-05-14T11:01:17Z</time>
      </trkpt>
      <trkpt lat="44.28811" lon="3.29971">
        <ele>917</ele>
        <time>2016-05-14T11:01:27Z</time>
      </trkpt>
      <trkpt lat="44.28802" lon="3.2996">
        <ele>917</ele>
        <time>2016-05-14T11:01:37Z</time>
      </trkpt>
      <trkpt lat="44.28794" lon="3.29953">
        <ele>917</ele>
        <time>2016-05-14T11:01:47Z</time>
      </trkpt>
      <trkpt lat="44.28786" lon="3.29942">
        <ele>918</ele>
        <time>2016-05-14T11:01:57Z</time>
      </trkpt>
      <trkpt lat="44.28771" lon="3.29932">
        <ele>918</ele>
        <time>2016-05-14T11:02:08Z</time>
      </trkpt>
      <trkpt lat="44.28765" lon="3.2992">
        <ele>918</ele>
        <time>2016-05-14T11:02:17Z</time>
      </trkpt>
      <trkpt lat="44.28759" lon="3.29903">
        <ele>917</ele>
        <time>2016-05-14T11:02:27Z</time>
      </trkpt>
      <trkpt lat="44.28753" lon="3.29888">
        <ele>916</ele>
        <time>2016-05-14T11:02:37Z</time>
      </trkpt>
      <trkpt lat="44.28751" lon="3.29871">
        <ele>916</ele>
        <time>2016-05-14T11:02:48Z</time>
      </trkpt>
      <trkpt lat="44.28753" lon="3.29863">
        <ele>916</ele>
        <time>2016-05-14T11:02:57Z</time>
      </trkpt>
      <trkpt lat="44.28756" lon="3.29849">
        <ele>916</ele>
        <time>2016-05-14T11:03:07Z</time>
      </trkpt>
      <trkpt lat="44.28763" lon="3.29834">
        <ele>916</ele>
        <time>2016-05-14T11:03:17Z</time>
      </trkpt>
      <trkpt lat="44.2877" lon="3.29819">
        <ele>916</ele>
        <time>2016-05-14T11:03:27Z</time>
      </trkpt>
      <trkpt lat="44.28778" lon="3.29805">
        <ele>915</ele>
        <time>2016-05-14T11:03:37Z</time>
      </trkpt>
      <trkpt lat="44.28785" lon="3.2979">
        <ele>915</ele>
        <time>2016-05-14T11:03:47Z</time>
      </trkpt>
      <trkpt lat="44.28794" lon="3.29776">
        <ele>915</ele>
        <time>2016-05-14T11:03:57Z</time>
      </trkpt>
      <trkpt lat="44.288" lon="3.29762">
        <ele>915</ele>
        <time>2016-05-14T11:04:07Z</time>
      </trkpt>
      <trkpt lat="44.28809" lon="3.2975">
        <ele>912</ele>
        <time>2016-05-14T11:04:18Z</time>
      </trkpt>
      <trkpt lat="44.28816" lon="3.29737">
        <ele>910</ele>
        <time>2016-05-14T11:04:27Z</time>
      </trkpt>
      <trkpt lat="44.28824" lon="3.29725">
        <ele>906</ele>
        <time>2016-05-14T11:04:37Z</time>
      </trkpt>
      <trkpt lat="44.28832" lon="3.2971">
        <ele>903</ele>
        <time>2016-05-14T11:04:47Z</time>
      </trkpt>
      <trkpt lat="44.28836" lon="3.29692">
        <ele>903</ele>
        <time>2016-05-14T11:04:58Z</time>
      </trkpt>
      <trkpt lat="44.28841" lon="3.29678">
        <ele>905</ele>
        <time>2016-05-14T11:05:07Z</time>
      </trkpt>
      <trkpt lat="44.28851" lon="3.29664">
        <ele>905</ele>
        <time>2016-05-14T11:05:17Z</time>
      </trkpt>
      <trkpt lat="44.28857" lon="3.29647">
        <ele>905</ele>
        <time>2016-05-14T11:05:28Z</time>
      </trkpt>
      <trkpt lat="44.2886" lon="3.29632">
        <ele>905</ele>
        <time>2016-05-14T11:05:37Z</time>
      </trkpt>
      <trkpt lat="44.28865" lon="3.29615">
        <ele>905</ele>
        <time>2016-05-14T11:05:47Z</time>
      </trkpt>
      <trkpt lat="44.28868" lon="3.29601">
        <ele>905</ele>
        <time>2016-05-14T11:05:57Z</time>
      </trkpt>
      <trkpt lat="44.28872" lon="3.29584">
        <ele>905</ele>
        <time>2016-05-14T11:06:07Z</time>
      </trkpt>
      <trkpt lat="44.28874" lon="3.29566">
        <ele>905</ele>
        <time>2016-05-14T11:06:17Z</time>
      </trkpt>
      <trkpt lat="44.28874" lon="3.29547">
        <ele>905</ele>
        <time>2016-05-14T11:06:27Z</time>
      </trkpt>
      <trkpt lat="44.28876" lon="3.29528">
        <ele>905</ele>
        <time>2016-05-14T11:06:37Z</time>
      </trkpt>
      <trkpt lat="44.28875" lon="3.2951">
        <ele>905</ele>
        <time>2016-05-14T11:06:47Z</time>
      </trkpt>
      <trkpt lat="44.28873" lon="3.29494">
        <ele>904</ele>
        <time>2016-05-14T11:06:57Z</time>
      </trkpt>
      <trkpt lat="44.28873" lon="3.29475">
        <ele>902</ele>
        <time>2016-05-14T11:07:07Z</time>
      </trkpt>
      <trkpt lat="44.28872" lon="3.29458">
        <ele>902</ele>
        <time>2016-05-14T11:07:17Z</time>
      </trkpt>
      <trkpt lat="44.28873" lon="3.29443">
        <ele>902</ele>
        <time>2016-05-14T11:07:27Z</time>
      </trkpt>
      <trkpt lat="44.28872" lon="3.29429">
        <ele>902</ele>
        <time>2016-05-14T11:07:37Z</time>
      </trkpt>
      <trkpt lat="44.28871" lon="3.29422">
        <ele>902</ele>
        <time>2016-05-14T11:07:48Z</time>
      </trkpt>
      <trkpt lat="44.28872" lon="3.29419">
        <ele>902</ele>
        <time>2016-05-14T11:07:57Z</time>
      </trkpt>
      <trkpt lat="44.2888" lon="3.29401">
        <ele>902</ele>
        <time>2016-05-14T11:08:08Z</time>
      </trkpt>
      <trkpt lat="44.28886" lon="3.29387">
        <ele>902</ele>
        <time>2016-05-14T11:08:18Z</time>
      </trkpt>
      <trkpt lat="44.28889" lon="3.29376">
        <ele>902</ele>
        <time>2016-05-14T11:08:28Z</time>
      </trkpt>
      <trkpt lat="44.28893" lon="3.29364">
        <ele>902</ele>
        <time>2016-05-14T11:08:38Z</time>
      </trkpt>
      <trkpt lat="44.28899" lon="3.29348">
        <ele>902</ele>
        <time>2016-05-14T11:08:48Z</time>
      </trkpt>
      <trkpt lat="44.28904" lon="3.29334">
        <ele>902</ele>
        <time>2016-05-14T11:08:57Z</time>
      </trkpt>
      <trkpt lat="44.28908" lon="3.29317">
        <ele>902</ele>
        <time>2016-05-14T11:09:07Z</time>
      </trkpt>
      <trkpt lat="44.28914" lon="3.29298">
        <ele>902</ele>
        <time>2016-05-14T11:09:17Z</time>
      </trkpt>
      <trkpt lat="44.2892" lon="3.29284">
        <ele>900</ele>
        <time>2016-05-14T11:09:27Z</time>
      </trkpt>
      <trkpt lat="44.28928" lon="3.29268">
        <ele>899</ele>
        <time>2016-05-14T11:09:37Z</time>
      </trkpt>
      <trkpt lat="44.28936" lon="3.29257">
        <ele>898</ele>
        <time>2016-05-14T11:09:47Z</time>
      </trkpt>
      <trkpt lat="44.28944" lon="3.29246">
        <ele>898</ele>
        <time>2016-05-14T11:09:57Z</time>
      </trkpt>
      <trkpt lat="44.28953" lon="3.29233">
        <ele>898</ele>
        <time>2016-05-14T11:10:07Z</time>
      </trkpt>
      <trkpt lat="44.28963" lon="3.2922">
        <ele>898</ele>
        <time>2016-05-14T11:10:17Z</time>
      </trkpt>
      <trkpt lat="44.28972" lon="3.29207">
        <ele>898</ele>
        <time>2016-05-14T11:10:27Z</time>
      </trkpt>
      <trkpt lat="44.28981" lon="3.29193">
        <ele>898</ele>
        <time>2016-05-14T11:10:37Z</time>
      </trkpt>
      <trkpt lat="44.28991" lon="3.29182">
        <ele>897</ele>
        <time>2016-05-14T11:10:47Z</time>
      </trkpt>
      <trkpt lat="44.29003" lon="3.2917">
        <ele>894</ele>
        <time>2016-05-14T11:10:57Z</time>
      </trkpt>
      <trkpt lat="44.29013" lon="3.29155">
        <ele>893</ele>
        <time>2016-05-14T11:11:08Z</time>
      </trkpt>
      <trkpt lat="44.29022" lon="3.29142">
        <ele>890</ele>
        <time>2016-05-14T11:11:17Z</time>
      </trkpt>
      <trkpt lat="44.29028" lon="3.29128">
        <ele>889</ele>
        <time>2016-05-14T11:11:27Z</time>
      </trkpt>
      <trkpt lat="44.29039" lon="3.29112">
        <ele>889</ele>
        <time>2016-05-14T11:11:38Z</time>
      </trkpt>
      <trkpt lat="44.2905" lon="3.29102">
        <ele>888</ele>
        <time>2016-05-14T11:11:48Z</time>
      </trkpt>
      <trkpt lat="44.2906" lon="3.29088">
        <ele>888</ele>
        <time>2016-05-14T11:11:58Z</time>
      </trkpt>
      <trkpt lat="44.29064" lon="3.2908">
        <ele>887</ele>
        <time>2016-05-14T11:12:08Z</time>
      </trkpt>
      <trkpt lat="44.2907" lon="3.29076">
        <ele>887</ele>
        <time>2016-05-14T11:12:17Z</time>
      </trkpt>
      <trkpt lat="44.29079" lon="3.29066">
        <ele>887</ele>
        <time>2016-05-14T11:12:27Z</time>
      </trkpt>
      <trkpt lat="44.29088" lon="3.29057">
        <ele>887</ele>
        <time>2016-05-14T11:12:37Z</time>
      </trkpt>
      <trkpt lat="44.29097" lon="3.29049">
        <ele>887</ele>
        <time>2016-05-14T11:12:47Z</time>
      </trkpt>
      <trkpt lat="44.291" lon="3.29045">
        <ele>887</ele>
        <time>2016-05-14T11:12:57Z</time>
      </trkpt>
      <trkpt lat="44.29104" lon="3.29033">
        <ele>887</ele>
        <time>2016-05-14T11:13:07Z</time>
      </trkpt>
      <trkpt lat="44.29108" lon="3.29021">
        <ele>887</ele>
        <time>2016-05-14T11:13:17Z</time>
      </trkpt>
      <trkpt lat="44.29108" lon="3.29008">
        <ele>889</ele>
        <time>2016-05-14T11:13:28Z</time>
      </trkpt>
      <trkpt lat="44.29113" lon="3.28994">
        <ele>889</ele>
        <time>2016-05-14T11:13:37Z</time>
      </trkpt>
      <trkpt lat="44.29115" lon="3.28992">
        <ele>887</ele>
        <time>2016-05-14T11:13:50Z</time>
      </trkpt>
      <trkpt lat="44.29112" lon="3.29">
        <ele>887</ele>
        <time>2016-05-14T11:13:59Z</time>
      </trkpt>
      <trkpt lat="44.29111" lon="3.29014">
        <ele>887</ele>
        <time>2016-05-14T11:14:08Z</time>
      </trkpt>
      <trkpt lat="44.29109" lon="3.29028">
        <ele>887</ele>
        <time>2016-05-14T11:14:17Z</time>
      </trkpt>
      <trkpt lat="44.29102" lon="3.29039">
        <ele>887</ele>
        <time>2016-05-14T11:14:27Z</time>
      </trkpt>
      <trkpt lat="44.29103" lon="3.29043">
        <ele>887</ele>
        <time>2016-05-14T11:14:38Z</time>
      </trkpt>
      <trkpt lat="44.29105" lon="3.29051">
        <ele>887</ele>
        <time>2016-05-14T11:14:47Z</time>
      </trkpt>
      <trkpt lat="44.29112" lon="3.2906">
        <ele>887</ele>
        <time>2016-05-14T11:14:57Z</time>
      </trkpt>
      <trkpt lat="44.2912" lon="3.29072">
        <ele>887</ele>
        <time>2016-05-14T11:15:07Z</time>
      </trkpt>
      <trkpt lat="44.29122" lon="3.29087">
        <ele>887</ele>
        <time>2016-05-14T11:15:17Z</time>
      </trkpt>
      <trkpt lat="44.29126" lon="3.291">
        <ele>887</ele>
        <time>2016-05-14T11:15:28Z</time>
      </trkpt>
      <trkpt lat="44.29132" lon="3.29113">
        <ele>887</ele>
        <time>2016-05-14T11:15:37Z</time>
      </trkpt>
      <trkpt lat="44.29136" lon="3.29125">
        <ele>887</ele>
        <time>2016-05-14T11:15:48Z</time>
      </trkpt>
      <trkpt lat="44.29138" lon="3.29134">
        <ele>887</ele>
        <time>2016-05-14T11:15:58Z</time>
      </trkpt>
      <trkpt lat="44.29146" lon="3.29137">
        <ele>887</ele>
        <time>2016-05-14T11:16:08Z</time>
      </trkpt>
      <trkpt lat="44.29152" lon="3.29142">
        <ele>888</ele>
        <time>2016-05-14T11:16:17Z</time>
      </trkpt>
      <trkpt lat="44.29149" lon="3.29142">
        <ele>888</ele>
        <time>2016-05-14T11:16:27Z</time>
      </trkpt>
      <trkpt lat="44.29156" lon="3.29135">
        <ele>889</ele>
        <time>2016-05-14T11:16:37Z</time>
      </trkpt>
      <trkpt lat="44.29164" lon="3.29128">
        <ele>889</ele>
        <time>2016-05-14T11:16:49Z</time>
      </trkpt>
      <trkpt lat="44.29169" lon="3.29128">
        <ele>889</ele>
        <time>2016-05-14T11:17:00Z</time>
      </trkpt>
      <trkpt lat="44.29171" lon="3.2913">
        <ele>889</ele>
        <time>2016-05-14T11:17:12Z</time>
      </trkpt>
      <trkpt lat="44.29167" lon="3.29128">
        <ele>889</ele>
        <time>2016-05-14T11:17:24Z</time>
      </trkpt>
      <trkpt lat="44.29163" lon="3.29127">
        <ele>889</ele>
        <time>2016-05-14T11:17:34Z</time>
      </trkpt>
      <trkpt lat="44.29162" lon="3.29127">
        <ele>889</ele>
        <time>2016-05-14T11:17:46Z</time>
      </trkpt>
      <trkpt lat="44.29164" lon="3.29129">
        <ele>889</ele>
        <time>2016-05-14T11:17:56Z</time>
      </trkpt>
      <trkpt lat="44.2916" lon="3.29136">
        <ele>889</ele>
        <time>2016-05-14T11:18:05Z</time>
      </trkpt>
      <trkpt lat="44.2916" lon="3.29142">
        <ele>891</ele>
        <time>2016-05-14T11:18:14Z</time>
      </trkpt>
      <trkpt lat="44.29165" lon="3.29149">
        <ele>891</ele>
        <time>2016-05-14T11:18:25Z</time>
      </trkpt>
      <trkpt lat="44.29164" lon="3.29152">
        <ele>891</ele>
        <time>2016-05-14T11:18:38Z</time>
      </trkpt>
      <trkpt lat="44.29169" lon="3.29158">
        <ele>892</ele>
        <time>2016-05-14T11:18:48Z</time>
      </trkpt>
      <trkpt lat="44.29177" lon="3.29165">
        <ele>892</ele>
        <time>2016-05-14T11:18:57Z</time>
      </trkpt>
      <trkpt lat="44.29179" lon="3.29183">
        <ele>892</ele>
        <time>2016-05-14T11:19:07Z</time>
      </trkpt>
      <trkpt lat="44.29182" lon="3.29202">
        <ele>892</ele>
        <time>2016-05-14T11:19:18Z</time>
      </trkpt>
      <trkpt lat="44.29183" lon="3.29216">
        <ele>892</ele>
        <time>2016-05-14T11:19:28Z</time>
      </trkpt>
      <trkpt lat="44.29181" lon="3.29228">
        <ele>894</ele>
        <time>2016-05-14T11:19:37Z</time>
      </trkpt>
      <trkpt lat="44.29177" lon="3.2924">
        <ele>895</ele>
        <time>2016-05-14T11:19:47Z</time>
      </trkpt>
      <trkpt lat="44.29178" lon="3.29253">
        <ele>895</ele>
        <time>2016-05-14T11:19:58Z</time>
      </trkpt>
      <trkpt lat="44.29175" lon="3.29266">
        <ele>895</ele>
        <time>2016-05-14T11:20:07Z</time>
      </trkpt>
      <trkpt lat="44.29176" lon="3.29282">
        <ele>895</ele>
        <time>2016-05-14T11:20:17Z</time>
      </trkpt>
      <trkpt lat="44.2918" lon="3.29297">
        <ele>898</ele>
        <time>2016-05-14T11:20:27Z</time>
      </trkpt>
      <trkpt lat="44.2918" lon="3.29306">
        <ele>898</ele>
        <time>2016-05-14T11:20:37Z</time>
      </trkpt>
      <trkpt lat="44.29181" lon="3.29315">
        <ele>896</ele>
        <time>2016-05-14T11:20:47Z</time>
      </trkpt>
      <trkpt lat="44.29189" lon="3.29325">
        <ele>898</ele>
        <time>2016-05-14T11:20:58Z</time>
      </trkpt>
      <trkpt lat="44.29195" lon="3.2933">
        <ele>898</ele>
        <time>2016-05-14T11:21:08Z</time>
      </trkpt>
      <trkpt lat="44.292" lon="3.29331">
        <ele>891</ele>
        <time>2016-05-14T11:21:21Z</time>
      </trkpt>
      <trkpt lat="44.29204" lon="3.2933">
        <ele>889</ele>
        <time>2016-05-14T11:21:32Z</time>
      </trkpt>
      <trkpt lat="44.29206" lon="3.29334">
        <ele>888</ele>
        <time>2016-05-14T11:21:50Z</time>
      </trkpt>
      <trkpt lat="44.29207" lon="3.29334">
        <ele>887</ele>
        <time>2016-05-14T11:22:12Z</time>
      </trkpt>
      <trkpt lat="44.29208" lon="3.29333">
        <ele>886</ele>
        <time>2016-05-14T11:22:25Z</time>
      </trkpt>
      <trkpt lat="44.29208" lon="3.29331">
        <ele>886</ele>
        <time>2016-05-14T11:22:42Z</time>
      </trkpt>
      <trkpt lat="44.29207" lon="3.2933">
        <ele>885</ele>
        <time>2016-05-14T11:23:01Z</time>
      </trkpt>
      <trkpt lat="44.29208" lon="3.29332">
        <ele>879</ele>
        <time>2016-05-14T11:23:17Z</time>
      </trkpt>
      <trkpt lat="44.29205" lon="3.29335">
        <ele>879</ele>
        <time>2016-05-14T11:23:29Z</time>
      </trkpt>
      <trkpt lat="44.29203" lon="3.29339">
        <ele>879</ele>
        <time>2016-05-14T11:23:39Z</time>
      </trkpt>
      <trkpt lat="44.292" lon="3.29346">
        <ele>879</ele>
        <time>2016-05-14T11:23:52Z</time>
      </trkpt>
      <trkpt lat="44.29202" lon="3.29347">
        <ele>879</ele>
        <time>2016-05-14T11:24:05Z</time>
      </trkpt>
      <trkpt lat="44.29203" lon="3.29347">
        <ele>879</ele>
        <time>2016-05-14T11:24:24Z</time>
      </trkpt>
      <trkpt lat="44.29201" lon="3.2935">
        <ele>879</ele>
        <time>2016-05-14T11:24:37Z</time>
      </trkpt>
      <trkpt lat="44.29204" lon="3.29361">
        <ele>879</ele>
        <time>2016-05-14T11:24:48Z</time>
      </trkpt>
      <trkpt lat="44.29207" lon="3.29371">
        <ele>879</ele>
        <time>2016-05-14T11:24:57Z</time>
      </trkpt>
      <trkpt lat="44.29206" lon="3.29384">
        <ele>879</ele>
        <time>2016-05-14T11:25:06Z</time>
      </trkpt>
      <trkpt lat="44.29207" lon="3.29395">
        <ele>882</ele>
        <time>2016-05-14T11:25:15Z</time>
      </trkpt>
      <trkpt lat="44.29208" lon="3.29408">
        <ele>882</ele>
        <time>2016-05-14T11:25:24Z</time>
      </trkpt>
      <trkpt lat="44.29215" lon="3.29418">
        <ele>882</ele>
        <time>2016-05-14T11:25:33Z</time>
      </trkpt>
      <trkpt lat="44.29222" lon="3.29421">
        <ele>882</ele>
        <time>2016-05-14T11:25:42Z</time>
      </trkpt>
      <trkpt lat="44.29233" lon="3.29425">
        <ele>881</ele>
        <time>2016-05-14T11:25:53Z</time>
      </trkpt>
      <trkpt lat="44.29242" lon="3.2943">
        <ele>878</ele>
        <time>2016-05-14T11:26:03Z</time>
      </trkpt>
      <trkpt lat="44.29246" lon="3.29428">
        <ele>877</ele>
        <time>2016-05-14T11:26:12Z</time>
      </trkpt>
      <trkpt lat="44.2925" lon="3.29419">
        <ele>875</ele>
        <time>2016-05-14T11:26:22Z</time>
      </trkpt>
      <trkpt lat="44.29251" lon="3.29419">
        <ele>875</ele>
        <time>2016-05-14T11:26:39Z</time>
      </trkpt>
      <trkpt lat="44.29252" lon="3.29427">
        <ele>873</ele>
        <time>2016-05-14T11:26:48Z</time>
      </trkpt>
      <trkpt lat="44.29261" lon="3.29432">
        <ele>873</ele>
        <time>2016-05-14T11:26:58Z</time>
      </trkpt>
      <trkpt lat="44.2927" lon="3.29434">
        <ele>871</ele>
        <time>2016-05-14T11:27:07Z</time>
      </trkpt>
      <trkpt lat="44.29271" lon="3.29427">
        <ele>871</ele>
        <time>2016-05-14T11:27:16Z</time>
      </trkpt>
      <trkpt lat="44.29272" lon="3.29415">
        <ele>871</ele>
        <time>2016-05-14T11:27:26Z</time>
      </trkpt>
      <trkpt lat="44.29272" lon="3.29411">
        <ele>870</ele>
        <time>2016-05-14T11:27:38Z</time>
      </trkpt>
      <trkpt lat="44.29271" lon="3.29409">
        <ele>868</ele>
        <time>2016-05-14T11:27:50Z</time>
      </trkpt>
      <trkpt lat="44.29273" lon="3.29408">
        <ele>868</ele>
        <time>2016-05-14T11:28:41Z</time>
      </trkpt>
      <trkpt lat="44.29272" lon="3.29409">
        <ele>868</ele>
        <time>2016-05-14T11:29:00Z</time>
      </trkpt>
      <trkpt lat="44.29272" lon="3.29411">
        <ele>866</ele>
        <time>2016-05-14T11:29:18Z</time>
      </trkpt>
      <trkpt lat="44.29273" lon="3.29412">
        <ele>865</ele>
        <time>2016-05-14T11:29:29Z</time>
      </trkpt>
      <trkpt lat="44.2927" lon="3.29414">
        <ele>866</ele>
        <time>2016-05-14T11:29:39Z</time>
      </trkpt>
      <trkpt lat="44.2927" lon="3.29413">
        <ele>867</ele>
        <time>2016-05-14T11:29:53Z</time>
      </trkpt>
      <trkpt lat="44.29274" lon="3.29413">
        <ele>867</ele>
        <time>2016-05-14T11:30:02Z</time>
      </trkpt>
      <trkpt lat="44.29275" lon="3.29411">
        <ele>871</ele>
        <time>2016-05-14T11:30:21Z</time>
      </trkpt>
      <trkpt lat="44.29274" lon="3.29408">
        <ele>871</ele>
        <time>2016-05-14T11:30:37Z</time>
      </trkpt>
      <trkpt lat="44.29274" lon="3.29406">
        <ele>870</ele>
        <time>2016-05-14T11:30:46Z</time>
      </trkpt>
      <trkpt lat="44.29274" lon="3.29408">
        <ele>870</ele>
        <time>2016-05-14T11:31:00Z</time>
      </trkpt>
      <trkpt lat="44.29274" lon="3.29415">
        <ele>868</ele>
        <time>2016-05-14T11:31:09Z</time>
      </trkpt>
      <trkpt lat="44.29271" lon="3.29414">
        <ele>868</ele>
        <time>2016-05-14T11:31:19Z</time>
      </trkpt>
      <trkpt lat="44.29273" lon="3.29416">
        <ele>866</ele>
        <time>2016-05-14T11:31:31Z</time>
      </trkpt>
      <trkpt lat="44.29274" lon="3.29416">
        <ele>866</ele>
        <time>2016-05-14T11:31:45Z</time>
      </trkpt>
      <trkpt lat="44.29274" lon="3.29416">
        <ele>866</ele>
        <time>2016-05-14T11:31:55Z</time>
      </trkpt>
      <trkpt lat="44.29274" lon="3.29414">
        <ele>866</ele>
        <time>2016-05-14T11:32:17Z</time>
      </trkpt>
      <trkpt lat="44.29272" lon="3.29415">
        <ele>866</ele>
        <time>2016-05-14T11:32:27Z</time>
      </trkpt>
      <trkpt lat="44.29272" lon="3.29414">
        <ele>867</ele>
        <time>2016-05-14T11:32:36Z</time>
      </trkpt>
      <trkpt lat="44.29273" lon="3.29416">
        <ele>870</ele>
        <time>2016-05-14T11:33:11Z</time>
      </trkpt>
      <trkpt lat="44.29274" lon="3.29422">
        <ele>869</ele>
        <time>2016-05-14T11:33:24Z</time>
      </trkpt>
      <trkpt lat="44.29274" lon="3.29426">
        <ele>868</ele>
        <time>2016-05-14T11:33:36Z</time>
      </trkpt>
      <trkpt lat="44.29273" lon="3.29431">
        <ele>868</ele>
        <time>2016-05-14T11:33:45Z</time>
      </trkpt>
      <trkpt lat="44.29272" lon="3.29438">
        <ele>868</ele>
        <time>2016-05-14T11:33:54Z</time>
      </trkpt>
      <trkpt lat="44.29269" lon="3.29448">
        <ele>870</ele>
        <time>2016-05-14T11:34:04Z</time>
      </trkpt>
      <trkpt lat="44.29266" lon="3.29451">
        <ele>870</ele>
        <time>2016-05-14T11:34:15Z</time>
      </trkpt>
      <trkpt lat="44.29268" lon="3.29461">
        <ele>872</ele>
        <time>2016-05-14T11:34:25Z</time>
      </trkpt>
      <trkpt lat="44.29271" lon="3.29473">
        <ele>873</ele>
        <time>2016-05-14T11:34:35Z</time>
      </trkpt>
      <trkpt lat="44.29272" lon="3.29483">
        <ele>873</ele>
        <time>2016-05-14T11:34:45Z</time>
      </trkpt>
      <trkpt lat="44.29276" lon="3.29492">
        <ele>873</ele>
        <time>2016-05-14T11:34:55Z</time>
      </trkpt>
      <trkpt lat="44.29283" lon="3.29497">
        <ele>877</ele>
        <time>2016-05-14T11:35:05Z</time>
      </trkpt>
      <trkpt lat="44.29291" lon="3.29499">
        <ele>883</ele>
        <time>2016-05-14T11:35:15Z</time>
      </trkpt>
      <trkpt lat="44.29301" lon="3.295">
        <ele>885</ele>
        <time>2016-05-14T11:35:25Z</time>
      </trkpt>
      <trkpt lat="44.2931" lon="3.29501">
        <ele>885</ele>
        <time>2016-05-14T11:35:35Z</time>
      </trkpt>
      <trkpt lat="44.29318" lon="3.29502">
        <ele>879</ele>
        <time>2016-05-14T11:35:45Z</time>
      </trkpt>
      <trkpt lat="44.29323" lon="3.29504">
        <ele>875</ele>
        <time>2016-05-14T11:35:54Z</time>
      </trkpt>
      <trkpt lat="44.29331" lon="3.2951">
        <ele>866</ele>
        <time>2016-05-14T11:36:03Z</time>
      </trkpt>
      <trkpt lat="44.2934" lon="3.29522">
        <ele>865</ele>
        <time>2016-05-14T11:36:12Z</time>
      </trkpt>
      <trkpt lat="44.29345" lon="3.29531">
        <ele>862</ele>
        <time>2016-05-14T11:36:21Z</time>
      </trkpt>
      <trkpt lat="44.29348" lon="3.29546">
        <ele>860</ele>
        <time>2016-05-14T11:36:30Z</time>
      </trkpt>
      <trkpt lat="44.29346" lon="3.29555">
        <ele>860</ele>
        <time>2016-05-14T11:36:40Z</time>
      </trkpt>
      <trkpt lat="44.29352" lon="3.29565">
        <ele>861</ele>
        <time>2016-05-14T11:36:49Z</time>
      </trkpt>
      <trkpt lat="44.29356" lon="3.29575">
        <ele>861</ele>
        <time>2016-05-14T11:36:59Z</time>
      </trkpt>
      <trkpt lat="44.29362" lon="3.29588">
        <ele>863</ele>
        <time>2016-05-14T11:37:09Z</time>
      </trkpt>
      <trkpt lat="44.29368" lon="3.29599">
        <ele>863</ele>
        <time>2016-05-14T11:37:19Z</time>
      </trkpt>
      <trkpt lat="44.29372" lon="3.29612">
        <ele>863</ele>
        <time>2016-05-14T11:37:28Z</time>
      </trkpt>
      <trkpt lat="44.29372" lon="3.29624">
        <ele>863</ele>
        <time>2016-05-14T11:37:38Z</time>
      </trkpt>
      <trkpt lat="44.29379" lon="3.29631">
        <ele>861</ele>
        <time>2016-05-14T11:37:47Z</time>
      </trkpt>
      <trkpt lat="44.29387" lon="3.29641">
        <ele>859</ele>
        <time>2016-05-14T11:37:56Z</time>
      </trkpt>
      <trkpt lat="44.29391" lon="3.29652">
        <ele>863</ele>
        <time>2016-05-14T11:38:05Z</time>
      </trkpt>
      <trkpt lat="44.29397" lon="3.29664">
        <ele>864</ele>
        <time>2016-05-14T11:38:14Z</time>
      </trkpt>
      <trkpt lat="44.29402" lon="3.29679">
        <ele>864</ele>
        <time>2016-05-14T11:38:24Z</time>
      </trkpt>
      <trkpt lat="44.29406" lon="3.29688">
        <ele>856</ele>
        <time>2016-05-14T11:38:33Z</time>
      </trkpt>
      <trkpt lat="44.2941" lon="3.29698">
        <ele>850</ele>
        <time>2016-05-14T11:38:42Z</time>
      </trkpt>
      <trkpt lat="44.29409" lon="3.2971">
        <ele>850</ele>
        <time>2016-05-14T11:38:51Z</time>
      </trkpt>
      <trkpt lat="44.29411" lon="3.29721">
        <ele>850</ele>
        <time>2016-05-14T11:39:00Z</time>
      </trkpt>
      <trkpt lat="44.29412" lon="3.29733">
        <ele>850</ele>
        <time>2016-05-14T11:39:13Z</time>
      </trkpt>
      <trkpt lat="44.29414" lon="3.29746">
        <ele>850</ele>
        <time>2016-05-14T11:39:22Z</time>
      </trkpt>
      <trkpt lat="44.29411" lon="3.2976">
        <ele>850</ele>
        <time>2016-05-14T11:39:32Z</time>
      </trkpt>
      <trkpt lat="44.29417" lon="3.29767">
        <ele>857</ele>
        <time>2016-05-14T11:39:42Z</time>
      </trkpt>
      <trkpt lat="44.29422" lon="3.29773">
        <ele>861</ele>
        <time>2016-05-14T11:39:52Z</time>
      </trkpt>
      <trkpt lat="44.29428" lon="3.29779">
        <ele>863</ele>
        <time>2016-05-14T11:40:02Z</time>
      </trkpt>
      <trkpt lat="44.29437" lon="3.29794">
        <ele>864</ele>
        <time>2016-05-14T11:40:13Z</time>
      </trkpt>
      <trkpt lat="44.29442" lon="3.29804">
        <ele>865</ele>
        <time>2016-05-14T11:40:22Z</time>
      </trkpt>
      <trkpt lat="44.29447" lon="3.29812">
        <ele>866</ele>
        <time>2016-05-14T11:40:31Z</time>
      </trkpt>
      <trkpt lat="44.29451" lon="3.29818">
        <ele>866</ele>
        <time>2016-05-14T11:40:41Z</time>
      </trkpt>
      <trkpt lat="44.29456" lon="3.29816">
        <ele>857</ele>
        <time>2016-05-14T11:40:52Z</time>
      </trkpt>
      <trkpt lat="44.2946" lon="3.29813">
        <ele>851</ele>
        <time>2016-05-14T11:41:01Z</time>
      </trkpt>
      <trkpt lat="44.29464" lon="3.29812">
        <ele>851</ele>
        <time>2016-05-14T11:41:11Z</time>
      </trkpt>
      <trkpt lat="44.29467" lon="3.29809">
        <ele>851</ele>
        <time>2016-05-14T11:41:24Z</time>
      </trkpt>
      <trkpt lat="44.2947" lon="3.29808">
        <ele>851</ele>
        <time>2016-05-14T11:41:36Z</time>
      </trkpt>
      <trkpt lat="44.2947" lon="3.29805">
        <ele>848</ele>
        <time>2016-05-14T11:41:46Z</time>
      </trkpt>
      <trkpt lat="44.29473" lon="3.29804">
        <ele>843</ele>
        <time>2016-05-14T11:41:55Z</time>
      </trkpt>
      <trkpt lat="44.29472" lon="3.29797">
        <ele>840</ele>
        <time>2016-05-14T11:42:04Z</time>
      </trkpt>
      <trkpt lat="44.29476" lon="3.29793">
        <ele>840</ele>
        <time>2016-05-14T11:42:14Z</time>
      </trkpt>
      <trkpt lat="44.29477" lon="3.2979">
        <ele>840</ele>
        <time>2016-05-14T11:42:23Z</time>
      </trkpt>
      <trkpt lat="44.2948" lon="3.29786">
        <ele>839</ele>
        <time>2016-05-14T11:42:32Z</time>
      </trkpt>
      <trkpt lat="44.29483" lon="3.29784">
        <ele>838</ele>
        <time>2016-05-14T11:42:44Z</time>
      </trkpt>
      <trkpt lat="44.29486" lon="3.29787">
        <ele>832</ele>
        <time>2016-05-14T11:42:55Z</time>
      </trkpt>
      <trkpt lat="44.29488" lon="3.29785">
        <ele>825</ele>
        <time>2016-05-14T11:43:07Z</time>
      </trkpt>
      <trkpt lat="44.29488" lon="3.29784">
        <ele>825</ele>
        <time>2016-05-14T11:43:16Z</time>
      </trkpt>
      <trkpt lat="44.29491" lon="3.29784">
        <ele>825</ele>
        <time>2016-05-14T11:43:30Z</time>
      </trkpt>
      <trkpt lat="44.2949" lon="3.29782">
        <ele>825</ele>
        <time>2016-05-14T11:43:42Z</time>
      </trkpt>
      <trkpt lat="44.29497" lon="3.29781">
        <ele>825</ele>
        <time>2016-05-14T11:43:51Z</time>
      </trkpt>
      <trkpt lat="44.29503" lon="3.29782">
        <ele>825</ele>
        <time>2016-05-14T11:44:01Z</time>
      </trkpt>
      <trkpt lat="44.29509" lon="3.29783">
        <ele>824</ele>
        <time>2016-05-14T11:44:11Z</time>
      </trkpt>
      <trkpt lat="44.29515" lon="3.29789">
        <ele>823</ele>
        <time>2016-05-14T11:44:21Z</time>
      </trkpt>
      <trkpt lat="44.2952" lon="3.29792">
        <ele>822</ele>
        <time>2016-05-14T11:44:32Z</time>
      </trkpt>
      <trkpt lat="44.29526" lon="3.29795">
        <ele>818</ele>
        <time>2016-05-14T11:44:43Z</time>
      </trkpt>
      <trkpt lat="44.29533" lon="3.29795">
        <ele>817</ele>
        <time>2016-05-14T11:44:53Z</time>
      </trkpt>
      <trkpt lat="44.29542" lon="3.29794">
        <ele>814</ele>
        <time>2016-05-14T11:45:03Z</time>
      </trkpt>
      <trkpt lat="44.2955" lon="3.29791">
        <ele>813</ele>
        <time>2016-05-14T11:45:14Z</time>
      </trkpt>
      <trkpt lat="44.29557" lon="3.29794">
        <ele>812</ele>
        <time>2016-05-14T11:45:24Z</time>
      </trkpt>
      <trkpt lat="44.29562" lon="3.29796">
        <ele>812</ele>
        <time>2016-05-14T11:45:33Z</time>
      </trkpt>
      <trkpt lat="44.29568" lon="3.29799">
        <ele>812</ele>
        <time>2016-05-14T11:45:43Z</time>
      </trkpt>
      <trkpt lat="44.29576" lon="3.29803">
        <ele>812</ele>
        <time>2016-05-14T11:45:54Z</time>
      </trkpt>
      <trkpt lat="44.29581" lon="3.29803">
        <ele>812</ele>
        <time>2016-05-14T11:46:04Z</time>
      </trkpt>
      <trkpt lat="44.29587" lon="3.29803">
        <ele>809</ele>
        <time>2016-05-14T11:46:14Z</time>
      </trkpt>
      <trkpt lat="44.29594" lon="3.29803">
        <ele>805</ele>
        <time>2016-05-14T11:46:24Z</time>
      </trkpt>
      <trkpt lat="44.29599" lon="3.29807">
        <ele>802</ele>
        <time>2016-05-14T11:46:36Z</time>
      </trkpt>
      <trkpt lat="44.29603" lon="3.29809">
        <ele>798</ele>
        <time>2016-05-14T11:46:50Z</time>
      </trkpt>
      <trkpt lat="44.29605" lon="3.29809">
        <ele>797</ele>
        <time>2016-05-14T11:47:12Z</time>
      </trkpt>
      <trkpt lat="44.29607" lon="3.29807">
        <ele>796</ele>
        <time>2016-05-14T11:47:33Z</time>
      </trkpt>
      <trkpt lat="44.29607" lon="3.29805">
        <ele>788</ele>
        <time>2016-05-14T11:47:58Z</time>
      </trkpt>
      <trkpt lat="44.29609" lon="3.29805">
        <ele>787</ele>
        <time>2016-05-14T11:48:09Z</time>
      </trkpt>
      <trkpt lat="44.29614" lon="3.29805">
        <ele>784</ele>
        <time>2016-05-14T11:48:19Z</time>
      </trkpt>
      <trkpt lat="44.29617" lon="3.29804">
        <ele>784</ele>
        <time>2016-05-14T11:48:28Z</time>
      </trkpt>
      <trkpt lat="44.2962" lon="3.29808">
        <ele>784</ele>
        <time>2016-05-14T11:48:37Z</time>
      </trkpt>
      <trkpt lat="44.29623" lon="3.29812">
        <ele>784</ele>
        <time>2016-05-14T11:48:46Z</time>
      </trkpt>
      <trkpt lat="44.29626" lon="3.29819">
        <ele>781</ele>
        <time>2016-05-14T11:48:55Z</time>
      </trkpt>
      <trkpt lat="44.29627" lon="3.29822">
        <ele>779</ele>
        <time>2016-05-14T11:49:04Z</time>
      </trkpt>
      <trkpt lat="44.29628" lon="3.29825">
        <ele>777</ele>
        <time>2016-05-14T11:49:13Z</time>
      </trkpt>
      <trkpt lat="44.29631" lon="3.29824">
        <ele>777</ele>
        <time>2016-05-14T11:49:22Z</time>
      </trkpt>
      <trkpt lat="44.29635" lon="3.29818">
        <ele>776</ele>
        <time>2016-05-14T11:49:33Z</time>
      </trkpt>
      <trkpt lat="44.29638" lon="3.29822">
        <ele>774</ele>
        <time>2016-05-14T11:49:45Z</time>
      </trkpt>
      <trkpt lat="44.2964" lon="3.2983">
        <ele>773</ele>
        <time>2016-05-14T11:49:55Z</time>
      </trkpt>
      <trkpt lat="44.29639" lon="3.2983">
        <ele>771</ele>
        <time>2016-05-14T11:50:06Z</time>
      </trkpt>
      <trkpt lat="44.29645" lon="3.29824">
        <ele>769</ele>
        <time>2016-05-14T11:50:16Z</time>
      </trkpt>
      <trkpt lat="44.29648" lon="3.29814">
        <ele>768</ele>
        <time>2016-05-14T11:50:26Z</time>
      </trkpt>
      <trkpt lat="44.29651" lon="3.29806">
        <ele>768</ele>
        <time>2016-05-14T11:50:35Z</time>
      </trkpt>
      <trkpt lat="44.29656" lon="3.29795">
        <ele>766</ele>
        <time>2016-05-14T11:50:45Z</time>
      </trkpt>
      <trkpt lat="44.2966" lon="3.29797">
        <ele>764</ele>
        <time>2016-05-14T11:50:55Z</time>
      </trkpt>
      <trkpt lat="44.29665" lon="3.29797">
        <ele>761</ele>
        <time>2016-05-14T11:51:04Z</time>
      </trkpt>
      <trkpt lat="44.29665" lon="3.29806">
        <ele>758</ele>
        <time>2016-05-14T11:51:14Z</time>
      </trkpt>
      <trkpt lat="44.29667" lon="3.29815">
        <ele>756</ele>
        <time>2016-05-14T11:51:24Z</time>
      </trkpt>
      <trkpt lat="44.29669" lon="3.29824">
        <ele>754</ele>
        <time>2016-05-14T11:51:34Z</time>
      </trkpt>
      <trkpt lat="44.29671" lon="3.2983">
        <ele>752</ele>
        <time>2016-05-14T11:51:43Z</time>
      </trkpt>
      <trkpt lat="44.29673" lon="3.29837">
        <ele>750</ele>
        <time>2016-05-14T11:51:53Z</time>
      </trkpt>
      <trkpt lat="44.29675" lon="3.29846">
        <ele>748</ele>
        <time>2016-05-14T11:52:05Z</time>
      </trkpt>
      <trkpt lat="44.29675" lon="3.29853">
        <ele>744</ele>
        <time>2016-05-14T11:52:14Z</time>
      </trkpt>
      <trkpt lat="44.29681" lon="3.29862">
        <ele>744</ele>
        <time>2016-05-14T11:52:24Z</time>
      </trkpt>
      <trkpt lat="44.2968" lon="3.29873">
        <ele>740</ele>
        <time>2016-05-14T11:52:34Z</time>
      </trkpt>
      <trkpt lat="44.29683" lon="3.29883">
        <ele>739</ele>
        <time>2016-05-14T11:52:43Z</time>
      </trkpt>
      <trkpt lat="44.29689" lon="3.29894">
        <ele>739</ele>
        <time>2016-05-14T11:52:52Z</time>
      </trkpt>
      <trkpt lat="44.2969" lon="3.29903">
        <ele>739</ele>
        <time>2016-05-14T11:53:02Z</time>
      </trkpt>
      <trkpt lat="44.29692" lon="3.29908">
        <ele>739</ele>
        <time>2016-05-14T11:53:16Z</time>
      </trkpt>
      <trkpt lat="44.29696" lon="3.2991">
        <ele>738</ele>
        <time>2016-05-14T11:53:25Z</time>
      </trkpt>
      <trkpt lat="44.29698" lon="3.2991">
        <ele>736</ele>
        <time>2016-05-14T11:53:37Z</time>
      </trkpt>
      <trkpt lat="44.29694" lon="3.29913">
        <ele>733</ele>
        <time>2016-05-14T11:53:51Z</time>
      </trkpt>
      <trkpt lat="44.29682" lon="3.29915">
        <ele>727</ele>
        <time>2016-05-14T11:54:02Z</time>
      </trkpt>
      <trkpt lat="44.29684" lon="3.29915">
        <ele>725</ele>
        <time>2016-05-14T11:54:11Z</time>
      </trkpt>
      <trkpt lat="44.29701" lon="3.29918">
        <ele>723</ele>
        <time>2016-05-14T11:54:21Z</time>
      </trkpt>
      <trkpt lat="44.29708" lon="3.29919">
        <ele>725</ele>
        <time>2016-05-14T11:54:30Z</time>
      </trkpt>
      <trkpt lat="44.29714" lon="3.29924">
        <ele>725</ele>
        <time>2016-05-14T11:54:40Z</time>
      </trkpt>
      <trkpt lat="44.29716" lon="3.29929">
        <ele>724</ele>
        <time>2016-05-14T11:54:59Z</time>
      </trkpt>
      <trkpt lat="44.29718" lon="3.29931">
        <ele>722</ele>
        <time>2016-05-14T11:55:11Z</time>
      </trkpt>
      <trkpt lat="44.2972" lon="3.2993">
        <ele>721</ele>
        <time>2016-05-14T11:55:20Z</time>
      </trkpt>
      <trkpt lat="44.29724" lon="3.29935">
        <ele>721</ele>
        <time>2016-05-14T11:55:32Z</time>
      </trkpt>
      <trkpt lat="44.29723" lon="3.29944">
        <ele>719</ele>
        <time>2016-05-14T11:55:43Z</time>
      </trkpt>
      <trkpt lat="44.29726" lon="3.29953">
        <ele>715</ele>
        <time>2016-05-14T11:55:53Z</time>
      </trkpt>
      <trkpt lat="44.29725" lon="3.29962">
        <ele>711</ele>
        <time>2016-05-14T11:56:03Z</time>
      </trkpt>
      <trkpt lat="44.29728" lon="3.29962">
        <ele>711</ele>
        <time>2016-05-14T11:56:14Z</time>
      </trkpt>
      <trkpt lat="44.29736" lon="3.29965">
        <ele>710</ele>
        <time>2016-05-14T11:56:25Z</time>
      </trkpt>
      <trkpt lat="44.29737" lon="3.29959">
        <ele>708</ele>
        <time>2016-05-14T11:56:37Z</time>
      </trkpt>
      <trkpt lat="44.29744" lon="3.29963">
        <ele>708</ele>
        <time>2016-05-14T11:56:47Z</time>
      </trkpt>
      <trkpt lat="44.29745" lon="3.2996">
        <ele>708</ele>
        <time>2016-05-14T11:56:57Z</time>
      </trkpt>
      <trkpt lat="44.29749" lon="3.29955">
        <ele>708</ele>
        <time>2016-05-14T11:57:08Z</time>
      </trkpt>
      <trkpt lat="44.29751" lon="3.29958">
        <ele>708</ele>
        <time>2016-05-14T11:57:17Z</time>
      </trkpt>
      <trkpt lat="44.29755" lon="3.29966">
        <ele>707</ele>
        <time>2016-05-14T11:57:27Z</time>
      </trkpt>
      <trkpt lat="44.29755" lon="3.29975">
        <ele>704</ele>
        <time>2016-05-14T11:57:36Z</time>
      </trkpt>
      <trkpt lat="44.29755" lon="3.29981">
        <ele>694</ele>
        <time>2016-05-14T11:57:48Z</time>
      </trkpt>
      <trkpt lat="44.29762" lon="3.29978">
        <ele>692</ele>
        <time>2016-05-14T11:58:01Z</time>
      </trkpt>
      <trkpt lat="44.2976" lon="3.29971">
        <ele>695</ele>
        <time>2016-05-14T11:58:11Z</time>
      </trkpt>
      <trkpt lat="44.29761" lon="3.29978">
        <ele>693</ele>
        <time>2016-05-14T11:58:20Z</time>
      </trkpt>
      <trkpt lat="44.2976" lon="3.2998">
        <ele>687</ele>
        <time>2016-05-14T11:58:29Z</time>
      </trkpt>
      <trkpt lat="44.29761" lon="3.29975">
        <ele>688</ele>
        <time>2016-05-14T11:58:38Z</time>
      </trkpt>
      <trkpt lat="44.29758" lon="3.29977">
        <ele>691</ele>
        <time>2016-05-14T11:58:47Z</time>
      </trkpt>
      <trkpt lat="44.29758" lon="3.29982">
        <ele>690</ele>
        <time>2016-05-14T11:58:57Z</time>
      </trkpt>
      <trkpt lat="44.2976" lon="3.29979">
        <ele>688</ele>
        <time>2016-05-14T11:59:06Z</time>
      </trkpt>
      <trkpt lat="44.29758" lon="3.29983">
        <ele>682</ele>
        <time>2016-05-14T11:59:16Z</time>
      </trkpt>
      <trkpt lat="44.29758" lon="3.29991">
        <ele>674</ele>
        <time>2016-05-14T11:59:25Z</time>
      </trkpt>
      <trkpt lat="44.29761" lon="3.29984">
        <ele>668</ele>
        <time>2016-05-14T11:59:35Z</time>
      </trkpt>
      <trkpt lat="44.29762" lon="3.29978">
        <ele>680</ele>
        <time>2016-05-14T11:59:47Z</time>
      </trkpt>
      <trkpt lat="44.29768" lon="3.29973">
        <ele>694</ele>
        <time>2016-05-14T11:59:58Z</time>
      </trkpt>
      <trkpt lat="44.29759" lon="3.29971">
        <ele>702</ele>
        <time>2016-05-14T12:00:07Z</time>
      </trkpt>
      <trkpt lat="44.29752" lon="3.29972">
        <ele>703</ele>
        <time>2016-05-14T12:00:18Z</time>
      </trkpt>
      <trkpt lat="44.2976" lon="3.29971">
        <ele>703</ele>
        <time>2016-05-14T12:00:27Z</time>
      </trkpt>
      <trkpt lat="44.29761" lon="3.29973">
        <ele>690</ele>
        <time>2016-05-14T12:00:40Z</time>
      </trkpt>
      <trkpt lat="44.29763" lon="3.29975">
        <ele>682</ele>
        <time>2016-05-14T12:00:53Z</time>
      </trkpt>
      <trkpt lat="44.29761" lon="3.2997">
        <ele>682</ele>
        <time>2016-05-14T12:01:03Z</time>
      </trkpt>
      <trkpt lat="44.29759" lon="3.2997">
        <ele>683</ele>
        <time>2016-05-14T12:01:14Z</time>
      </trkpt>
      <trkpt lat="44.29759" lon="3.29971">
        <ele>692</ele>
        <time>2016-05-14T12:01:24Z</time>
      </trkpt>
      <trkpt lat="44.29757" lon="3.29975">
        <ele>694</ele>
        <time>2016-05-14T12:01:42Z</time>
      </trkpt>
      <trkpt lat="44.29755" lon="3.29976">
        <ele>695</ele>
        <time>2016-05-14T12:01:54Z</time>
      </trkpt>
      <trkpt lat="44.29754" lon="3.29972">
        <ele>702</ele>
        <time>2016-05-14T12:02:04Z</time>
      </trkpt>
      <trkpt lat="44.29757" lon="3.29964">
        <ele>697</ele>
        <time>2016-05-14T12:02:16Z</time>
      </trkpt>
      <trkpt lat="44.29755" lon="3.29969">
        <ele>697</ele>
        <time>2016-05-14T12:02:26Z</time>
      </trkpt>
      <trkpt lat="44.29753" lon="3.29973">
        <ele>697</ele>
        <time>2016-05-14T12:02:35Z</time>
      </trkpt>
      <trkpt lat="44.29757" lon="3.2997">
        <ele>696</ele>
        <time>2016-05-14T12:02:45Z</time>
      </trkpt>
      <trkpt lat="44.29759" lon="3.29967">
        <ele>694</ele>
        <time>2016-05-14T12:02:54Z</time>
      </trkpt>
      <trkpt lat="44.29763" lon="3.29966">
        <ele>689</ele>
        <time>2016-05-14T12:03:05Z</time>
      </trkpt>
      <trkpt lat="44.29762" lon="3.29961">
        <ele>689</ele>
        <time>2016-05-14T12:03:14Z</time>
      </trkpt>
      <trkpt lat="44.29772" lon="3.29954">
        <ele>689</ele>
        <time>2016-05-14T12:03:27Z</time>
      </trkpt>
      <trkpt lat="44.29771" lon="3.29943">
        <ele>691</ele>
        <time>2016-05-14T12:03:40Z</time>
      </trkpt>
      <trkpt lat="44.29772" lon="3.29939">
        <ele>687</ele>
        <time>2016-05-14T12:03:53Z</time>
      </trkpt>
      <trkpt lat="44.29769" lon="3.29935">
        <ele>687</ele>
        <time>2016-05-14T12:04:02Z</time>
      </trkpt>
      <trkpt lat="44.29773" lon="3.2993">
        <ele>681</ele>
        <time>2016-05-14T12:04:13Z</time>
      </trkpt>
      <trkpt lat="44.29776" lon="3.29923">
        <ele>677</ele>
        <time>2016-05-14T12:04:22Z</time>
      </trkpt>
      <trkpt lat="44.29774" lon="3.29912">
        <ele>677</ele>
        <time>2016-05-14T12:04:33Z</time>
      </trkpt>
      <trkpt lat="44.29772" lon="3.29899">
        <ele>677</ele>
        <time>2016-05-14T12:04:42Z</time>
      </trkpt>
      <trkpt lat="44.29776" lon="3.2989">
        <ele>678</ele>
        <time>2016-05-14T12:04:52Z</time>
      </trkpt>
      <trkpt lat="44.29774" lon="3.29883">
        <ele>678</ele>
        <time>2016-05-14T12:05:04Z</time>
      </trkpt>
      <trkpt lat="44.29775" lon="3.29873">
        <ele>674</ele>
        <time>2016-05-14T12:05:14Z</time>
      </trkpt>
      <trkpt lat="44.29776" lon="3.29867">
        <ele>668</ele>
        <time>2016-05-14T12:05:23Z</time>
      </trkpt>
      <trkpt lat="44.29776" lon="3.2986">
        <ele>663</ele>
        <time>2016-05-14T12:05:33Z</time>
      </trkpt>
      <trkpt lat="44.29774" lon="3.29853">
        <ele>661</ele>
        <time>2016-05-14T12:05:42Z</time>
      </trkpt>
      <trkpt lat="44.29777" lon="3.29844">
        <ele>661</ele>
        <time>2016-05-14T12:05:52Z</time>
      </trkpt>
      <trkpt lat="44.2978" lon="3.29838">
        <ele>661</ele>
        <time>2016-05-14T12:06:03Z</time>
      </trkpt>
      <trkpt lat="44.29782" lon="3.29836">
        <ele>659</ele>
        <time>2016-05-14T12:06:12Z</time>
      </trkpt>
      <trkpt lat="44.29789" lon="3.29824">
        <ele>653</ele>
        <time>2016-05-14T12:06:25Z</time>
      </trkpt>
      <trkpt lat="44.29791" lon="3.29818">
        <ele>648</ele>
        <time>2016-05-14T12:06:35Z</time>
      </trkpt>
      <trkpt lat="44.29792" lon="3.29811">
        <ele>646</ele>
        <time>2016-05-14T12:06:45Z</time>
      </trkpt>
      <trkpt lat="44.29794" lon="3.29803">
        <ele>643</ele>
        <time>2016-05-14T12:06:55Z</time>
      </trkpt>
      <trkpt lat="44.29797" lon="3.29793">
        <ele>642</ele>
        <time>2016-05-14T12:07:05Z</time>
      </trkpt>
      <trkpt lat="44.29801" lon="3.29784">
        <ele>641</ele>
        <time>2016-05-14T12:07:16Z</time>
      </trkpt>
      <trkpt lat="44.298" lon="3.29776">
        <ele>639</ele>
        <time>2016-05-14T12:07:26Z</time>
      </trkpt>
      <trkpt lat="44.29799" lon="3.29769">
        <ele>639</ele>
        <time>2016-05-14T12:07:35Z</time>
      </trkpt>
      <trkpt lat="44.29799" lon="3.29761">
        <ele>637</ele>
        <time>2016-05-14T12:07:44Z</time>
      </trkpt>
      <trkpt lat="44.29805" lon="3.29749">
        <ele>637</ele>
        <time>2016-05-14T12:07:55Z</time>
      </trkpt>
      <trkpt lat="44.29806" lon="3.29736">
        <ele>636</ele>
        <time>2016-05-14T12:08:05Z</time>
      </trkpt>
      <trkpt lat="44.29806" lon="3.29724">
        <ele>635</ele>
        <time>2016-05-14T12:08:14Z</time>
      </trkpt>
      <trkpt lat="44.29807" lon="3.29711">
        <ele>635</ele>
        <time>2016-05-14T12:08:23Z</time>
      </trkpt>
      <trkpt lat="44.29805" lon="3.29697">
        <ele>630</ele>
        <time>2016-05-14T12:08:32Z</time>
      </trkpt>
      <trkpt lat="44.29808" lon="3.29687">
        <ele>627</ele>
        <time>2016-05-14T12:08:42Z</time>
      </trkpt>
      <trkpt lat="44.29811" lon="3.29678">
        <ele>627</ele>
        <time>2016-05-14T12:08:52Z</time>
      </trkpt>
      <trkpt lat="44.29811" lon="3.29671">
        <ele>624</ele>
        <time>2016-05-14T12:09:03Z</time>
      </trkpt>
      <trkpt lat="44.29811" lon="3.29664">
        <ele>623</ele>
        <time>2016-05-14T12:09:12Z</time>
      </trkpt>
      <trkpt lat="44.29813" lon="3.2966">
        <ele>621</ele>
        <time>2016-05-14T12:09:22Z</time>
      </trkpt>
      <trkpt lat="44.29816" lon="3.29659">
        <ele>621</ele>
        <time>2016-05-14T12:09:37Z</time>
      </trkpt>
      <trkpt lat="44.29813" lon="3.29653">
        <ele>621</ele>
        <time>2016-05-14T12:09:47Z</time>
      </trkpt>
      <trkpt lat="44.29806" lon="3.29648">
        <ele>617</ele>
        <time>2016-05-14T12:09:57Z</time>
      </trkpt>
      <trkpt lat="44.29797" lon="3.29646">
        <ele>612</ele>
        <time>2016-05-14T12:10:07Z</time>
      </trkpt>
      <trkpt lat="44.29787" lon="3.29647">
        <ele>610</ele>
        <time>2016-05-14T12:10:18Z</time>
      </trkpt>
      <trkpt lat="44.29775" lon="3.29646">
        <ele>610</ele>
        <time>2016-05-14T12:10:27Z</time>
      </trkpt>
      <trkpt lat="44.29764" lon="3.29647">
        <ele>610</ele>
        <time>2016-05-14T12:10:38Z</time>
      </trkpt>
      <trkpt lat="44.29758" lon="3.29645">
        <ele>610</ele>
        <time>2016-05-14T12:10:47Z</time>
      </trkpt>
      <trkpt lat="44.2975" lon="3.29643">
        <ele>608</ele>
        <time>2016-05-14T12:10:58Z</time>
      </trkpt>
      <trkpt lat="44.29745" lon="3.29639">
        <ele>608</ele>
        <time>2016-05-14T12:11:07Z</time>
      </trkpt>
      <trkpt lat="44.29736" lon="3.29636">
        <ele>608</ele>
        <time>2016-05-14T12:11:18Z</time>
      </trkpt>
      <trkpt lat="44.29739" lon="3.29629">
        <ele>610</ele>
        <time>2016-05-14T12:11:28Z</time>
      </trkpt>
      <trkpt lat="44.29743" lon="3.29622">
        <ele>617</ele>
        <time>2016-05-14T12:11:41Z</time>
      </trkpt>
      <trkpt lat="44.29737" lon="3.29617">
        <ele>620</ele>
        <time>2016-05-14T12:11:50Z</time>
      </trkpt>
      <trkpt lat="44.29734" lon="3.2961">
        <ele>621</ele>
        <time>2016-05-14T12:12:03Z</time>
      </trkpt>
      <trkpt lat="44.29745" lon="3.296">
        <ele>624</ele>
        <time>2016-05-14T12:12:12Z</time>
      </trkpt>
      <trkpt lat="44.29752" lon="3.29601">
        <ele>633</ele>
        <time>2016-05-14T12:12:22Z</time>
      </trkpt>
      <trkpt lat="44.29747" lon="3.29595">
        <ele>634</ele>
        <time>2016-05-14T12:12:32Z</time>
      </trkpt>
      <trkpt lat="44.29739" lon="3.29598">
        <ele>620</ele>
        <time>2016-05-14T12:12:42Z</time>
      </trkpt>
      <trkpt lat="44.29735" lon="3.296">
        <ele>604</ele>
        <time>2016-05-14T12:12:58Z</time>
      </trkpt>
      <trkpt lat="44.29728" lon="3.29604">
        <ele>601</ele>
        <time>2016-05-14T12:13:09Z</time>
      </trkpt>
      <trkpt lat="44.29727" lon="3.2961">
        <ele>593</ele>
        <time>2016-05-14T12:13:18Z</time>
      </trkpt>
      <trkpt lat="44.29733" lon="3.29609">
        <ele>582</ele>
        <time>2016-05-14T12:13:29Z</time>
      </trkpt>
      <trkpt lat="44.29739" lon="3.29605">
        <ele>594</ele>
        <time>2016-05-14T12:13:38Z</time>
      </trkpt>
      <trkpt lat="44.29729" lon="3.296">
        <ele>607</ele>
        <time>2016-05-14T12:13:50Z</time>
      </trkpt>
      <trkpt lat="44.29729" lon="3.29589">
        <ele>607</ele>
        <time>2016-05-14T12:13:59Z</time>
      </trkpt>
      <trkpt lat="44.29733" lon="3.2958">
        <ele>606</ele>
        <time>2016-05-14T12:14:08Z</time>
      </trkpt>
      <trkpt lat="44.29722" lon="3.29569">
        <ele>608</ele>
        <time>2016-05-14T12:14:17Z</time>
      </trkpt>
      <trkpt lat="44.29716" lon="3.29565">
        <ele>607</ele>
        <time>2016-05-14T12:14:27Z</time>
      </trkpt>
      <trkpt lat="44.29721" lon="3.29555">
        <ele>599</ele>
        <time>2016-05-14T12:14:37Z</time>
      </trkpt>
      <trkpt lat="44.29727" lon="3.29543">
        <ele>591</ele>
        <time>2016-05-14T12:14:47Z</time>
      </trkpt>
      <trkpt lat="44.29734" lon="3.29554">
        <ele>591</ele>
        <time>2016-05-14T12:14:57Z</time>
      </trkpt>
      <trkpt lat="44.29765" lon="3.2954">
        <ele>599</ele>
        <time>2016-05-14T12:15:07Z</time>
      </trkpt>
      <trkpt lat="44.29789" lon="3.29529">
        <ele>609</ele>
        <time>2016-05-14T12:15:17Z</time>
      </trkpt>
      <trkpt lat="44.29768" lon="3.29536">
        <ele>617</ele>
        <time>2016-05-14T12:15:29Z</time>
      </trkpt>
      <trkpt lat="44.2979" lon="3.29522">
        <ele>616</ele>
        <time>2016-05-14T12:15:39Z</time>
      </trkpt>
      <trkpt lat="44.29796" lon="3.29519">
        <ele>624</ele>
        <time>2016-05-14T12:15:48Z</time>
      </trkpt>
      <trkpt lat="44.29811" lon="3.29513">
        <ele>624</ele>
        <time>2016-05-14T12:15:57Z</time>
      </trkpt>
      <trkpt lat="44.29829" lon="3.29509">
        <ele>627</ele>
        <time>2016-05-14T12:16:08Z</time>
      </trkpt>
      <trkpt lat="44.29855" lon="3.29503">
        <ele>644</ele>
        <time>2016-05-14T12:16:18Z</time>
      </trkpt>
      <trkpt lat="44.29851" lon="3.2951">
        <ele>663</ele>
        <time>2016-05-14T12:16:27Z</time>
      </trkpt>
      <trkpt lat="44.29827" lon="3.29513">
        <ele>657</ele>
        <time>2016-05-14T12:16:37Z</time>
      </trkpt>
      <trkpt lat="44.29813" lon="3.29514">
        <ele>632</ele>
        <time>2016-05-14T12:16:47Z</time>
      </trkpt>
      <trkpt lat="44.29813" lon="3.29511">
        <ele>615</ele>
        <time>2016-05-14T12:16:59Z</time>
      </trkpt>
      <trkpt lat="44.29817" lon="3.29516">
        <ele>620</ele>
        <time>2016-05-14T12:17:09Z</time>
      </trkpt>
      <trkpt lat="44.29817" lon="3.29524">
        <ele>624</ele>
        <time>2016-05-14T12:17:18Z</time>
      </trkpt>
      <trkpt lat="44.29816" lon="3.29519">
        <ele>630</ele>
        <time>2016-05-14T12:17:30Z</time>
      </trkpt>
      <trkpt lat="44.29821" lon="3.29519">
        <ele>631</ele>
        <time>2016-05-14T12:17:39Z</time>
      </trkpt>
      <trkpt lat="44.2983" lon="3.29521">
        <ele>637</ele>
        <time>2016-05-14T12:17:50Z</time>
      </trkpt>
      <trkpt lat="44.29834" lon="3.29518">
        <ele>639</ele>
        <time>2016-05-14T12:18:01Z</time>
      </trkpt>
      <trkpt lat="44.2984" lon="3.29512">
        <ele>640</ele>
        <time>2016-05-14T12:18:10Z</time>
      </trkpt>
      <trkpt lat="44.29849" lon="3.29509">
        <ele>642</ele>
        <time>2016-05-14T12:18:19Z</time>
      </trkpt>
      <trkpt lat="44.2986" lon="3.29505">
        <ele>646</ele>
        <time>2016-05-14T12:18:31Z</time>
      </trkpt>
      <trkpt lat="44.29852" lon="3.29511">
        <ele>647</ele>
        <time>2016-05-14T12:18:40Z</time>
      </trkpt>
      <trkpt lat="44.29823" lon="3.2951">
        <ele>646</ele>
        <time>2016-05-14T12:18:49Z</time>
      </trkpt>
      <trkpt lat="44.29794" lon="3.29513">
        <ele>627</ele>
        <time>2016-05-14T12:18:58Z</time>
      </trkpt>
      <trkpt lat="44.29784" lon="3.29522">
        <ele>608</ele>
        <time>2016-05-14T12:19:07Z</time>
      </trkpt>
      <trkpt lat="44.29776" lon="3.29533">
        <ele>591</ele>
        <time>2016-05-14T12:19:17Z</time>
      </trkpt>
      <trkpt lat="44.29763" lon="3.2954">
        <ele>578</ele>
        <time>2016-05-14T12:19:27Z</time>
      </trkpt>
      <trkpt lat="44.29753" lon="3.29543">
        <ele>558</ele>
        <time>2016-05-14T12:19:39Z</time>
      </trkpt>
      <trkpt lat="44.29745" lon="3.29538">
        <ele>556</ele>
        <time>2016-05-14T12:19:48Z</time>
      </trkpt>
      <trkpt lat="44.29763" lon="3.29521">
        <ele>571</ele>
        <time>2016-05-14T12:19:57Z</time>
      </trkpt>
      <trkpt lat="44.2977" lon="3.29519">
        <ele>583</ele>
        <time>2016-05-14T12:20:08Z</time>
      </trkpt>
      <trkpt lat="44.29779" lon="3.2951">
        <ele>582</ele>
        <time>2016-05-14T12:20:19Z</time>
      </trkpt>
      <trkpt lat="44.29776" lon="3.29493">
        <ele>564</ele>
        <time>2016-05-14T12:20:28Z</time>
      </trkpt>
      <trkpt lat="44.29774" lon="3.29482">
        <ele>554</ele>
        <time>2016-05-14T12:20:38Z</time>
      </trkpt>
      <trkpt lat="44.29773" lon="3.29471">
        <ele>551</ele>
        <time>2016-05-14T12:20:48Z</time>
      </trkpt>
      <trkpt lat="44.29774" lon="3.29461">
        <ele>551</ele>
        <time>2016-05-14T12:20:57Z</time>
      </trkpt>
      <trkpt lat="44.29774" lon="3.29446">
        <ele>551</ele>
        <time>2016-05-14T12:21:08Z</time>
      </trkpt>
      <trkpt lat="44.29774" lon="3.29434">
        <ele>549</ele>
        <time>2016-05-14T12:21:17Z</time>
      </trkpt>
      <trkpt lat="44.29774" lon="3.29421">
        <ele>544</ele>
        <time>2016-05-14T12:21:27Z</time>
      </trkpt>
      <trkpt lat="44.29773" lon="3.29407">
        <ele>537</ele>
        <time>2016-05-14T12:21:37Z</time>
      </trkpt>
      <trkpt lat="44.29771" lon="3.29395">
        <ele>534</ele>
        <time>2016-05-14T12:21:47Z</time>
      </trkpt>
      <trkpt lat="44.2977" lon="3.29388">
        <ele>531</ele>
        <time>2016-05-14T12:21:57Z</time>
      </trkpt>
      <trkpt lat="44.29768" lon="3.2938">
        <ele>531</ele>
        <time>2016-05-14T12:22:07Z</time>
      </trkpt>
      <trkpt lat="44.29766" lon="3.29372">
        <ele>530</ele>
        <time>2016-05-14T12:22:23Z</time>
      </trkpt>
      <trkpt lat="44.29763" lon="3.29368">
        <ele>530</ele>
        <time>2016-05-14T12:22:37Z</time>
      </trkpt>
      <trkpt lat="44.29761" lon="3.29359">
        <ele>523</ele>
        <time>2016-05-14T12:22:49Z</time>
      </trkpt>
      <trkpt lat="44.29767" lon="3.29358">
        <ele>523</ele>
        <time>2016-05-14T12:22:59Z</time>
      </trkpt>
      <trkpt lat="44.29766" lon="3.29358">
        <ele>524</ele>
        <time>2016-05-14T12:23:25Z</time>
      </trkpt>
      <trkpt lat="44.29768" lon="3.29356">
        <ele>521</ele>
        <time>2016-05-14T12:23:34Z</time>
      </trkpt>
      <trkpt lat="44.2977" lon="3.29358">
        <ele>523</ele>
        <time>2016-05-14T12:23:43Z</time>
      </trkpt>
      <trkpt lat="44.29771" lon="3.29355">
        <ele>530</ele>
        <time>2016-05-14T12:23:55Z</time>
      </trkpt>
      <trkpt lat="44.29777" lon="3.29358">
        <ele>530</ele>
        <time>2016-05-14T12:24:05Z</time>
      </trkpt>
      <trkpt lat="44.29781" lon="3.2936">
        <ele>530</ele>
        <time>2016-05-14T12:24:15Z</time>
      </trkpt>
      <trkpt lat="44.29785" lon="3.29366">
        <ele>526</ele>
        <time>2016-05-14T12:24:27Z</time>
      </trkpt>
      <trkpt lat="44.29785" lon="3.29364">
        <ele>522</ele>
        <time>2016-05-14T12:24:38Z</time>
      </trkpt>
      <trkpt lat="44.29792" lon="3.29361">
        <ele>515</ele>
        <time>2016-05-14T12:24:48Z</time>
      </trkpt>
      <trkpt lat="44.29798" lon="3.29362">
        <ele>514</ele>
        <time>2016-05-14T12:24:57Z</time>
      </trkpt>
      <trkpt lat="44.29802" lon="3.29354">
        <ele>512</ele>
        <time>2016-05-14T12:25:08Z</time>
      </trkpt>
      <trkpt lat="44.29798" lon="3.29346">
        <ele>509</ele>
        <time>2016-05-14T12:25:18Z</time>
      </trkpt>
      <trkpt lat="44.29803" lon="3.29346">
        <ele>505</ele>
        <time>2016-05-14T12:25:28Z</time>
      </trkpt>
      <trkpt lat="44.29808" lon="3.29347">
        <ele>503</ele>
        <time>2016-05-14T12:25:38Z</time>
      </trkpt>
      <trkpt lat="44.29813" lon="3.29347">
        <ele>503</ele>
        <time>2016-05-14T12:25:47Z</time>
      </trkpt>
      <trkpt lat="44.2982" lon="3.29348">
        <ele>503</ele>
        <time>2016-05-14T12:25:57Z</time>
      </trkpt>
      <trkpt lat="44.29826" lon="3.29351">
        <ele>503</ele>
        <time>2016-05-14T12:26:10Z</time>
      </trkpt>
      <trkpt lat="44.2983" lon="3.29353">
        <ele>504</ele>
        <time>2016-05-14T12:26:20Z</time>
      </trkpt>
      <trkpt lat="44.29834" lon="3.29354">
        <ele>506</ele>
        <time>2016-05-14T12:26:30Z</time>
      </trkpt>
      <trkpt lat="44.2984" lon="3.29357">
        <ele>506</ele>
        <time>2016-05-14T12:26:40Z</time>
      </trkpt>
      <trkpt lat="44.29847" lon="3.29362">
        <ele>506</ele>
        <time>2016-05-14T12:26:49Z</time>
      </trkpt>
      <trkpt lat="44.29853" lon="3.29369">
        <ele>506</ele>
        <time>2016-05-14T12:26:58Z</time>
      </trkpt>
      <trkpt lat="44.29859" lon="3.29364">
        <ele>498</ele>
        <time>2016-05-14T12:27:08Z</time>
      </trkpt>
      <trkpt lat="44.29863" lon="3.29359">
        <ele>488</ele>
        <time>2016-05-14T12:27:18Z</time>
      </trkpt>
      <trkpt lat="44.29868" lon="3.29362">
        <ele>487</ele>
        <time>2016-05-14T12:27:29Z</time>
      </trkpt>
      <trkpt lat="44.29875" lon="3.29366">
        <ele>487</ele>
        <time>2016-05-14T12:27:38Z</time>
      </trkpt>
      <trkpt lat="44.29879" lon="3.29372">
        <ele>490</ele>
        <time>2016-05-14T12:27:47Z</time>
      </trkpt>
      <trkpt lat="44.29883" lon="3.2938">
        <ele>490</ele>
        <time>2016-05-14T12:27:57Z</time>
      </trkpt>
      <trkpt lat="44.29884" lon="3.29392">
        <ele>485</ele>
        <time>2016-05-14T12:28:07Z</time>
      </trkpt>
      <trkpt lat="44.29884" lon="3.29399">
        <ele>485</ele>
        <time>2016-05-14T12:28:17Z</time>
      </trkpt>
      <trkpt lat="44.29889" lon="3.29402">
        <ele>487</ele>
        <time>2016-05-14T12:28:27Z</time>
      </trkpt>
      <trkpt lat="44.29893" lon="3.29404">
        <ele>492</ele>
        <time>2016-05-14T12:28:37Z</time>
      </trkpt>
      <trkpt lat="44.29902" lon="3.29398">
        <ele>489</ele>
        <time>2016-05-14T12:28:47Z</time>
      </trkpt>
      <trkpt lat="44.29911" lon="3.29398">
        <ele>479</ele>
        <time>2016-05-14T12:28:57Z</time>
      </trkpt>
      <trkpt lat="44.29922" lon="3.29395">
        <ele>479</ele>
        <time>2016-05-14T12:29:08Z</time>
      </trkpt>
      <trkpt lat="44.29931" lon="3.29395">
        <ele>479</ele>
        <time>2016-05-14T12:29:19Z</time>
      </trkpt>
      <trkpt lat="44.29935" lon="3.29401">
        <ele>480</ele>
        <time>2016-05-14T12:29:29Z</time>
      </trkpt>
      <trkpt lat="44.29937" lon="3.29403">
        <ele>472</ele>
        <time>2016-05-14T12:29:39Z</time>
      </trkpt>
      <trkpt lat="44.29936" lon="3.29394">
        <ele>466</ele>
        <time>2016-05-14T12:29:49Z</time>
      </trkpt>
      <trkpt lat="44.29935" lon="3.29388">
        <ele>458</ele>
        <time>2016-05-14T12:29:58Z</time>
      </trkpt>
      <trkpt lat="44.29937" lon="3.29383">
        <ele>454</ele>
        <time>2016-05-14T12:30:09Z</time>
      </trkpt>
      <trkpt lat="44.29945" lon="3.29387">
        <ele>453</ele>
        <time>2016-05-14T12:30:19Z</time>
      </trkpt>
      <trkpt lat="44.29953" lon="3.29396">
        <ele>446</ele>
        <time>2016-05-14T12:30:28Z</time>
      </trkpt>
      <trkpt lat="44.29958" lon="3.29405">
        <ele>444</ele>
        <time>2016-05-14T12:30:37Z</time>
      </trkpt>
      <trkpt lat="44.29967" lon="3.29415">
        <ele>444</ele>
        <time>2016-05-14T12:30:47Z</time>
      </trkpt>
      <trkpt lat="44.29966" lon="3.29432">
        <ele>444</ele>
        <time>2016-05-14T12:30:57Z</time>
      </trkpt>
      <trkpt lat="44.29977" lon="3.29444">
        <ele>444</ele>
        <time>2016-05-14T12:31:08Z</time>
      </trkpt>
      <trkpt lat="44.29971" lon="3.29451">
        <ele>444</ele>
        <time>2016-05-14T12:31:18Z</time>
      </trkpt>
      <trkpt lat="44.29971" lon="3.29458">
        <ele>445</ele>
        <time>2016-05-14T12:31:28Z</time>
      </trkpt>
      <trkpt lat="44.29979" lon="3.29467">
        <ele>445</ele>
        <time>2016-05-14T12:31:37Z</time>
      </trkpt>
      <trkpt lat="44.29983" lon="3.29482">
        <ele>443</ele>
        <time>2016-05-14T12:31:47Z</time>
      </trkpt>
      <trkpt lat="44.29987" lon="3.29499">
        <ele>441</ele>
        <time>2016-05-14T12:31:58Z</time>
      </trkpt>
      <trkpt lat="44.29985" lon="3.29513">
        <ele>441</ele>
        <time>2016-05-14T12:32:07Z</time>
      </trkpt>
      <trkpt lat="44.2999" lon="3.29524">
        <ele>441</ele>
        <time>2016-05-14T12:32:17Z</time>
      </trkpt>
      <trkpt lat="44.29996" lon="3.29538">
        <ele>441</ele>
        <time>2016-05-14T12:32:27Z</time>
      </trkpt>
      <trkpt lat="44.30001" lon="3.29549">
        <ele>444</ele>
        <time>2016-05-14T12:32:38Z</time>
      </trkpt>
      <trkpt lat="44.3001" lon="3.2956">
        <ele>447</ele>
        <time>2016-05-14T12:32:47Z</time>
      </trkpt>
      <trkpt lat="44.30016" lon="3.29576">
        <ele>449</ele>
        <time>2016-05-14T12:32:57Z</time>
      </trkpt>
      <trkpt lat="44.30018" lon="3.29594">
        <ele>449</ele>
        <time>2016-05-14T12:33:07Z</time>
      </trkpt>
      <trkpt lat="44.30016" lon="3.29608">
        <ele>449</ele>
        <time>2016-05-14T12:33:17Z</time>
      </trkpt>
      <trkpt lat="44.30023" lon="3.29624">
        <ele>449</ele>
        <time>2016-05-14T12:33:28Z</time>
      </trkpt>
      <trkpt lat="44.30028" lon="3.29637">
        <ele>444</ele>
        <time>2016-05-14T12:33:37Z</time>
      </trkpt>
      <trkpt lat="44.30034" lon="3.29644">
        <ele>447</ele>
        <time>2016-05-14T12:33:47Z</time>
      </trkpt>
      <trkpt lat="44.30041" lon="3.29657">
        <ele>450</ele>
        <time>2016-05-14T12:33:58Z</time>
      </trkpt>
      <trkpt lat="44.30045" lon="3.29661">
        <ele>454</ele>
        <time>2016-05-14T12:34:07Z</time>
      </trkpt>
      <trkpt lat="44.30054" lon="3.29671">
        <ele>456</ele>
        <time>2016-05-14T12:34:17Z</time>
      </trkpt>
      <trkpt lat="44.30062" lon="3.29684">
        <ele>455</ele>
        <time>2016-05-14T12:34:27Z</time>
      </trkpt>
      <trkpt lat="44.30074" lon="3.29694">
        <ele>455</ele>
        <time>2016-05-14T12:34:37Z</time>
      </trkpt>
      <trkpt lat="44.30085" lon="3.29704">
        <ele>462</ele>
        <time>2016-05-14T12:34:47Z</time>
      </trkpt>
      <trkpt lat="44.30094" lon="3.29719">
        <ele>461</ele>
        <time>2016-05-14T12:34:57Z</time>
      </trkpt>
      <trkpt lat="44.30104" lon="3.29729">
        <ele>459</ele>
        <time>2016-05-14T12:35:07Z</time>
      </trkpt>
      <trkpt lat="44.30114" lon="3.29736">
        <ele>456</ele>
        <time>2016-05-14T12:35:17Z</time>
      </trkpt>
      <trkpt lat="44.30127" lon="3.29744">
        <ele>456</ele>
        <time>2016-05-14T12:35:27Z</time>
      </trkpt>
      <trkpt lat="44.30139" lon="3.2975">
        <ele>456</ele>
        <time>2016-05-14T12:35:38Z</time>
      </trkpt>
      <trkpt lat="44.30149" lon="3.29755">
        <ele>456</ele>
        <time>2016-05-14T12:35:48Z</time>
      </trkpt>
      <trkpt lat="44.30159" lon="3.29759">
        <ele>456</ele>
        <time>2016-05-14T12:35:57Z</time>
      </trkpt>
      <trkpt lat="44.30171" lon="3.29764">
        <ele>462</ele>
        <time>2016-05-14T12:36:07Z</time>
      </trkpt>
      <trkpt lat="44.3018" lon="3.29771">
        <ele>462</ele>
        <time>2016-05-14T12:36:17Z</time>
      </trkpt>
      <trkpt lat="44.3019" lon="3.29777">
        <ele>454</ele>
        <time>2016-05-14T12:36:27Z</time>
      </trkpt>
      <trkpt lat="44.30201" lon="3.29778">
        <ele>453</ele>
        <time>2016-05-14T12:36:37Z</time>
      </trkpt>
      <trkpt lat="44.30213" lon="3.29778">
        <ele>458</ele>
        <time>2016-05-14T12:36:47Z</time>
      </trkpt>
      <trkpt lat="44.30224" lon="3.29783">
        <ele>464</ele>
        <time>2016-05-14T12:36:57Z</time>
      </trkpt>
      <trkpt lat="44.30234" lon="3.29795">
        <ele>464</ele>
        <time>2016-05-14T12:37:07Z</time>
      </trkpt>
      <trkpt lat="44.30246" lon="3.29802">
        <ele>462</ele>
        <time>2016-05-14T12:37:17Z</time>
      </trkpt>
      <trkpt lat="44.30256" lon="3.2981">
        <ele>461</ele>
        <time>2016-05-14T12:37:27Z</time>
      </trkpt>
      <trkpt lat="44.30267" lon="3.29819">
        <ele>458</ele>
        <time>2016-05-14T12:37:37Z</time>
      </trkpt>
      <trkpt lat="44.30279" lon="3.29825">
        <ele>455</ele>
        <time>2016-05-14T12:37:47Z</time>
      </trkpt>
      <trkpt lat="44.30293" lon="3.29833">
        <ele>452</ele>
        <time>2016-05-14T12:37:58Z</time>
      </trkpt>
      <trkpt lat="44.30296" lon="3.29834">
        <ele>452</ele>
        <time>2016-05-14T12:38:07Z</time>
      </trkpt>
      <trkpt lat="44.30299" lon="3.2983">
        <ele>452</ele>
        <time>2016-05-14T12:38:27Z</time>
      </trkpt>
      <trkpt lat="44.30301" lon="3.29832">
        <ele>453</ele>
        <time>2016-05-14T12:38:45Z</time>
      </trkpt>
      <trkpt lat="44.30303" lon="3.29837">
        <ele>453</ele>
        <time>2016-05-14T12:38:57Z</time>
      </trkpt>
      <trkpt lat="44.30301" lon="3.29838">
        <ele>451</ele>
        <time>2016-05-14T12:39:08Z</time>
      </trkpt>
      <trkpt lat="44.30299" lon="3.29837">
        <ele>450</ele>
        <time>2016-05-14T12:39:19Z</time>
      </trkpt>
      <trkpt lat="44.30297" lon="3.29836">
        <ele>450</ele>
        <time>2016-05-14T12:39:31Z</time>
      </trkpt>
      <trkpt lat="44.30302" lon="3.29835">
        <ele>446</ele>
        <time>2016-05-14T12:39:41Z</time>
      </trkpt>
      <trkpt lat="44.30313" lon="3.2984">
        <ele>446</ele>
        <time>2016-05-14T12:39:50Z</time>
      </trkpt>
      <trkpt lat="44.30323" lon="3.29845">
        <ele>446</ele>
        <time>2016-05-14T12:39:59Z</time>
      </trkpt>
      <trkpt lat="44.30335" lon="3.2985">
        <ele>447</ele>
        <time>2016-05-14T12:40:09Z</time>
      </trkpt>
      <trkpt lat="44.30343" lon="3.29854">
        <ele>447</ele>
        <time>2016-05-14T12:40:18Z</time>
      </trkpt>
      <trkpt lat="44.30352" lon="3.29861">
        <ele>447</ele>
        <time>2016-05-14T12:40:27Z</time>
      </trkpt>
      <trkpt lat="44.30369" lon="3.29867">
        <ele>447</ele>
        <time>2016-05-14T12:40:38Z</time>
      </trkpt>
      <trkpt lat="44.3038" lon="3.29871">
        <ele>449</ele>
        <time>2016-05-14T12:40:47Z</time>
      </trkpt>
      <trkpt lat="44.30391" lon="3.29881">
        <ele>449</ele>
        <time>2016-05-14T12:40:56Z</time>
      </trkpt>
      <trkpt lat="44.304" lon="3.29891">
        <ele>449</ele>
        <time>2016-05-14T12:41:05Z</time>
      </trkpt>
      <trkpt lat="44.30409" lon="3.29904">
        <ele>449</ele>
        <time>2016-05-14T12:41:15Z</time>
      </trkpt>
      <trkpt lat="44.30418" lon="3.29916">
        <ele>446</ele>
        <time>2016-05-14T12:41:24Z</time>
      </trkpt>
      <trkpt lat="44.30427" lon="3.29924">
        <ele>446</ele>
        <time>2016-05-14T12:41:33Z</time>
      </trkpt>
      <trkpt lat="44.30439" lon="3.29934">
        <ele>453</ele>
        <time>2016-05-14T12:41:43Z</time>
      </trkpt>
      <trkpt lat="44.30448" lon="3.29946">
        <ele>454</ele>
        <time>2016-05-14T12:41:53Z</time>
      </trkpt>
      <trkpt lat="44.30455" lon="3.29958">
        <ele>454</ele>
        <time>2016-05-14T12:42:02Z</time>
      </trkpt>
      <trkpt lat="44.30466" lon="3.29971">
        <ele>454</ele>
        <time>2016-05-14T12:42:11Z</time>
      </trkpt>
      <trkpt lat="44.30472" lon="3.29986">
        <ele>451</ele>
        <time>2016-05-14T12:42:20Z</time>
      </trkpt>
      <trkpt lat="44.30478" lon="3.29998">
        <ele>450</ele>
        <time>2016-05-14T12:42:29Z</time>
      </trkpt>
      <trkpt lat="44.30484" lon="3.30013">
        <ele>450</ele>
        <time>2016-05-14T12:42:38Z</time>
      </trkpt>
      <trkpt lat="44.30487" lon="3.30029">
        <ele>452</ele>
        <time>2016-05-14T12:42:47Z</time>
      </trkpt>
      <trkpt lat="44.30492" lon="3.30045">
        <ele>452</ele>
        <time>2016-05-14T12:42:57Z</time>
      </trkpt>
      <trkpt lat="44.30497" lon="3.30063">
        <ele>452</ele>
        <time>2016-05-14T12:43:07Z</time>
      </trkpt>
      <trkpt lat="44.30502" lon="3.30082">
        <ele>452</ele>
        <time>2016-05-14T12:43:17Z</time>
      </trkpt>
      <trkpt lat="44.30503" lon="3.30099">
        <ele>452</ele>
        <time>2016-05-14T12:43:27Z</time>
      </trkpt>
      <trkpt lat="44.30504" lon="3.3012">
        <ele>452</ele>
        <time>2016-05-14T12:43:37Z</time>
      </trkpt>
      <trkpt lat="44.30508" lon="3.30133">
        <ele>455</ele>
        <time>2016-05-14T12:43:47Z</time>
      </trkpt>
      <trkpt lat="44.30516" lon="3.30148">
        <ele>460</ele>
        <time>2016-05-14T12:43:57Z</time>
      </trkpt>
      <trkpt lat="44.30513" lon="3.30172">
        <ele>460</ele>
        <time>2016-05-14T12:44:07Z</time>
      </trkpt>
      <trkpt lat="44.3051" lon="3.30195">
        <ele>458</ele>
        <time>2016-05-14T12:44:17Z</time>
      </trkpt>
      <trkpt lat="44.30507" lon="3.30213">
        <ele>457</ele>
        <time>2016-05-14T12:44:27Z</time>
      </trkpt>
      <trkpt lat="44.30505" lon="3.30234">
        <ele>455</ele>
        <time>2016-05-14T12:44:38Z</time>
      </trkpt>
      <trkpt lat="44.30504" lon="3.30253">
        <ele>455</ele>
        <time>2016-05-14T12:44:47Z</time>
      </trkpt>
      <trkpt lat="44.305" lon="3.30272">
        <ele>455</ele>
        <time>2016-05-14T12:44:57Z</time>
      </trkpt>
      <trkpt lat="44.30492" lon="3.30289">
        <ele>455</ele>
        <time>2016-05-14T12:45:07Z</time>
      </trkpt>
      <trkpt lat="44.30487" lon="3.30306">
        <ele>456</ele>
        <time>2016-05-14T12:45:18Z</time>
      </trkpt>
      <trkpt lat="44.30482" lon="3.30323">
        <ele>457</ele>
        <time>2016-05-14T12:45:27Z</time>
      </trkpt>
      <trkpt lat="44.30478" lon="3.30344">
        <ele>456</ele>
        <time>2016-05-14T12:45:37Z</time>
      </trkpt>
      <trkpt lat="44.30467" lon="3.3036">
        <ele>455</ele>
        <time>2016-05-14T12:45:47Z</time>
      </trkpt>
      <trkpt lat="44.3046" lon="3.30378">
        <ele>454</ele>
        <time>2016-05-14T12:45:57Z</time>
      </trkpt>
      <trkpt lat="44.30453" lon="3.30395">
        <ele>454</ele>
        <time>2016-05-14T12:46:07Z</time>
      </trkpt>
      <trkpt lat="44.30445" lon="3.30411">
        <ele>454</ele>
        <time>2016-05-14T12:46:17Z</time>
      </trkpt>
      <trkpt lat="44.30437" lon="3.30427">
        <ele>454</ele>
        <time>2016-05-14T12:46:27Z</time>
      </trkpt>
      <trkpt lat="44.30431" lon="3.30445">
        <ele>456</ele>
        <time>2016-05-14T12:46:37Z</time>
      </trkpt>
      <trkpt lat="44.30422" lon="3.30461">
        <ele>456</ele>
        <time>2016-05-14T12:46:47Z</time>
      </trkpt>
      <trkpt lat="44.30417" lon="3.30476">
        <ele>456</ele>
        <time>2016-05-14T12:46:57Z</time>
      </trkpt>
      <trkpt lat="44.30412" lon="3.30493">
        <ele>456</ele>
        <time>2016-05-14T12:47:07Z</time>
      </trkpt>
      <trkpt lat="44.30405" lon="3.30512">
        <ele>456</ele>
        <time>2016-05-14T12:47:17Z</time>
      </trkpt>
      <trkpt lat="44.30395" lon="3.30526">
        <ele>456</ele>
        <time>2016-05-14T12:47:27Z</time>
      </trkpt>
      <trkpt lat="44.30384" lon="3.30541">
        <ele>454</ele>
        <time>2016-05-14T12:47:37Z</time>
      </trkpt>
      <trkpt lat="44.30382" lon="3.30557">
        <ele>454</ele>
        <time>2016-05-14T12:47:47Z</time>
      </trkpt>
      <trkpt lat="44.30379" lon="3.3057">
        <ele>460</ele>
        <time>2016-05-14T12:47:57Z</time>
      </trkpt>
      <trkpt lat="44.30372" lon="3.30586">
        <ele>464</ele>
        <time>2016-05-14T12:48:07Z</time>
      </trkpt>
      <trkpt lat="44.30365" lon="3.306">
        <ele>464</ele>
        <time>2016-05-14T12:48:17Z</time>
      </trkpt>
      <trkpt lat="44.30359" lon="3.30618">
        <ele>458</ele>
        <time>2016-05-14T12:48:27Z</time>
      </trkpt>
      <trkpt lat="44.3035" lon="3.30634">
        <ele>457</ele>
        <time>2016-05-14T12:48:37Z</time>
      </trkpt>
      <trkpt lat="44.30339" lon="3.30649">
        <ele>454</ele>
        <time>2016-05-14T12:48:47Z</time>
      </trkpt>
      <trkpt lat="44.30333" lon="3.30663">
        <ele>451</ele>
        <time>2016-05-14T12:48:57Z</time>
      </trkpt>
      <trkpt lat="44.30328" lon="3.30678">
        <ele>451</ele>
        <time>2016-05-14T12:49:07Z</time>
      </trkpt>
      <trkpt lat="44.30323" lon="3.30693">
        <ele>451</ele>
        <time>2016-05-14T12:49:16Z</time>
      </trkpt>
      <trkpt lat="44.30315" lon="3.30704">
        <ele>451</ele>
        <time>2016-05-14T12:49:25Z</time>
      </trkpt>
      <trkpt lat="44.30308" lon="3.30715">
        <ele>451</ele>
        <time>2016-05-14T12:49:34Z</time>
      </trkpt>
      <trkpt lat="44.30304" lon="3.30727">
        <ele>454</ele>
        <time>2016-05-14T12:49:43Z</time>
      </trkpt>
      <trkpt lat="44.30298" lon="3.30739">
        <ele>460</ele>
        <time>2016-05-14T12:49:53Z</time>
      </trkpt>
      <trkpt lat="44.30293" lon="3.30752">
        <ele>460</ele>
        <time>2016-05-14T12:50:02Z</time>
      </trkpt>
      <trkpt lat="44.30284" lon="3.30767">
        <ele>461</ele>
        <time>2016-05-14T12:50:12Z</time>
      </trkpt>
      <trkpt lat="44.30279" lon="3.30785">
        <ele>458</ele>
        <time>2016-05-14T12:50:22Z</time>
      </trkpt>
      <trkpt lat="44.3027" lon="3.30799">
        <ele>458</ele>
        <time>2016-05-14T12:50:32Z</time>
      </trkpt>
      <trkpt lat="44.30259" lon="3.30809">
        <ele>458</ele>
        <time>2016-05-14T12:50:42Z</time>
      </trkpt>
      <trkpt lat="44.30251" lon="3.30824">
        <ele>458</ele>
        <time>2016-05-14T12:50:53Z</time>
      </trkpt>
      <trkpt lat="44.30244" lon="3.30835">
        <ele>459</ele>
        <time>2016-05-14T12:51:02Z</time>
      </trkpt>
      <trkpt lat="44.30236" lon="3.30848">
        <ele>460</ele>
        <time>2016-05-14T12:51:12Z</time>
      </trkpt>
      <trkpt lat="44.30228" lon="3.30861">
        <ele>460</ele>
        <time>2016-05-14T12:51:22Z</time>
      </trkpt>
      <trkpt lat="44.30224" lon="3.30871">
        <ele>460</ele>
        <time>2016-05-14T12:51:31Z</time>
      </trkpt>
      <trkpt lat="44.30215" lon="3.30884">
        <ele>463</ele>
        <time>2016-05-14T12:51:40Z</time>
      </trkpt>
      <trkpt lat="44.30205" lon="3.30895">
        <ele>463</ele>
        <time>2016-05-14T12:51:49Z</time>
      </trkpt>
      <trkpt lat="44.30197" lon="3.30907">
        <ele>461</ele>
        <time>2016-05-14T12:51:58Z</time>
      </trkpt>
      <trkpt lat="44.30181" lon="3.30915">
        <ele>457</ele>
        <time>2016-05-14T12:52:07Z</time>
      </trkpt>
      <trkpt lat="44.30172" lon="3.30925">
        <ele>455</ele>
        <time>2016-05-14T12:52:16Z</time>
      </trkpt>
      <trkpt lat="44.3016" lon="3.30934">
        <ele>454</ele>
        <time>2016-05-14T12:52:25Z</time>
      </trkpt>
      <trkpt lat="44.30153" lon="3.30945">
        <ele>454</ele>
        <time>2016-05-14T12:52:35Z</time>
      </trkpt>
      <trkpt lat="44.30146" lon="3.30953">
        <ele>455</ele>
        <time>2016-05-14T12:52:44Z</time>
      </trkpt>
      <trkpt lat="44.30138" lon="3.30963">
        <ele>455</ele>
        <time>2016-05-14T12:52:53Z</time>
      </trkpt>
      <trkpt lat="44.30131" lon="3.30972">
        <ele>458</ele>
        <time>2016-05-14T12:53:02Z</time>
      </trkpt>
      <trkpt lat="44.30122" lon="3.30981">
        <ele>463</ele>
        <time>2016-05-14T12:53:13Z</time>
      </trkpt>
      <trkpt lat="44.30119" lon="3.30998">
        <ele>464</ele>
        <time>2016-05-14T12:53:22Z</time>
      </trkpt>
      <trkpt lat="44.30113" lon="3.31014">
        <ele>464</ele>
        <time>2016-05-14T12:53:32Z</time>
      </trkpt>
      <trkpt lat="44.30106" lon="3.31027">
        <ele>461</ele>
        <time>2016-05-14T12:53:42Z</time>
      </trkpt>
      <trkpt lat="44.30093" lon="3.31034">
        <ele>459</ele>
        <time>2016-05-14T12:53:54Z</time>
      </trkpt>
      <trkpt lat="44.30078" lon="3.31037">
        <ele>462</ele>
        <time>2016-05-14T12:54:04Z</time>
      </trkpt>
      <trkpt lat="44.30071" lon="3.31036">
        <ele>465</ele>
        <time>2016-05-14T12:54:13Z</time>
      </trkpt>
      <trkpt lat="44.30053" lon="3.31038">
        <ele>465</ele>
        <time>2016-05-14T12:54:22Z</time>
      </trkpt>
      <trkpt lat="44.3004" lon="3.31041">
        <ele>466</ele>
        <time>2016-05-14T12:54:33Z</time>
      </trkpt>
      <trkpt lat="44.30035" lon="3.3104">
        <ele>463</ele>
        <time>2016-05-14T12:54:45Z</time>
      </trkpt>
      <trkpt lat="44.30028" lon="3.31042">
        <ele>463</ele>
        <time>2016-05-14T12:54:54Z</time>
      </trkpt>
      <trkpt lat="44.3002" lon="3.31044">
        <ele>463</ele>
        <time>2016-05-14T12:55:03Z</time>
      </trkpt>
      <trkpt lat="44.30016" lon="3.31047">
        <ele>463</ele>
        <time>2016-05-14T12:55:12Z</time>
      </trkpt>
      <trkpt lat="44.30011" lon="3.31049">
        <ele>463</ele>
        <time>2016-05-14T12:55:21Z</time>
      </trkpt>
      <trkpt lat="44.29989" lon="3.31055">
        <ele>466</ele>
        <time>2016-05-14T12:55:30Z</time>
      </trkpt>
      <trkpt lat="44.29977" lon="3.31057">
        <ele>474</ele>
        <time>2016-05-14T12:55:41Z</time>
      </trkpt>
      <trkpt lat="44.29969" lon="3.31054">
        <ele>474</ele>
        <time>2016-05-14T12:55:53Z</time>
      </trkpt>
      <trkpt lat="44.2996" lon="3.31058">
        <ele>471</ele>
        <time>2016-05-14T12:56:02Z</time>
      </trkpt>
      <trkpt lat="44.29958" lon="3.31066">
        <ele>467</ele>
        <time>2016-05-14T12:56:11Z</time>
      </trkpt>
      <trkpt lat="44.29946" lon="3.3108">
        <ele>464</ele>
        <time>2016-05-14T12:56:20Z</time>
      </trkpt>
      <trkpt lat="44.29921" lon="3.3109">
        <ele>470</ele>
        <time>2016-05-14T12:56:30Z</time>
      </trkpt>
      <trkpt lat="44.29918" lon="3.31093">
        <ele>470</ele>
        <time>2016-05-14T12:56:39Z</time>
      </trkpt>
      <trkpt lat="44.29906" lon="3.31094">
        <ele>461</ele>
        <time>2016-05-14T12:56:48Z</time>
      </trkpt>
      <trkpt lat="44.29896" lon="3.31112">
        <ele>461</ele>
        <time>2016-05-14T12:56:58Z</time>
      </trkpt>
      <trkpt lat="44.29886" lon="3.31123">
        <ele>461</ele>
        <time>2016-05-14T12:57:08Z</time>
      </trkpt>
      <trkpt lat="44.29877" lon="3.31137">
        <ele>462</ele>
        <time>2016-05-14T12:57:17Z</time>
      </trkpt>
      <trkpt lat="44.29865" lon="3.31145">
        <ele>463</ele>
        <time>2016-05-14T12:57:26Z</time>
      </trkpt>
      <trkpt lat="44.29857" lon="3.31143">
        <ele>463</ele>
        <time>2016-05-14T12:57:38Z</time>
      </trkpt>
      <trkpt lat="44.29853" lon="3.31148">
        <ele>463</ele>
        <time>2016-05-14T12:57:47Z</time>
      </trkpt>
      <trkpt lat="44.29851" lon="3.31155">
        <ele>463</ele>
        <time>2016-05-14T12:57:57Z</time>
      </trkpt>
      <trkpt lat="44.29847" lon="3.31167">
        <ele>461</ele>
        <time>2016-05-14T12:58:06Z</time>
      </trkpt>
      <trkpt lat="44.29839" lon="3.31181">
        <ele>455</ele>
        <time>2016-05-14T12:58:16Z</time>
      </trkpt>
      <trkpt lat="44.29837" lon="3.31196">
        <ele>448</ele>
        <time>2016-05-14T12:58:26Z</time>
      </trkpt>
      <trkpt lat="44.29836" lon="3.31209">
        <ele>444</ele>
        <time>2016-05-14T12:58:36Z</time>
      </trkpt>
      <trkpt lat="44.29833" lon="3.31222">
        <ele>444</ele>
        <time>2016-05-14T12:58:45Z</time>
      </trkpt>
      <trkpt lat="44.2983" lon="3.31236">
        <ele>444</ele>
        <time>2016-05-14T12:58:54Z</time>
      </trkpt>
      <trkpt lat="44.29827" lon="3.3125">
        <ele>444</ele>
        <time>2016-05-14T12:59:03Z</time>
      </trkpt>
      <trkpt lat="44.29827" lon="3.31265">
        <ele>446</ele>
        <time>2016-05-14T12:59:13Z</time>
      </trkpt>
      <trkpt lat="44.2983" lon="3.31278">
        <ele>449</ele>
        <time>2016-05-14T12:59:22Z</time>
      </trkpt>
      <trkpt lat="44.29832" lon="3.31292">
        <ele>449</ele>
        <time>2016-05-14T12:59:31Z</time>
      </trkpt>
      <trkpt lat="44.29835" lon="3.31307">
        <ele>449</ele>
        <time>2016-05-14T12:59:41Z</time>
      </trkpt>
      <trkpt lat="44.29836" lon="3.31325">
        <ele>447</ele>
        <time>2016-05-14T12:59:50Z</time>
      </trkpt>
      <trkpt lat="44.29829" lon="3.31336">
        <ele>446</ele>
        <time>2016-05-14T12:59:59Z</time>
      </trkpt>
      <trkpt lat="44.29824" lon="3.31349">
        <ele>442</ele>
        <time>2016-05-14T13:00:08Z</time>
      </trkpt>
      <trkpt lat="44.29821" lon="3.31362">
        <ele>441</ele>
        <time>2016-05-14T13:00:17Z</time>
      </trkpt>
      <trkpt lat="44.29824" lon="3.31373">
        <ele>441</ele>
        <time>2016-05-14T13:00:26Z</time>
      </trkpt>
      <trkpt lat="44.29827" lon="3.31383">
        <ele>445</ele>
        <time>2016-05-14T13:00:37Z</time>
      </trkpt>
      <trkpt lat="44.29829" lon="3.31384">
        <ele>454</ele>
        <time>2016-05-14T13:00:53Z</time>
      </trkpt>
      <trkpt lat="44.29828" lon="3.31388">
        <ele>454</ele>
        <time>2016-05-14T13:01:06Z</time>
      </trkpt>
      <trkpt lat="44.29832" lon="3.31392">
        <ele>454</ele>
        <time>2016-05-14T13:01:17Z</time>
      </trkpt>
      <trkpt lat="44.29831" lon="3.31392">
        <ele>453</ele>
        <time>2016-05-14T13:01:41Z</time>
      </trkpt>
      <trkpt lat="44.29824" lon="3.31389">
        <ele>453</ele>
        <time>2016-05-14T13:01:51Z</time>
      </trkpt>
      <trkpt lat="44.29828" lon="3.31392">
        <ele>451</ele>
        <time>2016-05-14T13:02:02Z</time>
      </trkpt>
      <trkpt lat="44.2983" lon="3.31394">
        <ele>447</ele>
        <time>2016-05-14T13:02:16Z</time>
      </trkpt>
      <trkpt lat="44.29831" lon="3.31392">
        <ele>446</ele>
        <time>2016-05-14T13:02:35Z</time>
      </trkpt>
      <trkpt lat="44.29838" lon="3.31391">
        <ele>447</ele>
        <time>2016-05-14T13:02:44Z</time>
      </trkpt>
      <trkpt lat="44.29848" lon="3.31395">
        <ele>448</ele>
        <time>2016-05-14T13:02:53Z</time>
      </trkpt>
      <trkpt lat="44.29859" lon="3.31399">
        <ele>448</ele>
        <time>2016-05-14T13:03:02Z</time>
      </trkpt>
      <trkpt lat="44.29869" lon="3.31401">
        <ele>448</ele>
        <time>2016-05-14T13:03:11Z</time>
      </trkpt>
      <trkpt lat="44.29877" lon="3.31413">
        <ele>448</ele>
        <time>2016-05-14T13:03:20Z</time>
      </trkpt>
      <trkpt lat="44.29883" lon="3.31424">
        <ele>448</ele>
        <time>2016-05-14T13:03:29Z</time>
      </trkpt>
      <trkpt lat="44.29888" lon="3.31437">
        <ele>447</ele>
        <time>2016-05-14T13:03:38Z</time>
      </trkpt>
      <trkpt lat="44.29895" lon="3.31448">
        <ele>446</ele>
        <time>2016-05-14T13:03:47Z</time>
      </trkpt>
      <trkpt lat="44.29904" lon="3.31456">
        <ele>446</ele>
        <time>2016-05-14T13:03:56Z</time>
      </trkpt>
      <trkpt lat="44.29911" lon="3.31462">
        <ele>446</ele>
        <time>2016-05-14T13:04:05Z</time>
      </trkpt>
      <trkpt lat="44.29917" lon="3.31473">
        <ele>446</ele>
        <time>2016-05-14T13:04:15Z</time>
      </trkpt>
      <trkpt lat="44.29926" lon="3.31482">
        <ele>446</ele>
        <time>2016-05-14T13:04:24Z</time>
      </trkpt>
      <trkpt lat="44.29934" lon="3.31495">
        <ele>446</ele>
        <time>2016-05-14T13:04:34Z</time>
      </trkpt>
      <trkpt lat="44.29939" lon="3.31508">
        <ele>446</ele>
        <time>2016-05-14T13:04:44Z</time>
      </trkpt>
      <trkpt lat="44.29943" lon="3.31518">
        <ele>446</ele>
        <time>2016-05-14T13:04:53Z</time>
      </trkpt>
      <trkpt lat="44.29949" lon="3.31524">
        <ele>451</ele>
        <time>2016-05-14T13:05:02Z</time>
      </trkpt>
      <trkpt lat="44.29956" lon="3.31531">
        <ele>459</ele>
        <time>2016-05-14T13:05:11Z</time>
      </trkpt>
      <trkpt lat="44.29963" lon="3.31536">
        <ele>464</ele>
        <time>2016-05-14T13:05:20Z</time>
      </trkpt>
      <trkpt lat="44.29971" lon="3.31545">
        <ele>468</ele>
        <time>2016-05-14T13:05:29Z</time>
      </trkpt>
      <trkpt lat="44.29975" lon="3.31563">
        <ele>468</ele>
        <time>2016-05-14T13:05:38Z</time>
      </trkpt>
      <trkpt lat="44.29979" lon="3.31581">
        <ele>460</ele>
        <time>2016-05-14T13:05:47Z</time>
      </trkpt>
      <trkpt lat="44.29985" lon="3.31598">
        <ele>454</ele>
        <time>2016-05-14T13:05:56Z</time>
      </trkpt>
      <trkpt lat="44.29989" lon="3.31611">
        <ele>453</ele>
        <time>2016-05-14T13:06:05Z</time>
      </trkpt>
      <trkpt lat="44.29987" lon="3.31624">
        <ele>450</ele>
        <time>2016-05-14T13:06:15Z</time>
      </trkpt>
      <trkpt lat="44.29981" lon="3.31633">
        <ele>451</ele>
        <time>2016-05-14T13:06:24Z</time>
      </trkpt>
      <trkpt lat="44.29978" lon="3.31644">
        <ele>454</ele>
        <time>2016-05-14T13:06:33Z</time>
      </trkpt>
      <trkpt lat="44.29978" lon="3.3166">
        <ele>459</ele>
        <time>2016-05-14T13:06:42Z</time>
      </trkpt>
      <trkpt lat="44.29981" lon="3.31677">
        <ele>459</ele>
        <time>2016-05-14T13:06:51Z</time>
      </trkpt>
      <trkpt lat="44.29979" lon="3.31688">
        <ele>461</ele>
        <time>2016-05-14T13:07:00Z</time>
      </trkpt>
      <trkpt lat="44.29982" lon="3.31705">
        <ele>460</ele>
        <time>2016-05-14T13:07:10Z</time>
      </trkpt>
      <trkpt lat="44.29984" lon="3.31719">
        <ele>458</ele>
        <time>2016-05-14T13:07:19Z</time>
      </trkpt>
      <trkpt lat="44.29985" lon="3.3173">
        <ele>455</ele>
        <time>2016-05-14T13:07:29Z</time>
      </trkpt>
      <trkpt lat="44.29985" lon="3.31747">
        <ele>452</ele>
        <time>2016-05-14T13:07:38Z</time>
      </trkpt>
      <trkpt lat="44.29987" lon="3.31762">
        <ele>452</ele>
        <time>2016-05-14T13:07:47Z</time>
      </trkpt>
      <trkpt lat="44.29988" lon="3.31777">
        <ele>452</ele>
        <time>2016-05-14T13:07:56Z</time>
      </trkpt>
      <trkpt lat="44.29989" lon="3.31791">
        <ele>452</ele>
        <time>2016-05-14T13:08:05Z</time>
      </trkpt>
      <trkpt lat="44.2999" lon="3.31806">
        <ele>452</ele>
        <time>2016-05-14T13:08:14Z</time>
      </trkpt>
      <trkpt lat="44.2999" lon="3.31818">
        <ele>452</ele>
        <time>2016-05-14T13:08:23Z</time>
      </trkpt>
      <trkpt lat="44.29991" lon="3.31834">
        <ele>452</ele>
        <time>2016-05-14T13:08:32Z</time>
      </trkpt>
      <trkpt lat="44.29992" lon="3.31852">
        <ele>452</ele>
        <time>2016-05-14T13:08:42Z</time>
      </trkpt>
      <trkpt lat="44.29993" lon="3.31868">
        <ele>452</ele>
        <time>2016-05-14T13:08:52Z</time>
      </trkpt>
      <trkpt lat="44.29993" lon="3.31885">
        <ele>452</ele>
        <time>2016-05-14T13:09:02Z</time>
      </trkpt>
      <trkpt lat="44.29992" lon="3.31901">
        <ele>451</ele>
        <time>2016-05-14T13:09:11Z</time>
      </trkpt>
      <trkpt lat="44.29991" lon="3.31916">
        <ele>451</ele>
        <time>2016-05-14T13:09:20Z</time>
      </trkpt>
      <trkpt lat="44.2999" lon="3.3193">
        <ele>451</ele>
        <time>2016-05-14T13:09:29Z</time>
      </trkpt>
      <trkpt lat="44.2999" lon="3.31946">
        <ele>450</ele>
        <time>2016-05-14T13:09:38Z</time>
      </trkpt>
      <trkpt lat="44.29987" lon="3.31959">
        <ele>449</ele>
        <time>2016-05-14T13:09:47Z</time>
      </trkpt>
      <trkpt lat="44.29988" lon="3.31975">
        <ele>446</ele>
        <time>2016-05-14T13:09:56Z</time>
      </trkpt>
      <trkpt lat="44.29987" lon="3.31989">
        <ele>445</ele>
        <time>2016-05-14T13:10:05Z</time>
      </trkpt>
      <trkpt lat="44.29988" lon="3.32002">
        <ele>445</ele>
        <time>2016-05-14T13:10:14Z</time>
      </trkpt>
      <trkpt lat="44.2999" lon="3.32018">
        <ele>445</ele>
        <time>2016-05-14T13:10:23Z</time>
      </trkpt>
      <trkpt lat="44.29991" lon="3.32034">
        <ele>445</ele>
        <time>2016-05-14T13:10:32Z</time>
      </trkpt>
      <trkpt lat="44.29995" lon="3.32051">
        <ele>445</ele>
        <time>2016-05-14T13:10:41Z</time>
      </trkpt>
      <trkpt lat="44.29999" lon="3.32063">
        <ele>448</ele>
        <time>2016-05-14T13:10:51Z</time>
      </trkpt>
      <trkpt lat="44.3" lon="3.3208">
        <ele>448</ele>
        <time>2016-05-14T13:11:00Z</time>
      </trkpt>
      <trkpt lat="44.30007" lon="3.32088">
        <ele>448</ele>
        <time>2016-05-14T13:11:09Z</time>
      </trkpt>
      <trkpt lat="44.30014" lon="3.32091">
        <ele>448</ele>
        <time>2016-05-14T13:11:20Z</time>
      </trkpt>
      <trkpt lat="44.30016" lon="3.32088">
        <ele>447</ele>
        <time>2016-05-14T13:11:29Z</time>
      </trkpt>
      <trkpt lat="44.30019" lon="3.32088">
        <ele>445</ele>
        <time>2016-05-14T13:11:38Z</time>
      </trkpt>
      <trkpt lat="44.30027" lon="3.32084">
        <ele>438</ele>
        <time>2016-05-14T13:11:47Z</time>
      </trkpt>
      <trkpt lat="44.30038" lon="3.32077">
        <ele>437</ele>
        <time>2016-05-14T13:11:56Z</time>
      </trkpt>
      <trkpt lat="44.3005" lon="3.32068">
        <ele>437</ele>
        <time>2016-05-14T13:12:05Z</time>
      </trkpt>
      <trkpt lat="44.3006" lon="3.32062">
        <ele>437</ele>
        <time>2016-05-14T13:12:14Z</time>
      </trkpt>
      <trkpt lat="44.30069" lon="3.32055">
        <ele>437</ele>
        <time>2016-05-14T13:12:23Z</time>
      </trkpt>
      <trkpt lat="44.3008" lon="3.32048">
        <ele>437</ele>
        <time>2016-05-14T13:12:32Z</time>
      </trkpt>
      <trkpt lat="44.30086" lon="3.32041">
        <ele>440</ele>
        <time>2016-05-14T13:12:41Z</time>
      </trkpt>
      <trkpt lat="44.30096" lon="3.32034">
        <ele>443</ele>
        <time>2016-05-14T13:12:50Z</time>
      </trkpt>
      <trkpt lat="44.30095" lon="3.32042">
        <ele>444</ele>
        <time>2016-05-14T13:12:59Z</time>
      </trkpt>
      <trkpt lat="44.30102" lon="3.32043">
        <ele>444</ele>
        <time>2016-05-14T13:13:08Z</time>
      </trkpt>
      <trkpt lat="44.30102" lon="3.32047">
        <ele>444</ele>
        <time>2016-05-14T13:13:27Z</time>
      </trkpt>
      <trkpt lat="44.30103" lon="3.32046">
        <ele>441</ele>
        <time>2016-05-14T13:13:37Z</time>
      </trkpt>
      <trkpt lat="44.30105" lon="3.32056">
        <ele>441</ele>
        <time>2016-05-14T13:13:46Z</time>
      </trkpt>
      <trkpt lat="44.30109" lon="3.32066">
        <ele>442</ele>
        <time>2016-05-14T13:13:55Z</time>
      </trkpt>
      <trkpt lat="44.30112" lon="3.3208">
        <ele>442</ele>
        <time>2016-05-14T13:14:04Z</time>
      </trkpt>
      <trkpt lat="44.30114" lon="3.3209">
        <ele>442</ele>
        <time>2016-05-14T13:14:13Z</time>
      </trkpt>
      <trkpt lat="44.30115" lon="3.32093">
        <ele>442</ele>
        <time>2016-05-14T13:14:23Z</time>
      </trkpt>
      <trkpt lat="44.30119" lon="3.32095">
        <ele>442</ele>
        <time>2016-05-14T13:14:32Z</time>
      </trkpt>
      <trkpt lat="44.30125" lon="3.32098">
        <ele>445</ele>
        <time>2016-05-14T13:14:43Z</time>
      </trkpt>
      <trkpt lat="44.30127" lon="3.32105">
        <ele>454</ele>
        <time>2016-05-14T13:14:53Z</time>
      </trkpt>
      <trkpt lat="44.30119" lon="3.32111">
        <ele>462</ele>
        <time>2016-05-14T13:15:02Z</time>
      </trkpt>
      <trkpt lat="44.30123" lon="3.32106">
        <ele>462</ele>
        <time>2016-05-14T13:15:12Z</time>
      </trkpt>
      <trkpt lat="44.30122" lon="3.32098">
        <ele>456</ele>
        <time>2016-05-14T13:15:22Z</time>
      </trkpt>
      <trkpt lat="44.30121" lon="3.32094">
        <ele>451</ele>
        <time>2016-05-14T13:15:34Z</time>
      </trkpt>
      <trkpt lat="44.30112" lon="3.32089">
        <ele>448</ele>
        <time>2016-05-14T13:15:43Z</time>
      </trkpt>
      <trkpt lat="44.30116" lon="3.32089">
        <ele>446</ele>
        <time>2016-05-14T13:15:53Z</time>
      </trkpt>
      <trkpt lat="44.30122" lon="3.32087">
        <ele>446</ele>
        <time>2016-05-14T13:16:03Z</time>
      </trkpt>
      <trkpt lat="44.30119" lon="3.32092">
        <ele>446</ele>
        <time>2016-05-14T13:16:13Z</time>
      </trkpt>
      <trkpt lat="44.30118" lon="3.32094">
        <ele>446</ele>
        <time>2016-05-14T13:16:24Z</time>
      </trkpt>
      <trkpt lat="44.30122" lon="3.32096">
        <ele>446</ele>
        <time>2016-05-14T13:16:33Z</time>
      </trkpt>
      <trkpt lat="44.30122" lon="3.32096">
        <ele>447</ele>
        <time>2016-05-14T13:16:47Z</time>
      </trkpt>
      <trkpt lat="44.30116" lon="3.32088">
        <ele>444</ele>
        <time>2016-05-14T13:16:56Z</time>
      </trkpt>
      <trkpt lat="44.30114" lon="3.32088">
        <ele>443</ele>
        <time>2016-05-14T13:17:06Z</time>
      </trkpt>
      <trkpt lat="44.30115" lon="3.32088">
        <ele>443</ele>
        <time>2016-05-14T13:17:22Z</time>
      </trkpt>
      <trkpt lat="44.30117" lon="3.32089">
        <ele>441</ele>
        <time>2016-05-14T13:17:34Z</time>
      </trkpt>
      <trkpt lat="44.30114" lon="3.32081">
        <ele>441</ele>
        <time>2016-05-14T13:17:44Z</time>
      </trkpt>
      <trkpt lat="44.30114" lon="3.32076">
        <ele>441</ele>
        <time>2016-05-14T13:18:01Z</time>
      </trkpt>
      <trkpt lat="44.30116" lon="3.32082">
        <ele>441</ele>
        <time>2016-05-14T13:18:10Z</time>
      </trkpt>
      <trkpt lat="44.30115" lon="3.32093">
        <ele>444</ele>
        <time>2016-05-14T13:18:21Z</time>
      </trkpt>
      <trkpt lat="44.30115" lon="3.32093">
        <ele>444</ele>
        <time>2016-05-14T13:18:21Z</time>
      </trkpt>
    </trkseg>
  </trk>
</gpx>